<?xml version="1.0" encoding="utf-8"?>
<gpx xmlns:xsi="http://www.w3.org/2001/XMLSchema-instance" xmlns:xsd="http://www.w3.org/2001/XMLSchema" version="1.1" creator="Shapelink.com" xmlns="http://www.topografix.com/GPX/1/1" xmlns:gpxtpx="http://www.garmin.com/xmlschemas/TrackPointExtension/v1">
  <metadata>
    <name>Längdskidåkning - Klassisk 20.12 km, 2013-03-17</name>
    <desc></desc>
    <author><name>Alexander Engvall</name></author> 
    <time>2013-03-17T10:25:11Z</time>
  </metadata>
  <trk>
    <name>Längdskidåkning - Klassisk 20.12 km, 2013-03-17</name>
    <trkseg>
      <trkpt lat="59.4457664" lon="17.8480105">
        <ele>0</ele>
        <time>2013-03-17T10:25:11Z</time>
      </trkpt>
      <trkpt lat="59.4459088" lon="17.8479245">
        <ele>0</ele>
        <time>2013-03-17T10:25:17Z</time>
      </trkpt>
      <trkpt lat="59.4461188" lon="17.847801">
        <ele>0</ele>
        <time>2013-03-17T10:25:21Z</time>
      </trkpt>
      <trkpt lat="59.4463164" lon="17.8477345">
        <ele>0</ele>
        <time>2013-03-17T10:25:24Z</time>
      </trkpt>
      <trkpt lat="59.4464978" lon="17.8477692">
        <ele>0</ele>
        <time>2013-03-17T10:25:27Z</time>
      </trkpt>
      <trkpt lat="59.4466107" lon="17.847837">
        <ele>0</ele>
        <time>2013-03-17T10:25:29Z</time>
      </trkpt>
      <trkpt lat="59.4467129" lon="17.8479157">
        <ele>0</ele>
        <time>2013-03-17T10:25:31Z</time>
      </trkpt>
      <trkpt lat="59.4468388" lon="17.8481944">
        <ele>0</ele>
        <time>2013-03-17T10:25:35Z</time>
      </trkpt>
      <trkpt lat="59.4468295" lon="17.8484415">
        <ele>0</ele>
        <time>2013-03-17T10:25:38Z</time>
      </trkpt>
      <trkpt lat="59.4468443" lon="17.8486152">
        <ele>0</ele>
        <time>2013-03-17T10:25:40Z</time>
      </trkpt>
      <trkpt lat="59.4468491" lon="17.8487736">
        <ele>0</ele>
        <time>2013-03-17T10:25:42Z</time>
      </trkpt>
      <trkpt lat="59.4468564" lon="17.849015">
        <ele>0</ele>
        <time>2013-03-17T10:25:45Z</time>
      </trkpt>
      <trkpt lat="59.4468564" lon="17.8492657">
        <ele>2.6</ele>
        <time>2013-03-17T10:25:48Z</time>
      </trkpt>
      <trkpt lat="59.4468538" lon="17.8494304">
        <ele>8.6</ele>
        <time>2013-03-17T10:25:50Z</time>
      </trkpt>
      <trkpt lat="59.4468619" lon="17.8495958">
        <ele>14.2</ele>
        <time>2013-03-17T10:25:52Z</time>
      </trkpt>
      <trkpt lat="59.4468958" lon="17.8498592">
        <ele>19.8</ele>
        <time>2013-03-17T10:25:55Z</time>
      </trkpt>
      <trkpt lat="59.4469313" lon="17.8501318">
        <ele>23.4</ele>
        <time>2013-03-17T10:25:58Z</time>
      </trkpt>
      <trkpt lat="59.4469474" lon="17.8502137">
        <ele>24.8</ele>
        <time>2013-03-17T10:25:59Z</time>
      </trkpt>
      <trkpt lat="59.4470687" lon="17.8504961">
        <ele>30.8</ele>
        <time>2013-03-17T10:26:03Z</time>
      </trkpt>
      <trkpt lat="59.4472423" lon="17.8507389">
        <ele>36</ele>
        <time>2013-03-17T10:26:08Z</time>
      </trkpt>
      <trkpt lat="59.447278" lon="17.8507801">
        <ele>37</ele>
        <time>2013-03-17T10:26:09Z</time>
      </trkpt>
      <trkpt lat="59.4473611" lon="17.8508575">
        <ele>39.2</ele>
        <time>2013-03-17T10:26:11Z</time>
      </trkpt>
      <trkpt lat="59.4474077" lon="17.8508899">
        <ele>40.2</ele>
        <time>2013-03-17T10:26:12Z</time>
      </trkpt>
      <trkpt lat="59.4475419" lon="17.8509559">
        <ele>41.4</ele>
        <time>2013-03-17T10:26:15Z</time>
      </trkpt>
      <trkpt lat="59.4475894" lon="17.8509505">
        <ele>41</ele>
        <time>2013-03-17T10:26:16Z</time>
      </trkpt>
      <trkpt lat="59.4478001" lon="17.8508307">
        <ele>43.2</ele>
        <time>2013-03-17T10:26:20Z</time>
      </trkpt>
      <trkpt lat="59.4478451" lon="17.8507959">
        <ele>42.6</ele>
        <time>2013-03-17T10:26:21Z</time>
      </trkpt>
      <trkpt lat="59.447979" lon="17.8506617">
        <ele>44.6</ele>
        <time>2013-03-17T10:26:24Z</time>
      </trkpt>
      <trkpt lat="59.4481611" lon="17.8504908">
        <ele>45.6</ele>
        <time>2013-03-17T10:26:28Z</time>
      </trkpt>
      <trkpt lat="59.4483561" lon="17.8503348">
        <ele>48</ele>
        <time>2013-03-17T10:26:32Z</time>
      </trkpt>
      <trkpt lat="59.4484425" lon="17.8502538">
        <ele>50.2</ele>
        <time>2013-03-17T10:26:34Z</time>
      </trkpt>
      <trkpt lat="59.4485323" lon="17.850168">
        <ele>51.8</ele>
        <time>2013-03-17T10:26:36Z</time>
      </trkpt>
      <trkpt lat="59.4485778" lon="17.8501345">
        <ele>53.2</ele>
        <time>2013-03-17T10:26:37Z</time>
      </trkpt>
      <trkpt lat="59.4487265" lon="17.8500466">
        <ele>59</ele>
        <time>2013-03-17T10:26:41Z</time>
      </trkpt>
      <trkpt lat="59.4487466" lon="17.8500322">
        <ele>60.4</ele>
        <time>2013-03-17T10:26:42Z</time>
      </trkpt>
      <trkpt lat="59.4488905" lon="17.8500079">
        <ele>70.8</ele>
        <time>2013-03-17T10:26:56Z</time>
      </trkpt>
      <trkpt lat="59.448965" lon="17.8499765">
        <ele>69.6</ele>
        <time>2013-03-17T10:26:59Z</time>
      </trkpt>
      <trkpt lat="59.4491798" lon="17.850037">
        <ele>49.6</ele>
        <time>2013-03-17T10:27:09Z</time>
      </trkpt>
      <trkpt lat="59.4495624" lon="17.8503058">
        <ele>36.2</ele>
        <time>2013-03-17T10:29:11Z</time>
      </trkpt>
      <trkpt lat="59.44972" lon="17.8504147">
        <ele>34.4</ele>
        <time>2013-03-17T10:29:15Z</time>
      </trkpt>
      <trkpt lat="59.4499223" lon="17.8505229">
        <ele>34.2</ele>
        <time>2013-03-17T10:29:19Z</time>
      </trkpt>
      <trkpt lat="59.4501286" lon="17.8506223">
        <ele>34</ele>
        <time>2013-03-17T10:29:23Z</time>
      </trkpt>
      <trkpt lat="59.4503486" lon="17.8507151">
        <ele>33.6</ele>
        <time>2013-03-17T10:29:27Z</time>
      </trkpt>
      <trkpt lat="59.4505838" lon="17.8507535">
        <ele>34.6</ele>
        <time>2013-03-17T10:29:31Z</time>
      </trkpt>
      <trkpt lat="59.450801" lon="17.8507068">
        <ele>33.4</ele>
        <time>2013-03-17T10:29:35Z</time>
      </trkpt>
      <trkpt lat="59.4509847" lon="17.850714">
        <ele>34.8</ele>
        <time>2013-03-17T10:29:38Z</time>
      </trkpt>
      <trkpt lat="59.4511662" lon="17.8507125">
        <ele>35.2</ele>
        <time>2013-03-17T10:29:41Z</time>
      </trkpt>
      <trkpt lat="59.4512823" lon="17.8506988">
        <ele>34.8</ele>
        <time>2013-03-17T10:29:43Z</time>
      </trkpt>
      <trkpt lat="59.4513999" lon="17.8506742">
        <ele>35</ele>
        <time>2013-03-17T10:29:45Z</time>
      </trkpt>
      <trkpt lat="59.4515807" lon="17.8506278">
        <ele>35</ele>
        <time>2013-03-17T10:29:48Z</time>
      </trkpt>
      <trkpt lat="59.4517645" lon="17.8505874">
        <ele>35.6</ele>
        <time>2013-03-17T10:29:51Z</time>
      </trkpt>
      <trkpt lat="59.4519722" lon="17.8505379">
        <ele>34.6</ele>
        <time>2013-03-17T10:29:55Z</time>
      </trkpt>
      <trkpt lat="59.4520633" lon="17.8505063">
        <ele>33.8</ele>
        <time>2013-03-17T10:29:57Z</time>
      </trkpt>
      <trkpt lat="59.4521638" lon="17.8505322">
        <ele>33.2</ele>
        <time>2013-03-17T10:29:59Z</time>
      </trkpt>
      <trkpt lat="59.4523629" lon="17.8506846">
        <ele>32.4</ele>
        <time>2013-03-17T10:30:03Z</time>
      </trkpt>
      <trkpt lat="59.4524126" lon="17.8507273">
        <ele>32.4</ele>
        <time>2013-03-17T10:30:04Z</time>
      </trkpt>
      <trkpt lat="59.4525575" lon="17.8508385">
        <ele>33.6</ele>
        <time>2013-03-17T10:30:07Z</time>
      </trkpt>
      <trkpt lat="59.4527461" lon="17.8509679">
        <ele>34.6</ele>
        <time>2013-03-17T10:30:11Z</time>
      </trkpt>
      <trkpt lat="59.4528905" lon="17.8510812">
        <ele>36</ele>
        <time>2013-03-17T10:30:14Z</time>
      </trkpt>
      <trkpt lat="59.4529415" lon="17.8511052">
        <ele>36.8</ele>
        <time>2013-03-17T10:30:15Z</time>
      </trkpt>
      <trkpt lat="59.4530987" lon="17.8511337">
        <ele>38.4</ele>
        <time>2013-03-17T10:30:18Z</time>
      </trkpt>
      <trkpt lat="59.4531445" lon="17.8511031">
        <ele>39.6</ele>
        <time>2013-03-17T10:30:19Z</time>
      </trkpt>
      <trkpt lat="59.4532419" lon="17.8508948">
        <ele>40.4</ele>
        <time>2013-03-17T10:30:22Z</time>
      </trkpt>
      <trkpt lat="59.4532797" lon="17.8508253">
        <ele>40.2</ele>
        <time>2013-03-17T10:30:23Z</time>
      </trkpt>
      <trkpt lat="59.4534418" lon="17.8505638">
        <ele>38.8</ele>
        <time>2013-03-17T10:30:27Z</time>
      </trkpt>
      <trkpt lat="59.4535988" lon="17.8502808">
        <ele>39.4</ele>
        <time>2013-03-17T10:30:31Z</time>
      </trkpt>
      <trkpt lat="59.4536333" lon="17.8502079">
        <ele>39.2</ele>
        <time>2013-03-17T10:30:32Z</time>
      </trkpt>
      <trkpt lat="59.4537039" lon="17.8500619">
        <ele>39.6</ele>
        <time>2013-03-17T10:30:34Z</time>
      </trkpt>
      <trkpt lat="59.45375" lon="17.8499935">
        <ele>40</ele>
        <time>2013-03-17T10:30:35Z</time>
      </trkpt>
      <trkpt lat="59.4538304" lon="17.849862">
        <ele>40</ele>
        <time>2013-03-17T10:30:37Z</time>
      </trkpt>
      <trkpt lat="59.4539012" lon="17.8497345">
        <ele>39.4</ele>
        <time>2013-03-17T10:30:39Z</time>
      </trkpt>
      <trkpt lat="59.4540739" lon="17.8494869">
        <ele>38.2</ele>
        <time>2013-03-17T10:30:43Z</time>
      </trkpt>
      <trkpt lat="59.4542493" lon="17.8492199">
        <ele>38.4</ele>
        <time>2013-03-17T10:30:47Z</time>
      </trkpt>
      <trkpt lat="59.4543314" lon="17.8490827">
        <ele>37</ele>
        <time>2013-03-17T10:30:49Z</time>
      </trkpt>
      <trkpt lat="59.4544213" lon="17.8489469">
        <ele>37.2</ele>
        <time>2013-03-17T10:30:51Z</time>
      </trkpt>
      <trkpt lat="59.4544681" lon="17.8488974">
        <ele>36.8</ele>
        <time>2013-03-17T10:30:52Z</time>
      </trkpt>
      <trkpt lat="59.4545982" lon="17.8487469">
        <ele>36.2</ele>
        <time>2013-03-17T10:30:55Z</time>
      </trkpt>
      <trkpt lat="59.4546477" lon="17.8487058">
        <ele>36.2</ele>
        <time>2013-03-17T10:30:56Z</time>
      </trkpt>
      <trkpt lat="59.4547878" lon="17.8485793">
        <ele>36</ele>
        <time>2013-03-17T10:30:59Z</time>
      </trkpt>
      <trkpt lat="59.4548353" lon="17.8485403">
        <ele>36</ele>
        <time>2013-03-17T10:31:00Z</time>
      </trkpt>
      <trkpt lat="59.4549356" lon="17.8484712">
        <ele>36.2</ele>
        <time>2013-03-17T10:31:02Z</time>
      </trkpt>
      <trkpt lat="59.4550389" lon="17.8484309">
        <ele>35.8</ele>
        <time>2013-03-17T10:31:03Z</time>
      </trkpt>
      <trkpt lat="59.455089" lon="17.848419">
        <ele>34.8</ele>
        <time>2013-03-17T10:31:05Z</time>
      </trkpt>
      <trkpt lat="59.455186" lon="17.8484313">
        <ele>34.2</ele>
        <time>2013-03-17T10:31:07Z</time>
      </trkpt>
      <trkpt lat="59.4553264" lon="17.8485035">
        <ele>32.8</ele>
        <time>2013-03-17T10:31:10Z</time>
      </trkpt>
      <trkpt lat="59.4553713" lon="17.8485309">
        <ele>32.6</ele>
        <time>2013-03-17T10:31:11Z</time>
      </trkpt>
      <trkpt lat="59.4555463" lon="17.8486504">
        <ele>30.8</ele>
        <time>2013-03-17T10:31:15Z</time>
      </trkpt>
      <trkpt lat="59.4557228" lon="17.8487379">
        <ele>29</ele>
        <time>2013-03-17T10:31:19Z</time>
      </trkpt>
      <trkpt lat="59.4559371" lon="17.8488492">
        <ele>26.8</ele>
        <time>2013-03-17T10:31:24Z</time>
      </trkpt>
      <trkpt lat="59.4559744" lon="17.8488754">
        <ele>26.4</ele>
        <time>2013-03-17T10:31:25Z</time>
      </trkpt>
      <trkpt lat="59.4560944" lon="17.8489524">
        <ele>25</ele>
        <time>2013-03-17T10:31:28Z</time>
      </trkpt>
      <trkpt lat="59.4561397" lon="17.848971">
        <ele>24.8</ele>
        <time>2013-03-17T10:31:29Z</time>
      </trkpt>
      <trkpt lat="59.4561857" lon="17.8489855">
        <ele>24.4</ele>
        <time>2013-03-17T10:31:30Z</time>
      </trkpt>
      <trkpt lat="59.456275" lon="17.8489933">
        <ele>23.2</ele>
        <time>2013-03-17T10:31:32Z</time>
      </trkpt>
      <trkpt lat="59.4563605" lon="17.8489751">
        <ele>22.2</ele>
        <time>2013-03-17T10:31:34Z</time>
      </trkpt>
      <trkpt lat="59.4564075" lon="17.848958">
        <ele>22.2</ele>
        <time>2013-03-17T10:31:35Z</time>
      </trkpt>
      <trkpt lat="59.456541" lon="17.8488823">
        <ele>21</ele>
        <time>2013-03-17T10:31:38Z</time>
      </trkpt>
      <trkpt lat="59.4567385" lon="17.8487897">
        <ele>20.6</ele>
        <time>2013-03-17T10:31:42Z</time>
      </trkpt>
      <trkpt lat="59.4569235" lon="17.848699">
        <ele>19.6</ele>
        <time>2013-03-17T10:31:46Z</time>
      </trkpt>
      <trkpt lat="59.4570136" lon="17.8486532">
        <ele>19</ele>
        <time>2013-03-17T10:31:48Z</time>
      </trkpt>
      <trkpt lat="59.4571219" lon="17.8486095">
        <ele>19.6</ele>
        <time>2013-03-17T10:31:50Z</time>
      </trkpt>
      <trkpt lat="59.4573296" lon="17.8485078">
        <ele>19.4</ele>
        <time>2013-03-17T10:31:54Z</time>
      </trkpt>
      <trkpt lat="59.457532" lon="17.8484287">
        <ele>19.6</ele>
        <time>2013-03-17T10:31:58Z</time>
      </trkpt>
      <trkpt lat="59.4577434" lon="17.8483565">
        <ele>19</ele>
        <time>2013-03-17T10:32:02Z</time>
      </trkpt>
      <trkpt lat="59.4579403" lon="17.8482727">
        <ele>18.8</ele>
        <time>2013-03-17T10:32:06Z</time>
      </trkpt>
      <trkpt lat="59.4579894" lon="17.8482509">
        <ele>18.6</ele>
        <time>2013-03-17T10:32:07Z</time>
      </trkpt>
      <trkpt lat="59.458133" lon="17.8482022">
        <ele>18.4</ele>
        <time>2013-03-17T10:32:10Z</time>
      </trkpt>
      <trkpt lat="59.45823" lon="17.8481669">
        <ele>18.6</ele>
        <time>2013-03-17T10:32:12Z</time>
      </trkpt>
      <trkpt lat="59.458325" lon="17.8481126">
        <ele>18.4</ele>
        <time>2013-03-17T10:32:14Z</time>
      </trkpt>
      <trkpt lat="59.4584218" lon="17.8480717">
        <ele>18.6</ele>
        <time>2013-03-17T10:32:16Z</time>
      </trkpt>
      <trkpt lat="59.4585193" lon="17.8480236">
        <ele>18.2</ele>
        <time>2013-03-17T10:32:18Z</time>
      </trkpt>
      <trkpt lat="59.4587127" lon="17.8479528">
        <ele>17.2</ele>
        <time>2013-03-17T10:32:22Z</time>
      </trkpt>
      <trkpt lat="59.4587619" lon="17.8479285">
        <ele>17.6</ele>
        <time>2013-03-17T10:32:23Z</time>
      </trkpt>
      <trkpt lat="59.4589065" lon="17.847849">
        <ele>17.6</ele>
        <time>2013-03-17T10:32:26Z</time>
      </trkpt>
      <trkpt lat="59.4590989" lon="17.8477712">
        <ele>17</ele>
        <time>2013-03-17T10:32:30Z</time>
      </trkpt>
      <trkpt lat="59.4592484" lon="17.8477161">
        <ele>17.6</ele>
        <time>2013-03-17T10:32:33Z</time>
      </trkpt>
      <trkpt lat="59.4592949" lon="17.847695">
        <ele>17.2</ele>
        <time>2013-03-17T10:32:34Z</time>
      </trkpt>
      <trkpt lat="59.4593948" lon="17.8476556">
        <ele>17.6</ele>
        <time>2013-03-17T10:32:36Z</time>
      </trkpt>
      <trkpt lat="59.4594921" lon="17.8476252">
        <ele>17.6</ele>
        <time>2013-03-17T10:32:38Z</time>
      </trkpt>
      <trkpt lat="59.4596387" lon="17.8475733">
        <ele>18</ele>
        <time>2013-03-17T10:32:41Z</time>
      </trkpt>
      <trkpt lat="59.4596861" lon="17.8475579">
        <ele>18</ele>
        <time>2013-03-17T10:32:42Z</time>
      </trkpt>
      <trkpt lat="59.4598375" lon="17.8475453">
        <ele>18</ele>
        <time>2013-03-17T10:32:45Z</time>
      </trkpt>
      <trkpt lat="59.4598897" lon="17.8475423">
        <ele>18.6</ele>
        <time>2013-03-17T10:32:46Z</time>
      </trkpt>
      <trkpt lat="59.4600895" lon="17.8475231">
        <ele>18.2</ele>
        <time>2013-03-17T10:32:50Z</time>
      </trkpt>
      <trkpt lat="59.4602937" lon="17.8474925">
        <ele>17.4</ele>
        <time>2013-03-17T10:32:54Z</time>
      </trkpt>
      <trkpt lat="59.4603459" lon="17.8474923">
        <ele>17.8</ele>
        <time>2013-03-17T10:32:55Z</time>
      </trkpt>
      <trkpt lat="59.4605007" lon="17.8475016">
        <ele>18.2</ele>
        <time>2013-03-17T10:32:58Z</time>
      </trkpt>
      <trkpt lat="59.4607037" lon="17.8474857">
        <ele>19</ele>
        <time>2013-03-17T10:33:02Z</time>
      </trkpt>
      <trkpt lat="59.4609134" lon="17.8473996">
        <ele>21.2</ele>
        <time>2013-03-17T10:33:06Z</time>
      </trkpt>
      <trkpt lat="59.4610155" lon="17.8473257">
        <ele>21.6</ele>
        <time>2013-03-17T10:33:07Z</time>
      </trkpt>
      <trkpt lat="59.4610595" lon="17.8472704">
        <ele>21.4</ele>
        <time>2013-03-17T10:33:09Z</time>
      </trkpt>
      <trkpt lat="59.4610992" lon="17.8472048">
        <ele>21.6</ele>
        <time>2013-03-17T10:33:10Z</time>
      </trkpt>
      <trkpt lat="59.4611676" lon="17.8470705">
        <ele>21</ele>
        <time>2013-03-17T10:33:12Z</time>
      </trkpt>
      <trkpt lat="59.4612332" lon="17.8469144">
        <ele>21</ele>
        <time>2013-03-17T10:33:14Z</time>
      </trkpt>
      <trkpt lat="59.4612629" lon="17.8468279">
        <ele>20.8</ele>
        <time>2013-03-17T10:33:15Z</time>
      </trkpt>
      <trkpt lat="59.4613374" lon="17.8465715">
        <ele>20.6</ele>
        <time>2013-03-17T10:33:18Z</time>
      </trkpt>
      <trkpt lat="59.4614348" lon="17.8462358">
        <ele>20.2</ele>
        <time>2013-03-17T10:33:22Z</time>
      </trkpt>
      <trkpt lat="59.4615451" lon="17.8459155">
        <ele>20</ele>
        <time>2013-03-17T10:33:26Z</time>
      </trkpt>
      <trkpt lat="59.4615939" lon="17.8457591">
        <ele>19.8</ele>
        <time>2013-03-17T10:33:28Z</time>
      </trkpt>
      <trkpt lat="59.4616464" lon="17.8456065">
        <ele>19</ele>
        <time>2013-03-17T10:33:30Z</time>
      </trkpt>
      <trkpt lat="59.4617065" lon="17.8452862">
        <ele>16.8</ele>
        <time>2013-03-17T10:33:34Z</time>
      </trkpt>
      <trkpt lat="59.4617071" lon="17.8452101">
        <ele>16.2</ele>
        <time>2013-03-17T10:33:35Z</time>
      </trkpt>
      <trkpt lat="59.4615881" lon="17.8449123">
        <ele>13.6</ele>
        <time>2013-03-17T10:33:40Z</time>
      </trkpt>
      <trkpt lat="59.4613916" lon="17.8447223">
        <ele>10.6</ele>
        <time>2013-03-17T10:33:45Z</time>
      </trkpt>
      <trkpt lat="59.461353" lon="17.8446843">
        <ele>10.2</ele>
        <time>2013-03-17T10:33:46Z</time>
      </trkpt>
      <trkpt lat="59.4611996" lon="17.8446151">
        <ele>7.8</ele>
        <time>2013-03-17T10:33:50Z</time>
      </trkpt>
      <trkpt lat="59.4611548" lon="17.8446083">
        <ele>7.2</ele>
        <time>2013-03-17T10:33:51Z</time>
      </trkpt>
      <trkpt lat="59.4610052" lon="17.8445881">
        <ele>2.6</ele>
        <time>2013-03-17T10:33:54Z</time>
      </trkpt>
      <trkpt lat="59.460865" lon="17.8445844">
        <ele>0</ele>
        <time>2013-03-17T10:33:57Z</time>
      </trkpt>
      <trkpt lat="59.4608145" lon="17.8446001">
        <ele>0</ele>
        <time>2013-03-17T10:33:58Z</time>
      </trkpt>
      <trkpt lat="59.4607162" lon="17.8446246">
        <ele>0</ele>
        <time>2013-03-17T10:33:59Z</time>
      </trkpt>
      <trkpt lat="59.4606151" lon="17.8446479">
        <ele>0</ele>
        <time>2013-03-17T10:34:02Z</time>
      </trkpt>
      <trkpt lat="59.46048" lon="17.8446883">
        <ele>0</ele>
        <time>2013-03-17T10:34:05Z</time>
      </trkpt>
      <trkpt lat="59.460393" lon="17.8447006">
        <ele>0</ele>
        <time>2013-03-17T10:34:07Z</time>
      </trkpt>
      <trkpt lat="59.4603044" lon="17.8447295">
        <ele>0</ele>
        <time>2013-03-17T10:34:09Z</time>
      </trkpt>
      <trkpt lat="59.460219" lon="17.8447693">
        <ele>0</ele>
        <time>2013-03-17T10:34:11Z</time>
      </trkpt>
      <trkpt lat="59.460133" lon="17.844818">
        <ele>0</ele>
        <time>2013-03-17T10:34:13Z</time>
      </trkpt>
      <trkpt lat="59.4600325" lon="17.8448556">
        <ele>0</ele>
        <time>2013-03-17T10:34:15Z</time>
      </trkpt>
      <trkpt lat="59.4598449" lon="17.8449401">
        <ele>0</ele>
        <time>2013-03-17T10:34:19Z</time>
      </trkpt>
      <trkpt lat="59.4596425" lon="17.8450066">
        <ele>0</ele>
        <time>2013-03-17T10:34:23Z</time>
      </trkpt>
      <trkpt lat="59.4596018" lon="17.8450133">
        <ele>0</ele>
        <time>2013-03-17T10:34:24Z</time>
      </trkpt>
      <trkpt lat="59.4594565" lon="17.8450246">
        <ele>0</ele>
        <time>2013-03-17T10:34:27Z</time>
      </trkpt>
      <trkpt lat="59.4594074" lon="17.8450315">
        <ele>0</ele>
        <time>2013-03-17T10:34:28Z</time>
      </trkpt>
      <trkpt lat="59.4592628" lon="17.845063">
        <ele>0</ele>
        <time>2013-03-17T10:34:31Z</time>
      </trkpt>
      <trkpt lat="59.4590706" lon="17.8451074">
        <ele>0</ele>
        <time>2013-03-17T10:34:35Z</time>
      </trkpt>
      <trkpt lat="59.4588894" lon="17.8451457">
        <ele>0</ele>
        <time>2013-03-17T10:34:39Z</time>
      </trkpt>
      <trkpt lat="59.458663" lon="17.8451681">
        <ele>0</ele>
        <time>2013-03-17T10:34:44Z</time>
      </trkpt>
      <trkpt lat="59.4586147" lon="17.8451718">
        <ele>0</ele>
        <time>2013-03-17T10:34:45Z</time>
      </trkpt>
      <trkpt lat="59.4584776" lon="17.8451889">
        <ele>0</ele>
        <time>2013-03-17T10:34:48Z</time>
      </trkpt>
      <trkpt lat="59.4583381" lon="17.845239">
        <ele>0</ele>
        <time>2013-03-17T10:34:51Z</time>
      </trkpt>
      <trkpt lat="59.4582882" lon="17.8452552">
        <ele>0</ele>
        <time>2013-03-17T10:34:52Z</time>
      </trkpt>
      <trkpt lat="59.4581471" lon="17.8452822">
        <ele>0</ele>
        <time>2013-03-17T10:34:55Z</time>
      </trkpt>
      <trkpt lat="59.4580722" lon="17.845291">
        <ele>0</ele>
        <time>2013-03-17T10:34:57Z</time>
      </trkpt>
      <trkpt lat="59.4578761" lon="17.8453392">
        <ele>0</ele>
        <time>2013-03-17T10:35:01Z</time>
      </trkpt>
      <trkpt lat="59.4576892" lon="17.8453827">
        <ele>0</ele>
        <time>2013-03-17T10:35:05Z</time>
      </trkpt>
      <trkpt lat="59.4575041" lon="17.8454037">
        <ele>0</ele>
        <time>2013-03-17T10:35:09Z</time>
      </trkpt>
      <trkpt lat="59.4572824" lon="17.8454132">
        <ele>0</ele>
        <time>2013-03-17T10:35:14Z</time>
      </trkpt>
      <trkpt lat="59.4570833" lon="17.8453898">
        <ele>0</ele>
        <time>2013-03-17T10:35:18Z</time>
      </trkpt>
      <trkpt lat="59.456858" lon="17.8453693">
        <ele>0</ele>
        <time>2013-03-17T10:35:23Z</time>
      </trkpt>
      <trkpt lat="59.4567168" lon="17.8453727">
        <ele>0</ele>
        <time>2013-03-17T10:35:26Z</time>
      </trkpt>
      <trkpt lat="59.4566396" lon="17.8453866">
        <ele>0</ele>
        <time>2013-03-17T10:35:28Z</time>
      </trkpt>
      <trkpt lat="59.4565992" lon="17.8453754">
        <ele>0</ele>
        <time>2013-03-17T10:35:29Z</time>
      </trkpt>
      <trkpt lat="59.4564738" lon="17.8452366">
        <ele>0.2</ele>
        <time>2013-03-17T10:35:33Z</time>
      </trkpt>
      <trkpt lat="59.4563719" lon="17.8450879">
        <ele>1.4</ele>
        <time>2013-03-17T10:35:36Z</time>
      </trkpt>
      <trkpt lat="59.4563201" lon="17.8449606">
        <ele>2</ele>
        <time>2013-03-17T10:35:38Z</time>
      </trkpt>
      <trkpt lat="59.4562291" lon="17.8445896">
        <ele>1.6</ele>
        <time>2013-03-17T10:35:43Z</time>
      </trkpt>
      <trkpt lat="59.4562149" lon="17.8445112">
        <ele>1.4</ele>
        <time>2013-03-17T10:35:44Z</time>
      </trkpt>
      <trkpt lat="59.4562035" lon="17.8441887">
        <ele>0.2</ele>
        <time>2013-03-17T10:35:48Z</time>
      </trkpt>
      <trkpt lat="59.4561589" lon="17.8437819">
        <ele>0.2</ele>
        <time>2013-03-17T10:35:53Z</time>
      </trkpt>
      <trkpt lat="59.4561511" lon="17.8437069">
        <ele>0</ele>
        <time>2013-03-17T10:35:54Z</time>
      </trkpt>
      <trkpt lat="59.4561369" lon="17.8433991">
        <ele>0</ele>
        <time>2013-03-17T10:35:58Z</time>
      </trkpt>
      <trkpt lat="59.4560978" lon="17.8430292">
        <ele>0</ele>
        <time>2013-03-17T10:36:03Z</time>
      </trkpt>
      <trkpt lat="59.4560537" lon="17.8426848">
        <ele>0</ele>
        <time>2013-03-17T10:36:08Z</time>
      </trkpt>
      <trkpt lat="59.455954" lon="17.8423715">
        <ele>0</ele>
        <time>2013-03-17T10:36:13Z</time>
      </trkpt>
      <trkpt lat="59.4558118" lon="17.842124">
        <ele>0</ele>
        <time>2013-03-17T10:36:17Z</time>
      </trkpt>
      <trkpt lat="59.4557122" lon="17.8419291">
        <ele>0</ele>
        <time>2013-03-17T10:36:20Z</time>
      </trkpt>
      <trkpt lat="59.455679" lon="17.8418678">
        <ele>0</ele>
        <time>2013-03-17T10:36:21Z</time>
      </trkpt>
      <trkpt lat="59.4555168" lon="17.8416063">
        <ele>0</ele>
        <time>2013-03-17T10:36:25Z</time>
      </trkpt>
      <trkpt lat="59.4554448" lon="17.8414837">
        <ele>0</ele>
        <time>2013-03-17T10:36:27Z</time>
      </trkpt>
      <trkpt lat="59.4553694" lon="17.8413334">
        <ele>0</ele>
        <time>2013-03-17T10:36:30Z</time>
      </trkpt>
      <trkpt lat="59.4553196" lon="17.8412272">
        <ele>0</ele>
        <time>2013-03-17T10:36:32Z</time>
      </trkpt>
      <trkpt lat="59.4552881" lon="17.8411728">
        <ele>0</ele>
        <time>2013-03-17T10:36:33Z</time>
      </trkpt>
      <trkpt lat="59.4552196" lon="17.8410604">
        <ele>0</ele>
        <time>2013-03-17T10:36:35Z</time>
      </trkpt>
      <trkpt lat="59.4550755" lon="17.8408263">
        <ele>0</ele>
        <time>2013-03-17T10:36:40Z</time>
      </trkpt>
      <trkpt lat="59.454929" lon="17.8406202">
        <ele>0</ele>
        <time>2013-03-17T10:36:45Z</time>
      </trkpt>
      <trkpt lat="59.4547518" lon="17.8404326">
        <ele>0</ele>
        <time>2013-03-17T10:36:50Z</time>
      </trkpt>
      <trkpt lat="59.4545714" lon="17.8402884">
        <ele>0</ele>
        <time>2013-03-17T10:36:55Z</time>
      </trkpt>
      <trkpt lat="59.4544074" lon="17.8401648">
        <ele>0</ele>
        <time>2013-03-17T10:36:59Z</time>
      </trkpt>
      <trkpt lat="59.4542125" lon="17.8401062">
        <ele>0</ele>
        <time>2013-03-17T10:37:04Z</time>
      </trkpt>
      <trkpt lat="59.4541234" lon="17.8401051">
        <ele>0</ele>
        <time>2013-03-17T10:37:06Z</time>
      </trkpt>
      <trkpt lat="59.4540353" lon="17.8400991">
        <ele>0</ele>
        <time>2013-03-17T10:37:08Z</time>
      </trkpt>
      <trkpt lat="59.4539951" lon="17.8400943">
        <ele>0</ele>
        <time>2013-03-17T10:37:09Z</time>
      </trkpt>
      <trkpt lat="59.4538122" lon="17.8401015">
        <ele>0</ele>
        <time>2013-03-17T10:37:13Z</time>
      </trkpt>
      <trkpt lat="59.453676" lon="17.8401114">
        <ele>0</ele>
        <time>2013-03-17T10:37:16Z</time>
      </trkpt>
      <trkpt lat="59.4536326" lon="17.8401149">
        <ele>0</ele>
        <time>2013-03-17T10:37:17Z</time>
      </trkpt>
      <trkpt lat="59.4534636" lon="17.8401486">
        <ele>0</ele>
        <time>2013-03-17T10:37:21Z</time>
      </trkpt>
      <trkpt lat="59.4534238" lon="17.8401493">
        <ele>0</ele>
        <time>2013-03-17T10:37:22Z</time>
      </trkpt>
      <trkpt lat="59.4532422" lon="17.8401592">
        <ele>0</ele>
        <time>2013-03-17T10:37:26Z</time>
      </trkpt>
      <trkpt lat="59.4530547" lon="17.8401928">
        <ele>0</ele>
        <time>2013-03-17T10:37:30Z</time>
      </trkpt>
      <trkpt lat="59.4528715" lon="17.8403269">
        <ele>0</ele>
        <time>2013-03-17T10:37:34Z</time>
      </trkpt>
      <trkpt lat="59.4527473" lon="17.8404756">
        <ele>0</ele>
        <time>2013-03-17T10:37:37Z</time>
      </trkpt>
      <trkpt lat="59.4527016" lon="17.8405327">
        <ele>0</ele>
        <time>2013-03-17T10:37:38Z</time>
      </trkpt>
      <trkpt lat="59.45266" lon="17.84059">
        <ele>0</ele>
        <time>2013-03-17T10:37:39Z</time>
      </trkpt>
      <trkpt lat="59.4525792" lon="17.8408352">
        <ele>0</ele>
        <time>2013-03-17T10:37:43Z</time>
      </trkpt>
      <trkpt lat="59.4526367" lon="17.8411319">
        <ele>0</ele>
        <time>2013-03-17T10:37:47Z</time>
      </trkpt>
      <trkpt lat="59.4526631" lon="17.8411931">
        <ele>0</ele>
        <time>2013-03-17T10:37:48Z</time>
      </trkpt>
      <trkpt lat="59.4528394" lon="17.8413666">
        <ele>0</ele>
        <time>2013-03-17T10:37:52Z</time>
      </trkpt>
      <trkpt lat="59.4530384" lon="17.8415704">
        <ele>0</ele>
        <time>2013-03-17T10:37:56Z</time>
      </trkpt>
      <trkpt lat="59.4532077" lon="17.8417146">
        <ele>0</ele>
        <time>2013-03-17T10:37:59Z</time>
      </trkpt>
      <trkpt lat="59.4533788" lon="17.8418957">
        <ele>6</ele>
        <time>2013-03-17T10:38:02Z</time>
      </trkpt>
      <trkpt lat="59.4535793" lon="17.842141">
        <ele>11.8</ele>
        <time>2013-03-17T10:38:06Z</time>
      </trkpt>
      <trkpt lat="59.4536247" lon="17.8422005">
        <ele>12.6</ele>
        <time>2013-03-17T10:38:07Z</time>
      </trkpt>
      <trkpt lat="59.4537706" lon="17.8423967">
        <ele>15.8</ele>
        <time>2013-03-17T10:38:10Z</time>
      </trkpt>
      <trkpt lat="59.4539557" lon="17.8426518">
        <ele>18.6</ele>
        <time>2013-03-17T10:38:14Z</time>
      </trkpt>
      <trkpt lat="59.45415" lon="17.8428965">
        <ele>21.6</ele>
        <time>2013-03-17T10:38:18Z</time>
      </trkpt>
      <trkpt lat="59.4543378" lon="17.8431469">
        <ele>24.4</ele>
        <time>2013-03-17T10:38:22Z</time>
      </trkpt>
      <trkpt lat="59.4545266" lon="17.8433842">
        <ele>26</ele>
        <time>2013-03-17T10:38:26Z</time>
      </trkpt>
      <trkpt lat="59.4547017" lon="17.8436062">
        <ele>25.6</ele>
        <time>2013-03-17T10:38:30Z</time>
      </trkpt>
      <trkpt lat="59.4547458" lon="17.8436684">
        <ele>25.6</ele>
        <time>2013-03-17T10:38:31Z</time>
      </trkpt>
      <trkpt lat="59.4548617" lon="17.8438787">
        <ele>26.2</ele>
        <time>2013-03-17T10:38:34Z</time>
      </trkpt>
      <trkpt lat="59.4549694" lon="17.8442161">
        <ele>24.6</ele>
        <time>2013-03-17T10:38:38Z</time>
      </trkpt>
      <trkpt lat="59.4550064" lon="17.8443871">
        <ele>22.6</ele>
        <time>2013-03-17T10:38:40Z</time>
      </trkpt>
      <trkpt lat="59.4550129" lon="17.8445887">
        <ele>21.6</ele>
        <time>2013-03-17T10:38:42Z</time>
      </trkpt>
      <trkpt lat="59.4550011" lon="17.8447895">
        <ele>20.6</ele>
        <time>2013-03-17T10:38:44Z</time>
      </trkpt>
      <trkpt lat="59.4549612" lon="17.8449662">
        <ele>19.2</ele>
        <time>2013-03-17T10:38:46Z</time>
      </trkpt>
      <trkpt lat="59.4548809" lon="17.8451159">
        <ele>15.6</ele>
        <time>2013-03-17T10:38:48Z</time>
      </trkpt>
      <trkpt lat="59.4547903" lon="17.845263">
        <ele>12</ele>
        <time>2013-03-17T10:38:50Z</time>
      </trkpt>
      <trkpt lat="59.454741" lon="17.8453334">
        <ele>10.4</ele>
        <time>2013-03-17T10:38:51Z</time>
      </trkpt>
      <trkpt lat="59.4546322" lon="17.8454696">
        <ele>7.4</ele>
        <time>2013-03-17T10:38:53Z</time>
      </trkpt>
      <trkpt lat="59.4545344" lon="17.8456069">
        <ele>5.4</ele>
        <time>2013-03-17T10:38:54Z</time>
      </trkpt>
      <trkpt lat="59.4544514" lon="17.8457193">
        <ele>2.2</ele>
        <time>2013-03-17T10:38:57Z</time>
      </trkpt>
      <trkpt lat="59.4542767" lon="17.845924">
        <ele>0</ele>
        <time>2013-03-17T10:39:01Z</time>
      </trkpt>
      <trkpt lat="59.4541157" lon="17.8461084">
        <ele>0</ele>
        <time>2013-03-17T10:39:05Z</time>
      </trkpt>
      <trkpt lat="59.4539655" lon="17.8462854">
        <ele>0</ele>
        <time>2013-03-17T10:39:09Z</time>
      </trkpt>
      <trkpt lat="59.4538816" lon="17.8463822">
        <ele>0</ele>
        <time>2013-03-17T10:39:11Z</time>
      </trkpt>
      <trkpt lat="59.4538066" lon="17.8464789">
        <ele>0</ele>
        <time>2013-03-17T10:39:13Z</time>
      </trkpt>
      <trkpt lat="59.4536501" lon="17.8466751">
        <ele>0</ele>
        <time>2013-03-17T10:39:17Z</time>
      </trkpt>
      <trkpt lat="59.4534681" lon="17.8469075">
        <ele>0</ele>
        <time>2013-03-17T10:39:22Z</time>
      </trkpt>
      <trkpt lat="59.4534296" lon="17.8469567">
        <ele>0</ele>
        <time>2013-03-17T10:39:23Z</time>
      </trkpt>
      <trkpt lat="59.453327" lon="17.8470758">
        <ele>0</ele>
        <time>2013-03-17T10:39:26Z</time>
      </trkpt>
      <trkpt lat="59.4532927" lon="17.8471126">
        <ele>0</ele>
        <time>2013-03-17T10:39:27Z</time>
      </trkpt>
      <trkpt lat="59.4531876" lon="17.8472531">
        <ele>0</ele>
        <time>2013-03-17T10:39:30Z</time>
      </trkpt>
      <trkpt lat="59.4531252" lon="17.8473349">
        <ele>0</ele>
        <time>2013-03-17T10:39:32Z</time>
      </trkpt>
      <trkpt lat="59.4529475" lon="17.8475656">
        <ele>0</ele>
        <time>2013-03-17T10:39:37Z</time>
      </trkpt>
      <trkpt lat="59.4528028" lon="17.8477492">
        <ele>0</ele>
        <time>2013-03-17T10:39:41Z</time>
      </trkpt>
      <trkpt lat="59.4527658" lon="17.8477956">
        <ele>0</ele>
        <time>2013-03-17T10:39:42Z</time>
      </trkpt>
      <trkpt lat="59.4526541" lon="17.8479691">
        <ele>0</ele>
        <time>2013-03-17T10:39:45Z</time>
      </trkpt>
      <trkpt lat="59.4526235" lon="17.8480295">
        <ele>0</ele>
        <time>2013-03-17T10:39:46Z</time>
      </trkpt>
      <trkpt lat="59.4524779" lon="17.8482349">
        <ele>0</ele>
        <time>2013-03-17T10:39:50Z</time>
      </trkpt>
      <trkpt lat="59.4524421" lon="17.8482825">
        <ele>0</ele>
        <time>2013-03-17T10:39:51Z</time>
      </trkpt>
      <trkpt lat="59.4523556" lon="17.8483817">
        <ele>0</ele>
        <time>2013-03-17T10:39:53Z</time>
      </trkpt>
      <trkpt lat="59.4522848" lon="17.8484765">
        <ele>0</ele>
        <time>2013-03-17T10:39:55Z</time>
      </trkpt>
      <trkpt lat="59.4522442" lon="17.8485209">
        <ele>0</ele>
        <time>2013-03-17T10:39:56Z</time>
      </trkpt>
      <trkpt lat="59.4521167" lon="17.8486815">
        <ele>0</ele>
        <time>2013-03-17T10:39:59Z</time>
      </trkpt>
      <trkpt lat="59.4519194" lon="17.848888">
        <ele>0</ele>
        <time>2013-03-17T10:40:04Z</time>
      </trkpt>
      <trkpt lat="59.4518349" lon="17.8489631">
        <ele>0</ele>
        <time>2013-03-17T10:40:06Z</time>
      </trkpt>
      <trkpt lat="59.4517169" lon="17.849064">
        <ele>0</ele>
        <time>2013-03-17T10:40:09Z</time>
      </trkpt>
      <trkpt lat="59.4516747" lon="17.8491008">
        <ele>0</ele>
        <time>2013-03-17T10:40:10Z</time>
      </trkpt>
      <trkpt lat="59.4515893" lon="17.8491594">
        <ele>0</ele>
        <time>2013-03-17T10:40:12Z</time>
      </trkpt>
      <trkpt lat="59.4515407" lon="17.8491816">
        <ele>0</ele>
        <time>2013-03-17T10:40:13Z</time>
      </trkpt>
      <trkpt lat="59.4514031" lon="17.8492391">
        <ele>0</ele>
        <time>2013-03-17T10:40:16Z</time>
      </trkpt>
      <trkpt lat="59.4513149" lon="17.8492672">
        <ele>0</ele>
        <time>2013-03-17T10:40:18Z</time>
      </trkpt>
      <trkpt lat="59.4512371" lon="17.8493036">
        <ele>0</ele>
        <time>2013-03-17T10:40:20Z</time>
      </trkpt>
      <trkpt lat="59.4511351" lon="17.8493502">
        <ele>0</ele>
        <time>2013-03-17T10:40:22Z</time>
      </trkpt>
      <trkpt lat="59.4509436" lon="17.8493688">
        <ele>0</ele>
        <time>2013-03-17T10:40:26Z</time>
      </trkpt>
      <trkpt lat="59.4509057" lon="17.8493986">
        <ele>0</ele>
        <time>2013-03-17T10:40:27Z</time>
      </trkpt>
      <trkpt lat="59.4507815" lon="17.8494552">
        <ele>0</ele>
        <time>2013-03-17T10:40:30Z</time>
      </trkpt>
      <trkpt lat="59.4507377" lon="17.8494765">
        <ele>0</ele>
        <time>2013-03-17T10:40:31Z</time>
      </trkpt>
      <trkpt lat="59.4506953" lon="17.8495081">
        <ele>0</ele>
        <time>2013-03-17T10:40:32Z</time>
      </trkpt>
      <trkpt lat="59.4505129" lon="17.8496018">
        <ele>0</ele>
        <time>2013-03-17T10:40:36Z</time>
      </trkpt>
      <trkpt lat="59.4503121" lon="17.8497495">
        <ele>0</ele>
        <time>2013-03-17T10:40:41Z</time>
      </trkpt>
      <trkpt lat="59.4501938" lon="17.849807">
        <ele>0</ele>
        <time>2013-03-17T10:40:44Z</time>
      </trkpt>
      <trkpt lat="59.4501043" lon="17.8498544">
        <ele>0</ele>
        <time>2013-03-17T10:40:46Z</time>
      </trkpt>
      <trkpt lat="59.4499249" lon="17.8499418">
        <ele>0</ele>
        <time>2013-03-17T10:40:50Z</time>
      </trkpt>
      <trkpt lat="59.4498396" lon="17.849972">
        <ele>0</ele>
        <time>2013-03-17T10:40:52Z</time>
      </trkpt>
      <trkpt lat="59.4497977" lon="17.8499962">
        <ele>0</ele>
        <time>2013-03-17T10:40:53Z</time>
      </trkpt>
      <trkpt lat="59.4497053" lon="17.8500246">
        <ele>0</ele>
        <time>2013-03-17T10:40:55Z</time>
      </trkpt>
      <trkpt lat="59.4496237" lon="17.8500494">
        <ele>0</ele>
        <time>2013-03-17T10:40:57Z</time>
      </trkpt>
      <trkpt lat="59.4495069" lon="17.8500966">
        <ele>0</ele>
        <time>2013-03-17T10:41:00Z</time>
      </trkpt>
      <trkpt lat="59.4494258" lon="17.850152">
        <ele>0</ele>
        <time>2013-03-17T10:41:02Z</time>
      </trkpt>
      <trkpt lat="59.4493263" lon="17.8502611">
        <ele>0</ele>
        <time>2013-03-17T10:41:05Z</time>
      </trkpt>
      <trkpt lat="59.4494134" lon="17.8502849">
        <ele>2.4</ele>
        <time>2013-03-17T10:42:27Z</time>
      </trkpt>
      <trkpt lat="59.4494849" lon="17.8503072">
        <ele>3</ele>
        <time>2013-03-17T10:42:30Z</time>
      </trkpt>
      <trkpt lat="59.4496634" lon="17.8503918">
        <ele>4.2</ele>
        <time>2013-03-17T10:42:34Z</time>
      </trkpt>
      <trkpt lat="59.4498385" lon="17.8504633">
        <ele>6.2</ele>
        <time>2013-03-17T10:42:37Z</time>
      </trkpt>
      <trkpt lat="59.4500215" lon="17.8505219">
        <ele>8</ele>
        <time>2013-03-17T10:42:40Z</time>
      </trkpt>
      <trkpt lat="59.4502028" lon="17.8506046">
        <ele>10.6</ele>
        <time>2013-03-17T10:42:43Z</time>
      </trkpt>
      <trkpt lat="59.4503939" lon="17.8506576">
        <ele>13.6</ele>
        <time>2013-03-17T10:42:46Z</time>
      </trkpt>
      <trkpt lat="59.4505182" lon="17.8506767">
        <ele>15.4</ele>
        <time>2013-03-17T10:42:48Z</time>
      </trkpt>
      <trkpt lat="59.4506315" lon="17.8506584">
        <ele>16.2</ele>
        <time>2013-03-17T10:42:50Z</time>
      </trkpt>
      <trkpt lat="59.4508171" lon="17.8506287">
        <ele>20.4</ele>
        <time>2013-03-17T10:42:53Z</time>
      </trkpt>
      <trkpt lat="59.4509985" lon="17.8506226">
        <ele>24.2</ele>
        <time>2013-03-17T10:42:56Z</time>
      </trkpt>
      <trkpt lat="59.45118" lon="17.850596">
        <ele>26.2</ele>
        <time>2013-03-17T10:42:59Z</time>
      </trkpt>
      <trkpt lat="59.4513698" lon="17.8505242">
        <ele>30</ele>
        <time>2013-03-17T10:43:02Z</time>
      </trkpt>
      <trkpt lat="59.4515517" lon="17.8504538">
        <ele>34.2</ele>
        <time>2013-03-17T10:43:05Z</time>
      </trkpt>
      <trkpt lat="59.4517807" lon="17.8503866">
        <ele>37</ele>
        <time>2013-03-17T10:43:09Z</time>
      </trkpt>
      <trkpt lat="59.4520183" lon="17.8503481">
        <ele>37.6</ele>
        <time>2013-03-17T10:43:12Z</time>
      </trkpt>
      <trkpt lat="59.4520728" lon="17.8503524">
        <ele>38.6</ele>
        <time>2013-03-17T10:43:14Z</time>
      </trkpt>
      <trkpt lat="59.4521768" lon="17.8504209">
        <ele>38.6</ele>
        <time>2013-03-17T10:43:16Z</time>
      </trkpt>
      <trkpt lat="59.452342" lon="17.8505664">
        <ele>41</ele>
        <time>2013-03-17T10:43:19Z</time>
      </trkpt>
      <trkpt lat="59.4524515" lon="17.8506473">
        <ele>42.6</ele>
        <time>2013-03-17T10:43:21Z</time>
      </trkpt>
      <trkpt lat="59.4525582" lon="17.8507389">
        <ele>44</ele>
        <time>2013-03-17T10:43:23Z</time>
      </trkpt>
      <trkpt lat="59.4527524" lon="17.8509127">
        <ele>44.2</ele>
        <time>2013-03-17T10:43:27Z</time>
      </trkpt>
      <trkpt lat="59.4529587" lon="17.8510439">
        <ele>45.4</ele>
        <time>2013-03-17T10:43:31Z</time>
      </trkpt>
      <trkpt lat="59.4530114" lon="17.851059">
        <ele>46</ele>
        <time>2013-03-17T10:43:32Z</time>
      </trkpt>
      <trkpt lat="59.4530999" lon="17.8510645">
        <ele>45.6</ele>
        <time>2013-03-17T10:43:34Z</time>
      </trkpt>
      <trkpt lat="59.4531615" lon="17.8510228">
        <ele>43.4</ele>
        <time>2013-03-17T10:43:36Z</time>
      </trkpt>
      <trkpt lat="59.4532143" lon="17.8509237">
        <ele>41.2</ele>
        <time>2013-03-17T10:43:38Z</time>
      </trkpt>
      <trkpt lat="59.4533169" lon="17.8507575">
        <ele>41.2</ele>
        <time>2013-03-17T10:43:41Z</time>
      </trkpt>
      <trkpt lat="59.4533485" lon="17.850686">
        <ele>41.2</ele>
        <time>2013-03-17T10:43:42Z</time>
      </trkpt>
      <trkpt lat="59.4534678" lon="17.8504513">
        <ele>41.4</ele>
        <time>2013-03-17T10:43:46Z</time>
      </trkpt>
      <trkpt lat="59.4535257" lon="17.8503172">
        <ele>40.6</ele>
        <time>2013-03-17T10:43:48Z</time>
      </trkpt>
      <trkpt lat="59.453588" lon="17.850182">
        <ele>40</ele>
        <time>2013-03-17T10:43:50Z</time>
      </trkpt>
      <trkpt lat="59.4537383" lon="17.8499469">
        <ele>40.2</ele>
        <time>2013-03-17T10:43:54Z</time>
      </trkpt>
      <trkpt lat="59.4538893" lon="17.8497268">
        <ele>39.8</ele>
        <time>2013-03-17T10:43:58Z</time>
      </trkpt>
      <trkpt lat="59.4540657" lon="17.8494541">
        <ele>36.8</ele>
        <time>2013-03-17T10:44:03Z</time>
      </trkpt>
      <trkpt lat="59.4541386" lon="17.8493433">
        <ele>37</ele>
        <time>2013-03-17T10:44:05Z</time>
      </trkpt>
      <trkpt lat="59.4542302" lon="17.8491693">
        <ele>36.8</ele>
        <time>2013-03-17T10:44:08Z</time>
      </trkpt>
      <trkpt lat="59.4543815" lon="17.8489579">
        <ele>35.6</ele>
        <time>2013-03-17T10:44:12Z</time>
      </trkpt>
      <trkpt lat="59.4544181" lon="17.848912">
        <ele>34.6</ele>
        <time>2013-03-17T10:44:13Z</time>
      </trkpt>
      <trkpt lat="59.454535" lon="17.8487744">
        <ele>33.6</ele>
        <time>2013-03-17T10:44:16Z</time>
      </trkpt>
      <trkpt lat="59.4545798" lon="17.8487326">
        <ele>33.4</ele>
        <time>2013-03-17T10:44:17Z</time>
      </trkpt>
      <trkpt lat="59.454711" lon="17.8486154">
        <ele>32.6</ele>
        <time>2013-03-17T10:44:20Z</time>
      </trkpt>
      <trkpt lat="59.4548975" lon="17.8484823">
        <ele>33</ele>
        <time>2013-03-17T10:44:24Z</time>
      </trkpt>
      <trkpt lat="59.4550906" lon="17.8484596">
        <ele>32.4</ele>
        <time>2013-03-17T10:44:28Z</time>
      </trkpt>
      <trkpt lat="59.455196" lon="17.8485081">
        <ele>32.4</ele>
        <time>2013-03-17T10:44:30Z</time>
      </trkpt>
      <trkpt lat="59.4553001" lon="17.8485571">
        <ele>34.2</ele>
        <time>2013-03-17T10:44:32Z</time>
      </trkpt>
      <trkpt lat="59.4554817" lon="17.8486689">
        <ele>34.4</ele>
        <time>2013-03-17T10:44:36Z</time>
      </trkpt>
      <trkpt lat="59.4555269" lon="17.8486952">
        <ele>34.6</ele>
        <time>2013-03-17T10:44:37Z</time>
      </trkpt>
      <trkpt lat="59.4556608" lon="17.8487586">
        <ele>35.2</ele>
        <time>2013-03-17T10:44:40Z</time>
      </trkpt>
      <trkpt lat="59.4558521" lon="17.8488595">
        <ele>37.6</ele>
        <time>2013-03-17T10:44:44Z</time>
      </trkpt>
      <trkpt lat="59.4560651" lon="17.8489709">
        <ele>38.2</ele>
        <time>2013-03-17T10:44:49Z</time>
      </trkpt>
      <trkpt lat="59.4561046" lon="17.8489828">
        <ele>38.6</ele>
        <time>2013-03-17T10:44:50Z</time>
      </trkpt>
      <trkpt lat="59.4562406" lon="17.849033">
        <ele>37.4</ele>
        <time>2013-03-17T10:44:53Z</time>
      </trkpt>
      <trkpt lat="59.4564562" lon="17.8489576">
        <ele>35.4</ele>
        <time>2013-03-17T10:44:58Z</time>
      </trkpt>
      <trkpt lat="59.456652" lon="17.848831">
        <ele>36.8</ele>
        <time>2013-03-17T10:45:02Z</time>
      </trkpt>
      <trkpt lat="59.4568434" lon="17.8487467">
        <ele>36</ele>
        <time>2013-03-17T10:45:06Z</time>
      </trkpt>
      <trkpt lat="59.4570229" lon="17.8486959">
        <ele>34.4</ele>
        <time>2013-03-17T10:45:10Z</time>
      </trkpt>
      <trkpt lat="59.4572382" lon="17.8486377">
        <ele>35.4</ele>
        <time>2013-03-17T10:45:14Z</time>
      </trkpt>
      <trkpt lat="59.4574233" lon="17.8485389">
        <ele>35.6</ele>
        <time>2013-03-17T10:45:18Z</time>
      </trkpt>
      <trkpt lat="59.4576083" lon="17.8484756">
        <ele>34.2</ele>
        <time>2013-03-17T10:45:22Z</time>
      </trkpt>
      <trkpt lat="59.4576994" lon="17.8484456">
        <ele>33.6</ele>
        <time>2013-03-17T10:45:23Z</time>
      </trkpt>
      <trkpt lat="59.4577956" lon="17.8484026">
        <ele>33.2</ele>
        <time>2013-03-17T10:45:26Z</time>
      </trkpt>
      <trkpt lat="59.4579998" lon="17.8483498">
        <ele>31.4</ele>
        <time>2013-03-17T10:45:30Z</time>
      </trkpt>
      <trkpt lat="59.4581984" lon="17.8482942">
        <ele>31.4</ele>
        <time>2013-03-17T10:45:34Z</time>
      </trkpt>
      <trkpt lat="59.4583463" lon="17.8482326">
        <ele>32.8</ele>
        <time>2013-03-17T10:45:37Z</time>
      </trkpt>
      <trkpt lat="59.4583918" lon="17.8482073">
        <ele>33</ele>
        <time>2013-03-17T10:45:38Z</time>
      </trkpt>
      <trkpt lat="59.458526" lon="17.8481513">
        <ele>32.8</ele>
        <time>2013-03-17T10:45:41Z</time>
      </trkpt>
      <trkpt lat="59.4585701" lon="17.8481271">
        <ele>32.4</ele>
        <time>2013-03-17T10:45:42Z</time>
      </trkpt>
      <trkpt lat="59.4587601" lon="17.8480445">
        <ele>31.6</ele>
        <time>2013-03-17T10:45:46Z</time>
      </trkpt>
      <trkpt lat="59.4589556" lon="17.8479598">
        <ele>31.8</ele>
        <time>2013-03-17T10:45:50Z</time>
      </trkpt>
      <trkpt lat="59.4591742" lon="17.8478824">
        <ele>33.8</ele>
        <time>2013-03-17T10:45:55Z</time>
      </trkpt>
      <trkpt lat="59.4592233" lon="17.8478679">
        <ele>34.2</ele>
        <time>2013-03-17T10:45:56Z</time>
      </trkpt>
      <trkpt lat="59.4593556" lon="17.8478156">
        <ele>34</ele>
        <time>2013-03-17T10:45:59Z</time>
      </trkpt>
      <trkpt lat="59.4595424" lon="17.8477439">
        <ele>35.4</ele>
        <time>2013-03-17T10:46:03Z</time>
      </trkpt>
      <trkpt lat="59.4597388" lon="17.8476765">
        <ele>35.6</ele>
        <time>2013-03-17T10:46:07Z</time>
      </trkpt>
      <trkpt lat="59.4599279" lon="17.847624">
        <ele>37.2</ele>
        <time>2013-03-17T10:46:11Z</time>
      </trkpt>
      <trkpt lat="59.460124" lon="17.847606">
        <ele>37.4</ele>
        <time>2013-03-17T10:46:15Z</time>
      </trkpt>
      <trkpt lat="59.4602657" lon="17.8475427">
        <ele>39.4</ele>
        <time>2013-03-17T10:46:18Z</time>
      </trkpt>
      <trkpt lat="59.46032" lon="17.8475277">
        <ele>40.6</ele>
        <time>2013-03-17T10:46:19Z</time>
      </trkpt>
      <trkpt lat="59.4605081" lon="17.8475085">
        <ele>40</ele>
        <time>2013-03-17T10:46:23Z</time>
      </trkpt>
      <trkpt lat="59.4605862" lon="17.8475253">
        <ele>37.4</ele>
        <time>2013-03-17T10:46:25Z</time>
      </trkpt>
      <trkpt lat="59.4607277" lon="17.8475309">
        <ele>37.2</ele>
        <time>2013-03-17T10:46:28Z</time>
      </trkpt>
      <trkpt lat="59.4607729" lon="17.8475183">
        <ele>37</ele>
        <time>2013-03-17T10:46:29Z</time>
      </trkpt>
      <trkpt lat="59.4609146" lon="17.8474972">
        <ele>37</ele>
        <time>2013-03-17T10:46:32Z</time>
      </trkpt>
      <trkpt lat="59.460968" lon="17.8474802">
        <ele>37.4</ele>
        <time>2013-03-17T10:46:33Z</time>
      </trkpt>
      <trkpt lat="59.4611118" lon="17.8473583">
        <ele>36.4</ele>
        <time>2013-03-17T10:46:36Z</time>
      </trkpt>
      <trkpt lat="59.4611572" lon="17.8472966">
        <ele>37.6</ele>
        <time>2013-03-17T10:46:37Z</time>
      </trkpt>
      <trkpt lat="59.4612726" lon="17.847094">
        <ele>40.2</ele>
        <time>2013-03-17T10:46:40Z</time>
      </trkpt>
      <trkpt lat="59.4613545" lon="17.8468774">
        <ele>41.2</ele>
        <time>2013-03-17T10:46:43Z</time>
      </trkpt>
      <trkpt lat="59.4613969" lon="17.8467356">
        <ele>40.6</ele>
        <time>2013-03-17T10:46:45Z</time>
      </trkpt>
      <trkpt lat="59.4614331" lon="17.8465741">
        <ele>39.2</ele>
        <time>2013-03-17T10:46:47Z</time>
      </trkpt>
      <trkpt lat="59.4614715" lon="17.8464053">
        <ele>38.6</ele>
        <time>2013-03-17T10:46:49Z</time>
      </trkpt>
      <trkpt lat="59.461557" lon="17.8460766">
        <ele>38.2</ele>
        <time>2013-03-17T10:46:53Z</time>
      </trkpt>
      <trkpt lat="59.4616466" lon="17.8457675">
        <ele>38.2</ele>
        <time>2013-03-17T10:46:57Z</time>
      </trkpt>
      <trkpt lat="59.4616732" lon="17.8456966">
        <ele>38.4</ele>
        <time>2013-03-17T10:46:58Z</time>
      </trkpt>
      <trkpt lat="59.4617859" lon="17.8453669">
        <ele>38</ele>
        <time>2013-03-17T10:47:02Z</time>
      </trkpt>
      <trkpt lat="59.4617303" lon="17.844953">
        <ele>33.6</ele>
        <time>2013-03-17T10:47:07Z</time>
      </trkpt>
      <trkpt lat="59.4615926" lon="17.8448419">
        <ele>30.4</ele>
        <time>2013-03-17T10:47:10Z</time>
      </trkpt>
      <trkpt lat="59.4615547" lon="17.8448158">
        <ele>29.6</ele>
        <time>2013-03-17T10:47:11Z</time>
      </trkpt>
      <trkpt lat="59.4615178" lon="17.844774">
        <ele>29.4</ele>
        <time>2013-03-17T10:47:12Z</time>
      </trkpt>
      <trkpt lat="59.4613988" lon="17.8446068">
        <ele>28.6</ele>
        <time>2013-03-17T10:47:16Z</time>
      </trkpt>
      <trkpt lat="59.461201" lon="17.8445192">
        <ele>25.4</ele>
        <time>2013-03-17T10:47:21Z</time>
      </trkpt>
      <trkpt lat="59.4611136" lon="17.8445008">
        <ele>25.2</ele>
        <time>2013-03-17T10:47:23Z</time>
      </trkpt>
      <trkpt lat="59.4610111" lon="17.8444609">
        <ele>23.6</ele>
        <time>2013-03-17T10:47:25Z</time>
      </trkpt>
      <trkpt lat="59.4609186" lon="17.8444341">
        <ele>22.6</ele>
        <time>2013-03-17T10:47:27Z</time>
      </trkpt>
      <trkpt lat="59.4608431" lon="17.8444238">
        <ele>21.2</ele>
        <time>2013-03-17T10:47:29Z</time>
      </trkpt>
      <trkpt lat="59.4607961" lon="17.8444175">
        <ele>20.2</ele>
        <time>2013-03-17T10:47:30Z</time>
      </trkpt>
      <trkpt lat="59.4605759" lon="17.8444446">
        <ele>19.6</ele>
        <time>2013-03-17T10:47:35Z</time>
      </trkpt>
      <trkpt lat="59.4605265" lon="17.8444554">
        <ele>19</ele>
        <time>2013-03-17T10:47:36Z</time>
      </trkpt>
      <trkpt lat="59.4603506" lon="17.8445345">
        <ele>16.6</ele>
        <time>2013-03-17T10:47:40Z</time>
      </trkpt>
      <trkpt lat="59.4602573" lon="17.8445754">
        <ele>17</ele>
        <time>2013-03-17T10:47:42Z</time>
      </trkpt>
      <trkpt lat="59.4601755" lon="17.8446308">
        <ele>16.6</ele>
        <time>2013-03-17T10:47:44Z</time>
      </trkpt>
      <trkpt lat="59.4601258" lon="17.8446558">
        <ele>16.2</ele>
        <time>2013-03-17T10:47:45Z</time>
      </trkpt>
      <trkpt lat="59.4600321" lon="17.8447033">
        <ele>15</ele>
        <time>2013-03-17T10:47:47Z</time>
      </trkpt>
      <trkpt lat="59.4599911" lon="17.8447322">
        <ele>15</ele>
        <time>2013-03-17T10:47:48Z</time>
      </trkpt>
      <trkpt lat="59.459858" lon="17.8447816">
        <ele>15.6</ele>
        <time>2013-03-17T10:47:51Z</time>
      </trkpt>
      <trkpt lat="59.4597756" lon="17.8448211">
        <ele>15.6</ele>
        <time>2013-03-17T10:47:53Z</time>
      </trkpt>
      <trkpt lat="59.4595627" lon="17.8448805">
        <ele>16.2</ele>
        <time>2013-03-17T10:47:58Z</time>
      </trkpt>
      <trkpt lat="59.4593773" lon="17.8449204">
        <ele>15.6</ele>
        <time>2013-03-17T10:48:02Z</time>
      </trkpt>
      <trkpt lat="59.4592901" lon="17.844945">
        <ele>15.4</ele>
        <time>2013-03-17T10:48:04Z</time>
      </trkpt>
      <trkpt lat="59.4592206" lon="17.8449662">
        <ele>15</ele>
        <time>2013-03-17T10:48:06Z</time>
      </trkpt>
      <trkpt lat="59.4591763" lon="17.8449667">
        <ele>15</ele>
        <time>2013-03-17T10:48:07Z</time>
      </trkpt>
      <trkpt lat="59.4590756" lon="17.8449667">
        <ele>14.2</ele>
        <time>2013-03-17T10:48:09Z</time>
      </trkpt>
      <trkpt lat="59.4589809" lon="17.8449724">
        <ele>15</ele>
        <time>2013-03-17T10:48:11Z</time>
      </trkpt>
      <trkpt lat="59.458754" lon="17.8449841">
        <ele>15.4</ele>
        <time>2013-03-17T10:48:16Z</time>
      </trkpt>
      <trkpt lat="59.4586624" lon="17.844992">
        <ele>16.2</ele>
        <time>2013-03-17T10:48:18Z</time>
      </trkpt>
      <trkpt lat="59.4585441" lon="17.8450066">
        <ele>17.2</ele>
        <time>2013-03-17T10:48:21Z</time>
      </trkpt>
      <trkpt lat="59.4583996" lon="17.8450419">
        <ele>17.8</ele>
        <time>2013-03-17T10:48:23Z</time>
      </trkpt>
      <trkpt lat="59.4583154" lon="17.8450698">
        <ele>16.8</ele>
        <time>2013-03-17T10:48:26Z</time>
      </trkpt>
      <trkpt lat="59.4581003" lon="17.8451396">
        <ele>18.2</ele>
        <time>2013-03-17T10:48:31Z</time>
      </trkpt>
      <trkpt lat="59.4580069" lon="17.8451603">
        <ele>18</ele>
        <time>2013-03-17T10:48:33Z</time>
      </trkpt>
      <trkpt lat="59.457916" lon="17.845177">
        <ele>18.2</ele>
        <time>2013-03-17T10:48:35Z</time>
      </trkpt>
      <trkpt lat="59.4576974" lon="17.8452195">
        <ele>17.8</ele>
        <time>2013-03-17T10:48:40Z</time>
      </trkpt>
      <trkpt lat="59.4575086" lon="17.8452405">
        <ele>16.4</ele>
        <time>2013-03-17T10:48:44Z</time>
      </trkpt>
      <trkpt lat="59.4573247" lon="17.845233">
        <ele>15.8</ele>
        <time>2013-03-17T10:48:48Z</time>
      </trkpt>
      <trkpt lat="59.457087" lon="17.8451908">
        <ele>15.4</ele>
        <time>2013-03-17T10:48:52Z</time>
      </trkpt>
      <trkpt lat="59.4570032" lon="17.8451915">
        <ele>15.8</ele>
        <time>2013-03-17T10:48:54Z</time>
      </trkpt>
      <trkpt lat="59.4569184" lon="17.8451936">
        <ele>16.4</ele>
        <time>2013-03-17T10:48:57Z</time>
      </trkpt>
      <trkpt lat="59.4567396" lon="17.8451619">
        <ele>16</ele>
        <time>2013-03-17T10:49:00Z</time>
      </trkpt>
      <trkpt lat="59.4566958" lon="17.8451355">
        <ele>16</ele>
        <time>2013-03-17T10:49:01Z</time>
      </trkpt>
      <trkpt lat="59.4565287" lon="17.8450012">
        <ele>16.4</ele>
        <time>2013-03-17T10:49:05Z</time>
      </trkpt>
      <trkpt lat="59.4564931" lon="17.8449513">
        <ele>16.8</ele>
        <time>2013-03-17T10:49:06Z</time>
      </trkpt>
      <trkpt lat="59.4564045" lon="17.8447528">
        <ele>18.4</ele>
        <time>2013-03-17T10:49:09Z</time>
      </trkpt>
      <trkpt lat="59.4563645" lon="17.8446034">
        <ele>19.8</ele>
        <time>2013-03-17T10:49:11Z</time>
      </trkpt>
      <trkpt lat="59.4563333" lon="17.8444299">
        <ele>21</ele>
        <time>2013-03-17T10:49:13Z</time>
      </trkpt>
      <trkpt lat="59.4563172" lon="17.8443513">
        <ele>21.2</ele>
        <time>2013-03-17T10:49:15Z</time>
      </trkpt>
      <trkpt lat="59.4562796" lon="17.8441762">
        <ele>22</ele>
        <time>2013-03-17T10:49:16Z</time>
      </trkpt>
      <trkpt lat="59.4562796" lon="17.8441762">
        <ele>22.4</ele>
        <time>2013-03-17T10:49:17Z</time>
      </trkpt>
      <trkpt lat="59.4562319" lon="17.8439089">
        <ele>23.4</ele>
        <time>2013-03-17T10:49:19Z</time>
      </trkpt>
      <trkpt lat="59.4562118" lon="17.8437303">
        <ele>24.6</ele>
        <time>2013-03-17T10:49:21Z</time>
      </trkpt>
      <trkpt lat="59.4562118" lon="17.8437303">
        <ele>25.2</ele>
        <time>2013-03-17T10:49:22Z</time>
      </trkpt>
      <trkpt lat="59.4561755" lon="17.8433541">
        <ele>26.2</ele>
        <time>2013-03-17T10:49:26Z</time>
      </trkpt>
      <trkpt lat="59.4561532" lon="17.8431789">
        <ele>26.4</ele>
        <time>2013-03-17T10:49:27Z</time>
      </trkpt>
      <trkpt lat="59.4561382" lon="17.843011">
        <ele>26.6</ele>
        <time>2013-03-17T10:49:29Z</time>
      </trkpt>
      <trkpt lat="59.456123" lon="17.8428258">
        <ele>27.2</ele>
        <time>2013-03-17T10:49:31Z</time>
      </trkpt>
      <trkpt lat="59.4561073" lon="17.842651">
        <ele>27.4</ele>
        <time>2013-03-17T10:49:33Z</time>
      </trkpt>
      <trkpt lat="59.4560909" lon="17.8424191">
        <ele>28.6</ele>
        <time>2013-03-17T10:49:36Z</time>
      </trkpt>
      <trkpt lat="59.4560844" lon="17.8423445">
        <ele>28.6</ele>
        <time>2013-03-17T10:49:37Z</time>
      </trkpt>
      <trkpt lat="59.4560179" lon="17.8420647">
        <ele>30</ele>
        <time>2013-03-17T10:49:41Z</time>
      </trkpt>
      <trkpt lat="59.4559951" lon="17.8420011">
        <ele>29.8</ele>
        <time>2013-03-17T10:49:42Z</time>
      </trkpt>
      <trkpt lat="59.4558851" lon="17.8417338">
        <ele>30.6</ele>
        <time>2013-03-17T10:49:46Z</time>
      </trkpt>
      <trkpt lat="59.4558276" lon="17.8416228">
        <ele>31.2</ele>
        <time>2013-03-17T10:49:48Z</time>
      </trkpt>
      <trkpt lat="59.4557629" lon="17.8414673">
        <ele>31.6</ele>
        <time>2013-03-17T10:49:51Z</time>
      </trkpt>
      <trkpt lat="59.455703" lon="17.8413551">
        <ele>31.2</ele>
        <time>2013-03-17T10:49:53Z</time>
      </trkpt>
      <trkpt lat="59.4556326" lon="17.8412391">
        <ele>31.6</ele>
        <time>2013-03-17T10:49:56Z</time>
      </trkpt>
      <trkpt lat="59.4554419" lon="17.8409232">
        <ele>31.6</ele>
        <time>2013-03-17T10:50:01Z</time>
      </trkpt>
      <trkpt lat="59.4552915" lon="17.8406609">
        <ele>32.8</ele>
        <time>2013-03-17T10:50:06Z</time>
      </trkpt>
      <trkpt lat="59.4551949" lon="17.840524">
        <ele>33</ele>
        <time>2013-03-17T10:50:09Z</time>
      </trkpt>
      <trkpt lat="59.455127" lon="17.8404443">
        <ele>33.4</ele>
        <time>2013-03-17T10:50:11Z</time>
      </trkpt>
      <trkpt lat="59.4549576" lon="17.8402755">
        <ele>33.8</ele>
        <time>2013-03-17T10:50:16Z</time>
      </trkpt>
      <trkpt lat="59.45479" lon="17.8401036">
        <ele>33.8</ele>
        <time>2013-03-17T10:50:21Z</time>
      </trkpt>
      <trkpt lat="59.454584" lon="17.8399765">
        <ele>34.2</ele>
        <time>2013-03-17T10:50:27Z</time>
      </trkpt>
      <trkpt lat="59.4543873" lon="17.8399343">
        <ele>34.8</ele>
        <time>2013-03-17T10:50:32Z</time>
      </trkpt>
      <trkpt lat="59.4541873" lon="17.8399154">
        <ele>35.4</ele>
        <time>2013-03-17T10:50:37Z</time>
      </trkpt>
      <trkpt lat="59.4540572" lon="17.839905">
        <ele>35.2</ele>
        <time>2013-03-17T10:50:40Z</time>
      </trkpt>
      <trkpt lat="59.4539681" lon="17.8399011">
        <ele>34.8</ele>
        <time>2013-03-17T10:50:42Z</time>
      </trkpt>
      <trkpt lat="59.4537748" lon="17.8398765">
        <ele>34.8</ele>
        <time>2013-03-17T10:50:46Z</time>
      </trkpt>
      <trkpt lat="59.4537333" lon="17.8398843">
        <ele>34.8</ele>
        <time>2013-03-17T10:50:47Z</time>
      </trkpt>
      <trkpt lat="59.4536916" lon="17.8398835">
        <ele>34.6</ele>
        <time>2013-03-17T10:50:48Z</time>
      </trkpt>
      <trkpt lat="59.4535661" lon="17.8398918">
        <ele>34</ele>
        <time>2013-03-17T10:50:51Z</time>
      </trkpt>
      <trkpt lat="59.4534854" lon="17.8399265">
        <ele>33.4</ele>
        <time>2013-03-17T10:50:53Z</time>
      </trkpt>
      <trkpt lat="59.4534384" lon="17.8399424">
        <ele>33.2</ele>
        <time>2013-03-17T10:50:54Z</time>
      </trkpt>
      <trkpt lat="59.4533614" lon="17.8399854">
        <ele>32.8</ele>
        <time>2013-03-17T10:50:56Z</time>
      </trkpt>
      <trkpt lat="59.4532319" lon="17.8400684">
        <ele>32.6</ele>
        <time>2013-03-17T10:50:59Z</time>
      </trkpt>
      <trkpt lat="59.4531853" lon="17.840099">
        <ele>32.4</ele>
        <time>2013-03-17T10:51:00Z</time>
      </trkpt>
      <trkpt lat="59.4530196" lon="17.8402619">
        <ele>31.6</ele>
        <time>2013-03-17T10:51:04Z</time>
      </trkpt>
      <trkpt lat="59.4528745" lon="17.8404911">
        <ele>31.4</ele>
        <time>2013-03-17T10:51:08Z</time>
      </trkpt>
      <trkpt lat="59.4528502" lon="17.8405564">
        <ele>30.8</ele>
        <time>2013-03-17T10:51:09Z</time>
      </trkpt>
      <trkpt lat="59.4528529" lon="17.8408401">
        <ele>29.2</ele>
        <time>2013-03-17T10:51:13Z</time>
      </trkpt>
      <trkpt lat="59.4529942" lon="17.8410516">
        <ele>27.8</ele>
        <time>2013-03-17T10:51:17Z</time>
      </trkpt>
      <trkpt lat="59.4530352" lon="17.8411051">
        <ele>27.6</ele>
        <time>2013-03-17T10:51:18Z</time>
      </trkpt>
      <trkpt lat="59.4532109" lon="17.8413142">
        <ele>26.6</ele>
        <time>2013-03-17T10:51:22Z</time>
      </trkpt>
      <trkpt lat="59.4533931" lon="17.8415282">
        <ele>27.2</ele>
        <time>2013-03-17T10:51:26Z</time>
      </trkpt>
      <trkpt lat="59.4534344" lon="17.841582">
        <ele>27.8</ele>
        <time>2013-03-17T10:51:27Z</time>
      </trkpt>
      <trkpt lat="59.4535588" lon="17.8417778">
        <ele>30.6</ele>
        <time>2013-03-17T10:51:30Z</time>
      </trkpt>
      <trkpt lat="59.453677" lon="17.8419699">
        <ele>31.4</ele>
        <time>2013-03-17T10:51:33Z</time>
      </trkpt>
      <trkpt lat="59.4537142" lon="17.8420414">
        <ele>31.8</ele>
        <time>2013-03-17T10:51:34Z</time>
      </trkpt>
      <trkpt lat="59.4538696" lon="17.8423006">
        <ele>34.2</ele>
        <time>2013-03-17T10:51:38Z</time>
      </trkpt>
      <trkpt lat="59.4540313" lon="17.8425403">
        <ele>34.8</ele>
        <time>2013-03-17T10:51:42Z</time>
      </trkpt>
      <trkpt lat="59.4541956" lon="17.8427713">
        <ele>34.8</ele>
        <time>2013-03-17T10:51:46Z</time>
      </trkpt>
      <trkpt lat="59.4543231" lon="17.8429305">
        <ele>36</ele>
        <time>2013-03-17T10:51:50Z</time>
      </trkpt>
      <trkpt lat="59.4545274" lon="17.8432074">
        <ele>36.6</ele>
        <time>2013-03-17T10:51:54Z</time>
      </trkpt>
      <trkpt lat="59.4546856" lon="17.8434195">
        <ele>37.2</ele>
        <time>2013-03-17T10:51:58Z</time>
      </trkpt>
      <trkpt lat="59.4548327" lon="17.8436333">
        <ele>37.2</ele>
        <time>2013-03-17T10:52:02Z</time>
      </trkpt>
      <trkpt lat="59.4548999" lon="17.8437585">
        <ele>38.6</ele>
        <time>2013-03-17T10:52:04Z</time>
      </trkpt>
      <trkpt lat="59.4549571" lon="17.8438927">
        <ele>40.2</ele>
        <time>2013-03-17T10:52:06Z</time>
      </trkpt>
      <trkpt lat="59.4550706" lon="17.8442024">
        <ele>42.6</ele>
        <time>2013-03-17T10:52:10Z</time>
      </trkpt>
      <trkpt lat="59.4550884" lon="17.844297">
        <ele>41.6</ele>
        <time>2013-03-17T10:52:11Z</time>
      </trkpt>
      <trkpt lat="59.4550819" lon="17.8445642">
        <ele>37.6</ele>
        <time>2013-03-17T10:52:14Z</time>
      </trkpt>
      <trkpt lat="59.4549874" lon="17.8449238">
        <ele>34.6</ele>
        <time>2013-03-17T10:52:18Z</time>
      </trkpt>
      <trkpt lat="59.4549529" lon="17.8450051">
        <ele>33.8</ele>
        <time>2013-03-17T10:52:19Z</time>
      </trkpt>
      <trkpt lat="59.4548473" lon="17.8452049">
        <ele>32.2</ele>
        <time>2013-03-17T10:52:22Z</time>
      </trkpt>
      <trkpt lat="59.4546932" lon="17.845434">
        <ele>31.2</ele>
        <time>2013-03-17T10:52:26Z</time>
      </trkpt>
      <trkpt lat="59.4545352" lon="17.8456583">
        <ele>29.4</ele>
        <time>2013-03-17T10:52:30Z</time>
      </trkpt>
      <trkpt lat="59.4543542" lon="17.8458844">
        <ele>29.2</ele>
        <time>2013-03-17T10:52:35Z</time>
      </trkpt>
      <trkpt lat="59.454252" lon="17.8460316">
        <ele>29.2</ele>
        <time>2013-03-17T10:52:38Z</time>
      </trkpt>
      <trkpt lat="59.4541836" lon="17.8461083">
        <ele>29.8</ele>
        <time>2013-03-17T10:52:40Z</time>
      </trkpt>
      <trkpt lat="59.4540175" lon="17.8462597">
        <ele>30</ele>
        <time>2013-03-17T10:52:44Z</time>
      </trkpt>
      <trkpt lat="59.4538494" lon="17.8463936">
        <ele>29.6</ele>
        <time>2013-03-17T10:52:48Z</time>
      </trkpt>
      <trkpt lat="59.4538128" lon="17.8464382">
        <ele>29.8</ele>
        <time>2013-03-17T10:52:49Z</time>
      </trkpt>
      <trkpt lat="59.4537512" lon="17.84653">
        <ele>29</ele>
        <time>2013-03-17T10:52:51Z</time>
      </trkpt>
      <trkpt lat="59.4536741" lon="17.8466156">
        <ele>28.6</ele>
        <time>2013-03-17T10:52:53Z</time>
      </trkpt>
      <trkpt lat="59.4536091" lon="17.8467081">
        <ele>27.8</ele>
        <time>2013-03-17T10:52:56Z</time>
      </trkpt>
      <trkpt lat="59.4535427" lon="17.8467944">
        <ele>28.2</ele>
        <time>2013-03-17T10:52:57Z</time>
      </trkpt>
      <trkpt lat="59.453506" lon="17.8468363">
        <ele>28.4</ele>
        <time>2013-03-17T10:52:58Z</time>
      </trkpt>
      <trkpt lat="59.4534067" lon="17.8469642">
        <ele>28.2</ele>
        <time>2013-03-17T10:53:01Z</time>
      </trkpt>
      <trkpt lat="59.453344" lon="17.8470621">
        <ele>28.6</ele>
        <time>2013-03-17T10:53:03Z</time>
      </trkpt>
      <trkpt lat="59.453187" lon="17.8472851">
        <ele>28.8</ele>
        <time>2013-03-17T10:53:08Z</time>
      </trkpt>
      <trkpt lat="59.4530352" lon="17.8475055">
        <ele>28.6</ele>
        <time>2013-03-17T10:53:13Z</time>
      </trkpt>
      <trkpt lat="59.4528804" lon="17.8477639">
        <ele>29.4</ele>
        <time>2013-03-17T10:53:18Z</time>
      </trkpt>
      <trkpt lat="59.45274" lon="17.8479467">
        <ele>30.2</ele>
        <time>2013-03-17T10:53:22Z</time>
      </trkpt>
      <trkpt lat="59.4527111" lon="17.8480026">
        <ele>30.4</ele>
        <time>2013-03-17T10:53:23Z</time>
      </trkpt>
      <trkpt lat="59.4525357" lon="17.8482403">
        <ele>31</ele>
        <time>2013-03-17T10:53:28Z</time>
      </trkpt>
      <trkpt lat="59.4524987" lon="17.8482885">
        <ele>31.2</ele>
        <time>2013-03-17T10:53:29Z</time>
      </trkpt>
      <trkpt lat="59.452384" lon="17.8484313">
        <ele>30.6</ele>
        <time>2013-03-17T10:53:32Z</time>
      </trkpt>
      <trkpt lat="59.4523466" lon="17.8484807">
        <ele>30.4</ele>
        <time>2013-03-17T10:53:33Z</time>
      </trkpt>
      <trkpt lat="59.4522721" lon="17.8485752">
        <ele>30.2</ele>
        <time>2013-03-17T10:53:35Z</time>
      </trkpt>
      <trkpt lat="59.4522044" lon="17.8486658">
        <ele>29.8</ele>
        <time>2013-03-17T10:53:37Z</time>
      </trkpt>
      <trkpt lat="59.4521658" lon="17.8487006">
        <ele>29.2</ele>
        <time>2013-03-17T10:53:38Z</time>
      </trkpt>
      <trkpt lat="59.4520567" lon="17.8487949">
        <ele>27.4</ele>
        <time>2013-03-17T10:53:41Z</time>
      </trkpt>
      <trkpt lat="59.4519784" lon="17.8488479">
        <ele>26.8</ele>
        <time>2013-03-17T10:53:43Z</time>
      </trkpt>
      <trkpt lat="59.4517929" lon="17.8489508">
        <ele>26</ele>
        <time>2013-03-17T10:53:48Z</time>
      </trkpt>
      <trkpt lat="59.4516624" lon="17.848989">
        <ele>26.2</ele>
        <time>2013-03-17T10:53:51Z</time>
      </trkpt>
      <trkpt lat="59.4515803" lon="17.8490082">
        <ele>26</ele>
        <time>2013-03-17T10:53:53Z</time>
      </trkpt>
      <trkpt lat="59.451505" lon="17.8490263">
        <ele>25.8</ele>
        <time>2013-03-17T10:53:55Z</time>
      </trkpt>
      <trkpt lat="59.4513978" lon="17.8490933">
        <ele>26.4</ele>
        <time>2013-03-17T10:53:58Z</time>
      </trkpt>
      <trkpt lat="59.451216" lon="17.8492154">
        <ele>27.6</ele>
        <time>2013-03-17T10:54:03Z</time>
      </trkpt>
      <trkpt lat="59.4510363" lon="17.8493388">
        <ele>27.2</ele>
        <time>2013-03-17T10:54:08Z</time>
      </trkpt>
      <trkpt lat="59.4508445" lon="17.8494692">
        <ele>25.8</ele>
        <time>2013-03-17T10:54:14Z</time>
      </trkpt>
      <trkpt lat="59.4506436" lon="17.8495723">
        <ele>25.2</ele>
        <time>2013-03-17T10:54:19Z</time>
      </trkpt>
      <trkpt lat="59.4504405" lon="17.8496465">
        <ele>24.6</ele>
        <time>2013-03-17T10:54:24Z</time>
      </trkpt>
      <trkpt lat="59.4502569" lon="17.8497205">
        <ele>24.6</ele>
        <time>2013-03-17T10:54:29Z</time>
      </trkpt>
      <trkpt lat="59.4500762" lon="17.8497915">
        <ele>25</ele>
        <time>2013-03-17T10:54:34Z</time>
      </trkpt>
      <trkpt lat="59.449898" lon="17.8498556">
        <ele>24</ele>
        <time>2013-03-17T10:54:39Z</time>
      </trkpt>
      <trkpt lat="59.4497064" lon="17.84995">
        <ele>23.8</ele>
        <time>2013-03-17T10:54:44Z</time>
      </trkpt>
      <trkpt lat="59.4495893" lon="17.8501462">
        <ele>27.2</ele>
        <time>2013-03-17T10:54:49Z</time>
      </trkpt>
      <trkpt lat="59.4495951" lon="17.8501998">
        <ele>27.6</ele>
        <time>2013-03-17T10:54:50Z</time>
      </trkpt>
      <trkpt lat="59.4496978" lon="17.8502818">
        <ele>28</ele>
        <time>2013-03-17T10:54:54Z</time>
      </trkpt>
      <trkpt lat="59.4497654" lon="17.8503037">
        <ele>28.6</ele>
        <time>2013-03-17T10:54:56Z</time>
      </trkpt>
      <trkpt lat="59.4499454" lon="17.8503924">
        <ele>30.4</ele>
        <time>2013-03-17T10:55:01Z</time>
      </trkpt>
      <trkpt lat="59.4501478" lon="17.850509">
        <ele>31.8</ele>
        <time>2013-03-17T10:55:06Z</time>
      </trkpt>
      <trkpt lat="59.450326" lon="17.850615">
        <ele>31.6</ele>
        <time>2013-03-17T10:55:10Z</time>
      </trkpt>
      <trkpt lat="59.4505049" lon="17.8506814">
        <ele>30.8</ele>
        <time>2013-03-17T10:55:14Z</time>
      </trkpt>
      <trkpt lat="59.4506021" lon="17.850699">
        <ele>31.6</ele>
        <time>2013-03-17T10:55:16Z</time>
      </trkpt>
      <trkpt lat="59.4506856" lon="17.850669">
        <ele>29.8</ele>
        <time>2013-03-17T10:55:18Z</time>
      </trkpt>
      <trkpt lat="59.4508705" lon="17.8506332">
        <ele>29.4</ele>
        <time>2013-03-17T10:55:22Z</time>
      </trkpt>
      <trkpt lat="59.4510518" lon="17.8506239">
        <ele>28.2</ele>
        <time>2013-03-17T10:55:26Z</time>
      </trkpt>
      <trkpt lat="59.4512744" lon="17.8505914">
        <ele>24.8</ele>
        <time>2013-03-17T10:55:31Z</time>
      </trkpt>
      <trkpt lat="59.4514066" lon="17.8505586">
        <ele>22.2</ele>
        <time>2013-03-17T10:55:34Z</time>
      </trkpt>
      <trkpt lat="59.4514564" lon="17.8505517">
        <ele>22.4</ele>
        <time>2013-03-17T10:55:35Z</time>
      </trkpt>
      <trkpt lat="59.4516081" lon="17.8505239">
        <ele>16.2</ele>
        <time>2013-03-17T10:55:39Z</time>
      </trkpt>
      <trkpt lat="59.4516457" lon="17.8505156">
        <ele>15</ele>
        <time>2013-03-17T10:55:40Z</time>
      </trkpt>
      <trkpt lat="59.4518458" lon="17.8504565">
        <ele>9.8</ele>
        <time>2013-03-17T10:55:45Z</time>
      </trkpt>
      <trkpt lat="59.4519371" lon="17.8504476">
        <ele>9.4</ele>
        <time>2013-03-17T10:55:47Z</time>
      </trkpt>
      <trkpt lat="59.4520349" lon="17.8504912">
        <ele>9.8</ele>
        <time>2013-03-17T10:55:49Z</time>
      </trkpt>
      <trkpt lat="59.4521826" lon="17.8506269">
        <ele>10.4</ele>
        <time>2013-03-17T10:55:52Z</time>
      </trkpt>
      <trkpt lat="59.4522286" lon="17.8506815">
        <ele>10.6</ele>
        <time>2013-03-17T10:55:53Z</time>
      </trkpt>
      <trkpt lat="59.4522741" lon="17.8507291">
        <ele>11.2</ele>
        <time>2013-03-17T10:55:54Z</time>
      </trkpt>
      <trkpt lat="59.4524213" lon="17.8508548">
        <ele>13</ele>
        <time>2013-03-17T10:55:57Z</time>
      </trkpt>
      <trkpt lat="59.4526348" lon="17.8510228">
        <ele>16</ele>
        <time>2013-03-17T10:56:01Z</time>
      </trkpt>
      <trkpt lat="59.4527323" lon="17.8510912">
        <ele>17.6</ele>
        <time>2013-03-17T10:56:03Z</time>
      </trkpt>
      <trkpt lat="59.4528436" lon="17.8511267">
        <ele>20</ele>
        <time>2013-03-17T10:56:05Z</time>
      </trkpt>
      <trkpt lat="59.4529537" lon="17.8511393">
        <ele>22.2</ele>
        <time>2013-03-17T10:56:07Z</time>
      </trkpt>
      <trkpt lat="59.4530462" lon="17.8510673">
        <ele>23.6</ele>
        <time>2013-03-17T10:56:09Z</time>
      </trkpt>
      <trkpt lat="59.4531161" lon="17.8509368">
        <ele>22.4</ele>
        <time>2013-03-17T10:56:11Z</time>
      </trkpt>
      <trkpt lat="59.4531772" lon="17.8508005">
        <ele>19</ele>
        <time>2013-03-17T10:56:13Z</time>
      </trkpt>
      <trkpt lat="59.4532462" lon="17.8506652">
        <ele>16.2</ele>
        <time>2013-03-17T10:56:15Z</time>
      </trkpt>
      <trkpt lat="59.453329" lon="17.8505431">
        <ele>14.6</ele>
        <time>2013-03-17T10:56:17Z</time>
      </trkpt>
      <trkpt lat="59.4534025" lon="17.850416">
        <ele>12.6</ele>
        <time>2013-03-17T10:56:19Z</time>
      </trkpt>
      <trkpt lat="59.4534658" lon="17.8502773">
        <ele>10</ele>
        <time>2013-03-17T10:56:21Z</time>
      </trkpt>
      <trkpt lat="59.4536059" lon="17.8500545">
        <ele>5.8</ele>
        <time>2013-03-17T10:56:25Z</time>
      </trkpt>
      <trkpt lat="59.4536413" lon="17.8499956">
        <ele>4.8</ele>
        <time>2013-03-17T10:56:26Z</time>
      </trkpt>
      <trkpt lat="59.4537413" lon="17.8498195">
        <ele>2.2</ele>
        <time>2013-03-17T10:56:29Z</time>
      </trkpt>
      <trkpt lat="59.4538126" lon="17.8497102">
        <ele>0.6</ele>
        <time>2013-03-17T10:56:31Z</time>
      </trkpt>
      <trkpt lat="59.4538856" lon="17.8496034">
        <ele>0</ele>
        <time>2013-03-17T10:56:33Z</time>
      </trkpt>
      <trkpt lat="59.4540578" lon="17.8493584">
        <ele>0</ele>
        <time>2013-03-17T10:56:38Z</time>
      </trkpt>
      <trkpt lat="59.4541588" lon="17.8491569">
        <ele>0</ele>
        <time>2013-03-17T10:56:41Z</time>
      </trkpt>
      <trkpt lat="59.4541972" lon="17.8491103">
        <ele>0</ele>
        <time>2013-03-17T10:56:42Z</time>
      </trkpt>
      <trkpt lat="59.4543205" lon="17.84898">
        <ele>0</ele>
        <time>2013-03-17T10:56:45Z</time>
      </trkpt>
      <trkpt lat="59.4543619" lon="17.8489403">
        <ele>0</ele>
        <time>2013-03-17T10:56:46Z</time>
      </trkpt>
      <trkpt lat="59.4545478" lon="17.8487885">
        <ele>0</ele>
        <time>2013-03-17T10:56:50Z</time>
      </trkpt>
      <trkpt lat="59.4545908" lon="17.848758">
        <ele>0</ele>
        <time>2013-03-17T10:56:51Z</time>
      </trkpt>
      <trkpt lat="59.4547244" lon="17.8486746">
        <ele>0</ele>
        <time>2013-03-17T10:56:54Z</time>
      </trkpt>
      <trkpt lat="59.45477" lon="17.8486525">
        <ele>0</ele>
        <time>2013-03-17T10:56:55Z</time>
      </trkpt>
      <trkpt lat="59.4549118" lon="17.8486081">
        <ele>0</ele>
        <time>2013-03-17T10:56:58Z</time>
      </trkpt>
      <trkpt lat="59.4550948" lon="17.8486627">
        <ele>0</ele>
        <time>2013-03-17T10:57:02Z</time>
      </trkpt>
      <trkpt lat="59.4551798" lon="17.8486958">
        <ele>0</ele>
        <time>2013-03-17T10:57:04Z</time>
      </trkpt>
      <trkpt lat="59.4553136" lon="17.8487661">
        <ele>0</ele>
        <time>2013-03-17T10:57:07Z</time>
      </trkpt>
      <trkpt lat="59.4553612" lon="17.8487886">
        <ele>0</ele>
        <time>2013-03-17T10:57:08Z</time>
      </trkpt>
      <trkpt lat="59.4555071" lon="17.8488363">
        <ele>2.4</ele>
        <time>2013-03-17T10:57:11Z</time>
      </trkpt>
      <trkpt lat="59.4556598" lon="17.8489041">
        <ele>6.4</ele>
        <time>2013-03-17T10:57:14Z</time>
      </trkpt>
      <trkpt lat="59.4557185" lon="17.8489254">
        <ele>8.6</ele>
        <time>2013-03-17T10:57:15Z</time>
      </trkpt>
      <trkpt lat="59.4559352" lon="17.849018">
        <ele>17</ele>
        <time>2013-03-17T10:57:19Z</time>
      </trkpt>
      <trkpt lat="59.4559894" lon="17.8490396">
        <ele>19.6</ele>
        <time>2013-03-17T10:57:20Z</time>
      </trkpt>
      <trkpt lat="59.4560866" lon="17.8490852">
        <ele>23.2</ele>
        <time>2013-03-17T10:57:22Z</time>
      </trkpt>
      <trkpt lat="59.4561292" lon="17.8490997">
        <ele>24.6</ele>
        <time>2013-03-17T10:57:23Z</time>
      </trkpt>
      <trkpt lat="59.456324" lon="17.8490894">
        <ele>29</ele>
        <time>2013-03-17T10:57:27Z</time>
      </trkpt>
      <trkpt lat="59.4563707" lon="17.849061">
        <ele>29.8</ele>
        <time>2013-03-17T10:57:28Z</time>
      </trkpt>
      <trkpt lat="59.4564255" lon="17.8490344">
        <ele>31.6</ele>
        <time>2013-03-17T10:57:29Z</time>
      </trkpt>
      <trkpt lat="59.4565282" lon="17.8489827">
        <ele>33.8</ele>
        <time>2013-03-17T10:57:31Z</time>
      </trkpt>
      <trkpt lat="59.4567245" lon="17.8488771">
        <ele>35.6</ele>
        <time>2013-03-17T10:57:35Z</time>
      </trkpt>
      <trkpt lat="59.4568025" lon="17.8488322">
        <ele>33.2</ele>
        <time>2013-03-17T10:57:37Z</time>
      </trkpt>
      <trkpt lat="59.4569323" lon="17.8487801">
        <ele>30.6</ele>
        <time>2013-03-17T10:57:40Z</time>
      </trkpt>
      <trkpt lat="59.4571083" lon="17.8487104">
        <ele>27.6</ele>
        <time>2013-03-17T10:57:44Z</time>
      </trkpt>
      <trkpt lat="59.4571553" lon="17.848683">
        <ele>27.2</ele>
        <time>2013-03-17T10:57:45Z</time>
      </trkpt>
      <trkpt lat="59.4573265" lon="17.8486373">
        <ele>28</ele>
        <time>2013-03-17T10:57:48Z</time>
      </trkpt>
      <trkpt lat="59.4574309" lon="17.8485869">
        <ele>27.8</ele>
        <time>2013-03-17T10:57:50Z</time>
      </trkpt>
      <trkpt lat="59.4575283" lon="17.8485455">
        <ele>28.2</ele>
        <time>2013-03-17T10:57:52Z</time>
      </trkpt>
      <trkpt lat="59.4575713" lon="17.8485223">
        <ele>27.4</ele>
        <time>2013-03-17T10:57:53Z</time>
      </trkpt>
      <trkpt lat="59.4577258" lon="17.8484574">
        <ele>26.8</ele>
        <time>2013-03-17T10:57:56Z</time>
      </trkpt>
      <trkpt lat="59.4579351" lon="17.8483931">
        <ele>26.2</ele>
        <time>2013-03-17T10:58:00Z</time>
      </trkpt>
      <trkpt lat="59.4581255" lon="17.8483131">
        <ele>27</ele>
        <time>2013-03-17T10:58:04Z</time>
      </trkpt>
      <trkpt lat="59.4582196" lon="17.8482813">
        <ele>26.6</ele>
        <time>2013-03-17T10:58:06Z</time>
      </trkpt>
      <trkpt lat="59.4583055" lon="17.8482399">
        <ele>27</ele>
        <time>2013-03-17T10:58:08Z</time>
      </trkpt>
      <trkpt lat="59.4584886" lon="17.8481648">
        <ele>27.2</ele>
        <time>2013-03-17T10:58:12Z</time>
      </trkpt>
      <trkpt lat="59.4586769" lon="17.8481072">
        <ele>27.6</ele>
        <time>2013-03-17T10:58:16Z</time>
      </trkpt>
      <trkpt lat="59.4588569" lon="17.848034">
        <ele>29</ele>
        <time>2013-03-17T10:58:20Z</time>
      </trkpt>
      <trkpt lat="59.4589022" lon="17.8480174">
        <ele>29.4</ele>
        <time>2013-03-17T10:58:21Z</time>
      </trkpt>
      <trkpt lat="59.4590408" lon="17.8479627">
        <ele>30.2</ele>
        <time>2013-03-17T10:58:24Z</time>
      </trkpt>
      <trkpt lat="59.4591927" lon="17.8478738">
        <ele>27.4</ele>
        <time>2013-03-17T10:58:28Z</time>
      </trkpt>
      <trkpt lat="59.4592274" lon="17.8478511">
        <ele>26</ele>
        <time>2013-03-17T10:58:29Z</time>
      </trkpt>
      <trkpt lat="59.4594428" lon="17.8477919">
        <ele>24.8</ele>
        <time>2013-03-17T10:58:34Z</time>
      </trkpt>
      <trkpt lat="59.4596198" lon="17.8477292">
        <ele>24.6</ele>
        <time>2013-03-17T10:58:38Z</time>
      </trkpt>
      <trkpt lat="59.4598039" lon="17.8476551">
        <ele>25.8</ele>
        <time>2013-03-17T10:58:42Z</time>
      </trkpt>
      <trkpt lat="59.4600288" lon="17.8476246">
        <ele>25</ele>
        <time>2013-03-17T10:58:47Z</time>
      </trkpt>
      <trkpt lat="59.4600767" lon="17.8476112">
        <ele>25.8</ele>
        <time>2013-03-17T10:58:48Z</time>
      </trkpt>
      <trkpt lat="59.4602115" lon="17.8475757">
        <ele>26</ele>
        <time>2013-03-17T10:58:51Z</time>
      </trkpt>
      <trkpt lat="59.4602558" lon="17.847563">
        <ele>26</ele>
        <time>2013-03-17T10:58:52Z</time>
      </trkpt>
      <trkpt lat="59.4603936" lon="17.8475422">
        <ele>26</ele>
        <time>2013-03-17T10:58:55Z</time>
      </trkpt>
      <trkpt lat="59.4605795" lon="17.8475577">
        <ele>25</ele>
        <time>2013-03-17T10:58:59Z</time>
      </trkpt>
      <trkpt lat="59.4606759" lon="17.8475634">
        <ele>25.6</ele>
        <time>2013-03-17T10:59:01Z</time>
      </trkpt>
      <trkpt lat="59.4607687" lon="17.8475586">
        <ele>25.8</ele>
        <time>2013-03-17T10:59:03Z</time>
      </trkpt>
      <trkpt lat="59.4608142" lon="17.8475477">
        <ele>26.2</ele>
        <time>2013-03-17T10:59:04Z</time>
      </trkpt>
      <trkpt lat="59.4609523" lon="17.8474905">
        <ele>26</ele>
        <time>2013-03-17T10:59:07Z</time>
      </trkpt>
      <trkpt lat="59.4610891" lon="17.8473846">
        <ele>25.4</ele>
        <time>2013-03-17T10:59:10Z</time>
      </trkpt>
      <trkpt lat="59.4611329" lon="17.847336">
        <ele>25.4</ele>
        <time>2013-03-17T10:59:11Z</time>
      </trkpt>
      <trkpt lat="59.4611707" lon="17.8472748">
        <ele>26</ele>
        <time>2013-03-17T10:59:12Z</time>
      </trkpt>
      <trkpt lat="59.4612673" lon="17.8470646">
        <ele>26</ele>
        <time>2013-03-17T10:59:15Z</time>
      </trkpt>
      <trkpt lat="59.4613472" lon="17.8468293">
        <ele>26.6</ele>
        <time>2013-03-17T10:59:18Z</time>
      </trkpt>
      <trkpt lat="59.4613704" lon="17.8467461">
        <ele>26.4</ele>
        <time>2013-03-17T10:59:19Z</time>
      </trkpt>
      <trkpt lat="59.4614498" lon="17.8464171">
        <ele>27.2</ele>
        <time>2013-03-17T10:59:23Z</time>
      </trkpt>
      <trkpt lat="59.4615451" lon="17.8461017">
        <ele>26.6</ele>
        <time>2013-03-17T10:59:27Z</time>
      </trkpt>
      <trkpt lat="59.4616321" lon="17.8457765">
        <ele>24.2</ele>
        <time>2013-03-17T10:59:31Z</time>
      </trkpt>
      <trkpt lat="59.4617223" lon="17.8454589">
        <ele>22.4</ele>
        <time>2013-03-17T10:59:35Z</time>
      </trkpt>
      <trkpt lat="59.4617161" lon="17.8450428">
        <ele>21.6</ele>
        <time>2013-03-17T10:59:40Z</time>
      </trkpt>
      <trkpt lat="59.4615542" lon="17.8448593">
        <ele>20.2</ele>
        <time>2013-03-17T10:59:45Z</time>
      </trkpt>
      <trkpt lat="59.4613659" lon="17.8446187">
        <ele>18.8</ele>
        <time>2013-03-17T10:59:50Z</time>
      </trkpt>
      <trkpt lat="59.461281" lon="17.8445436">
        <ele>18.4</ele>
        <time>2013-03-17T10:59:52Z</time>
      </trkpt>
      <trkpt lat="59.4612441" lon="17.8445239">
        <ele>18.2</ele>
        <time>2013-03-17T10:59:53Z</time>
      </trkpt>
      <trkpt lat="59.4611627" lon="17.8444982">
        <ele>17.8</ele>
        <time>2013-03-17T10:59:55Z</time>
      </trkpt>
      <trkpt lat="59.4610322" lon="17.8444473">
        <ele>17</ele>
        <time>2013-03-17T10:59:58Z</time>
      </trkpt>
      <trkpt lat="59.4609456" lon="17.8444244">
        <ele>16.2</ele>
        <time>2013-03-17T11:00:00Z</time>
      </trkpt>
      <trkpt lat="59.4607723" lon="17.8443933">
        <ele>14.6</ele>
        <time>2013-03-17T11:00:04Z</time>
      </trkpt>
      <trkpt lat="59.4607262" lon="17.8443896">
        <ele>14.4</ele>
        <time>2013-03-17T11:00:05Z</time>
      </trkpt>
      <trkpt lat="59.4606389" lon="17.8443782">
        <ele>13.8</ele>
        <time>2013-03-17T11:00:07Z</time>
      </trkpt>
      <trkpt lat="59.4605104" lon="17.8443745">
        <ele>12.4</ele>
        <time>2013-03-17T11:00:10Z</time>
      </trkpt>
      <trkpt lat="59.4604187" lon="17.8443815">
        <ele>11.2</ele>
        <time>2013-03-17T11:00:12Z</time>
      </trkpt>
      <trkpt lat="59.4603289" lon="17.8443962">
        <ele>10.4</ele>
        <time>2013-03-17T11:00:14Z</time>
      </trkpt>
      <trkpt lat="59.4602853" lon="17.8444086">
        <ele>10.2</ele>
        <time>2013-03-17T11:00:15Z</time>
      </trkpt>
      <trkpt lat="59.4601272" lon="17.8444646">
        <ele>8</ele>
        <time>2013-03-17T11:00:19Z</time>
      </trkpt>
      <trkpt lat="59.4599531" lon="17.844527">
        <ele>7</ele>
        <time>2013-03-17T11:00:23Z</time>
      </trkpt>
      <trkpt lat="59.4599088" lon="17.8445384">
        <ele>7</ele>
        <time>2013-03-17T11:00:24Z</time>
      </trkpt>
      <trkpt lat="59.4597572" lon="17.8445967">
        <ele>6</ele>
        <time>2013-03-17T11:00:28Z</time>
      </trkpt>
      <trkpt lat="59.4597148" lon="17.8446078">
        <ele>5.8</ele>
        <time>2013-03-17T11:00:29Z</time>
      </trkpt>
      <trkpt lat="59.4596015" lon="17.8446299">
        <ele>4.8</ele>
        <time>2013-03-17T11:00:32Z</time>
      </trkpt>
      <trkpt lat="59.4595224" lon="17.8446386">
        <ele>4.2</ele>
        <time>2013-03-17T11:00:34Z</time>
      </trkpt>
      <trkpt lat="59.459326" lon="17.8446673">
        <ele>3.4</ele>
        <time>2013-03-17T11:00:39Z</time>
      </trkpt>
      <trkpt lat="59.4591273" lon="17.8446823">
        <ele>2.2</ele>
        <time>2013-03-17T11:00:44Z</time>
      </trkpt>
      <trkpt lat="59.4589469" lon="17.8447867">
        <ele>2</ele>
        <time>2013-03-17T11:00:49Z</time>
      </trkpt>
      <trkpt lat="59.4587452" lon="17.8448237">
        <ele>2.2</ele>
        <time>2013-03-17T11:00:54Z</time>
      </trkpt>
      <trkpt lat="59.4585408" lon="17.8448373">
        <ele>2.4</ele>
        <time>2013-03-17T11:00:59Z</time>
      </trkpt>
      <trkpt lat="59.4584661" lon="17.8448419">
        <ele>2.6</ele>
        <time>2013-03-17T11:01:01Z</time>
      </trkpt>
      <trkpt lat="59.4583783" lon="17.8448425">
        <ele>2.4</ele>
        <time>2013-03-17T11:01:03Z</time>
      </trkpt>
      <trkpt lat="59.4583322" lon="17.8448517">
        <ele>2.6</ele>
        <time>2013-03-17T11:01:04Z</time>
      </trkpt>
      <trkpt lat="59.4582433" lon="17.8448679">
        <ele>2.2</ele>
        <time>2013-03-17T11:01:06Z</time>
      </trkpt>
      <trkpt lat="59.4581271" lon="17.8448922">
        <ele>1.4</ele>
        <time>2013-03-17T11:01:09Z</time>
      </trkpt>
      <trkpt lat="59.4579452" lon="17.8449413">
        <ele>1.4</ele>
        <time>2013-03-17T11:01:14Z</time>
      </trkpt>
      <trkpt lat="59.4577438" lon="17.8449842">
        <ele>0</ele>
        <time>2013-03-17T11:01:20Z</time>
      </trkpt>
      <trkpt lat="59.457559" lon="17.8449992">
        <ele>0</ele>
        <time>2013-03-17T11:01:25Z</time>
      </trkpt>
      <trkpt lat="59.4573674" lon="17.84499">
        <ele>0</ele>
        <time>2013-03-17T11:01:30Z</time>
      </trkpt>
      <trkpt lat="59.4571555" lon="17.8449797">
        <ele>0</ele>
        <time>2013-03-17T11:01:36Z</time>
      </trkpt>
      <trkpt lat="59.4569681" lon="17.8449556">
        <ele>0</ele>
        <time>2013-03-17T11:01:41Z</time>
      </trkpt>
      <trkpt lat="59.4567573" lon="17.8448947">
        <ele>0</ele>
        <time>2013-03-17T11:01:46Z</time>
      </trkpt>
      <trkpt lat="59.456567" lon="17.8448377">
        <ele>0</ele>
        <time>2013-03-17T11:01:51Z</time>
      </trkpt>
      <trkpt lat="59.4563793" lon="17.8447227">
        <ele>0</ele>
        <time>2013-03-17T11:01:56Z</time>
      </trkpt>
      <trkpt lat="59.4562252" lon="17.8444829">
        <ele>0</ele>
        <time>2013-03-17T11:02:01Z</time>
      </trkpt>
      <trkpt lat="59.4561599" lon="17.844285">
        <ele>0</ele>
        <time>2013-03-17T11:02:04Z</time>
      </trkpt>
      <trkpt lat="59.4561262" lon="17.8441591">
        <ele>0</ele>
        <time>2013-03-17T11:02:06Z</time>
      </trkpt>
      <trkpt lat="59.4560594" lon="17.8438044">
        <ele>0</ele>
        <time>2013-03-17T11:02:11Z</time>
      </trkpt>
      <trkpt lat="59.4560061" lon="17.8433955">
        <ele>0</ele>
        <time>2013-03-17T11:02:16Z</time>
      </trkpt>
      <trkpt lat="59.4559823" lon="17.8430014">
        <ele>0</ele>
        <time>2013-03-17T11:02:21Z</time>
      </trkpt>
      <trkpt lat="59.4559739" lon="17.8428361">
        <ele>0</ele>
        <time>2013-03-17T11:02:23Z</time>
      </trkpt>
      <trkpt lat="59.4559598" lon="17.8426761">
        <ele>0</ele>
        <time>2013-03-17T11:02:25Z</time>
      </trkpt>
      <trkpt lat="59.4559499" lon="17.8426014">
        <ele>0</ele>
        <time>2013-03-17T11:02:26Z</time>
      </trkpt>
      <trkpt lat="59.4558941" lon="17.8422238">
        <ele>0</ele>
        <time>2013-03-17T11:02:31Z</time>
      </trkpt>
      <trkpt lat="59.4558776" lon="17.8421501">
        <ele>0</ele>
        <time>2013-03-17T11:02:32Z</time>
      </trkpt>
      <trkpt lat="59.4557962" lon="17.8419018">
        <ele>0</ele>
        <time>2013-03-17T11:02:36Z</time>
      </trkpt>
      <trkpt lat="59.4556676" lon="17.841617">
        <ele>0</ele>
        <time>2013-03-17T11:02:41Z</time>
      </trkpt>
      <trkpt lat="59.4555353" lon="17.8413321">
        <ele>0</ele>
        <time>2013-03-17T11:02:46Z</time>
      </trkpt>
      <trkpt lat="59.4553821" lon="17.841065">
        <ele>0</ele>
        <time>2013-03-17T11:02:51Z</time>
      </trkpt>
      <trkpt lat="59.4552094" lon="17.840779">
        <ele>0</ele>
        <time>2013-03-17T11:02:56Z</time>
      </trkpt>
      <trkpt lat="59.4551395" lon="17.8406698">
        <ele>0</ele>
        <time>2013-03-17T11:02:58Z</time>
      </trkpt>
      <trkpt lat="59.4550753" lon="17.8405422">
        <ele>0</ele>
        <time>2013-03-17T11:03:00Z</time>
      </trkpt>
      <trkpt lat="59.4550067" lon="17.8404377">
        <ele>0</ele>
        <time>2013-03-17T11:03:02Z</time>
      </trkpt>
      <trkpt lat="59.4549732" lon="17.8403864">
        <ele>0</ele>
        <time>2013-03-17T11:03:03Z</time>
      </trkpt>
      <trkpt lat="59.4549111" lon="17.8402878">
        <ele>0</ele>
        <time>2013-03-17T11:03:05Z</time>
      </trkpt>
      <trkpt lat="59.4547343" lon="17.8400793">
        <ele>0</ele>
        <time>2013-03-17T11:03:10Z</time>
      </trkpt>
      <trkpt lat="59.454542" lon="17.8398979">
        <ele>0</ele>
        <time>2013-03-17T11:03:15Z</time>
      </trkpt>
      <trkpt lat="59.4544629" lon="17.8398322">
        <ele>0</ele>
        <time>2013-03-17T11:03:17Z</time>
      </trkpt>
      <trkpt lat="59.4543409" lon="17.8397421">
        <ele>0</ele>
        <time>2013-03-17T11:03:20Z</time>
      </trkpt>
      <trkpt lat="59.454307" lon="17.8397163">
        <ele>0</ele>
        <time>2013-03-17T11:03:21Z</time>
      </trkpt>
      <trkpt lat="59.4541282" lon="17.839616">
        <ele>3.4</ele>
        <time>2013-03-17T11:03:34Z</time>
      </trkpt>
      <trkpt lat="59.4540794" lon="17.8396161">
        <ele>4.4</ele>
        <time>2013-03-17T11:03:39Z</time>
      </trkpt>
      <trkpt lat="59.4538941" lon="17.8396118">
        <ele>7.8</ele>
        <time>2013-03-17T11:03:47Z</time>
      </trkpt>
      <trkpt lat="59.4536921" lon="17.839612">
        <ele>10.4</ele>
        <time>2013-03-17T11:03:55Z</time>
      </trkpt>
      <trkpt lat="59.4535082" lon="17.8396318">
        <ele>11</ele>
        <time>2013-03-17T11:03:59Z</time>
      </trkpt>
      <trkpt lat="59.4532984" lon="17.8396908">
        <ele>12.4</ele>
        <time>2013-03-17T11:04:03Z</time>
      </trkpt>
      <trkpt lat="59.4531597" lon="17.839754">
        <ele>12.6</ele>
        <time>2013-03-17T11:04:06Z</time>
      </trkpt>
      <trkpt lat="59.4531202" lon="17.8397854">
        <ele>12.4</ele>
        <time>2013-03-17T11:04:07Z</time>
      </trkpt>
      <trkpt lat="59.4529219" lon="17.8399825">
        <ele>12.8</ele>
        <time>2013-03-17T11:04:12Z</time>
      </trkpt>
      <trkpt lat="59.4528187" lon="17.8401384">
        <ele>11.8</ele>
        <time>2013-03-17T11:04:15Z</time>
      </trkpt>
      <trkpt lat="59.4527621" lon="17.8402487">
        <ele>10.8</ele>
        <time>2013-03-17T11:04:17Z</time>
      </trkpt>
      <trkpt lat="59.4527155" lon="17.840547">
        <ele>9.2</ele>
        <time>2013-03-17T11:04:21Z</time>
      </trkpt>
      <trkpt lat="59.4527238" lon="17.8406237">
        <ele>9.4</ele>
        <time>2013-03-17T11:04:22Z</time>
      </trkpt>
      <trkpt lat="59.4528527" lon="17.8408867">
        <ele>10.2</ele>
        <time>2013-03-17T11:04:27Z</time>
      </trkpt>
      <trkpt lat="59.452999" lon="17.8410802">
        <ele>11</ele>
        <time>2013-03-17T11:04:32Z</time>
      </trkpt>
      <trkpt lat="59.4530363" lon="17.8411349">
        <ele>11.2</ele>
        <time>2013-03-17T11:04:33Z</time>
      </trkpt>
      <trkpt lat="59.4531908" lon="17.8413318">
        <ele>12.2</ele>
        <time>2013-03-17T11:04:37Z</time>
      </trkpt>
      <trkpt lat="59.4533515" lon="17.8415513">
        <ele>14.4</ele>
        <time>2013-03-17T11:04:41Z</time>
      </trkpt>
      <trkpt lat="59.4535086" lon="17.8417887">
        <ele>17.4</ele>
        <time>2013-03-17T11:04:45Z</time>
      </trkpt>
      <trkpt lat="59.4535481" lon="17.841855">
        <ele>18.6</ele>
        <time>2013-03-17T11:04:46Z</time>
      </trkpt>
      <trkpt lat="59.4536579" lon="17.8420264">
        <ele>20.2</ele>
        <time>2013-03-17T11:04:49Z</time>
      </trkpt>
      <trkpt lat="59.4537718" lon="17.8422089">
        <ele>21.8</ele>
        <time>2013-03-17T11:04:52Z</time>
      </trkpt>
      <trkpt lat="59.4538091" lon="17.842258">
        <ele>22</ele>
        <time>2013-03-17T11:04:53Z</time>
      </trkpt>
      <trkpt lat="59.4539241" lon="17.8424306">
        <ele>23.8</ele>
        <time>2013-03-17T11:04:56Z</time>
      </trkpt>
      <trkpt lat="59.453965" lon="17.8424811">
        <ele>24.6</ele>
        <time>2013-03-17T11:04:57Z</time>
      </trkpt>
      <trkpt lat="59.4539998" lon="17.8425299">
        <ele>24.8</ele>
        <time>2013-03-17T11:04:58Z</time>
      </trkpt>
      <trkpt lat="59.4541118" lon="17.8426854">
        <ele>25.6</ele>
        <time>2013-03-17T11:05:01Z</time>
      </trkpt>
      <trkpt lat="59.454151" lon="17.842728">
        <ele>25.6</ele>
        <time>2013-03-17T11:05:02Z</time>
      </trkpt>
      <trkpt lat="59.454269" lon="17.8428787">
        <ele>27.2</ele>
        <time>2013-03-17T11:05:05Z</time>
      </trkpt>
      <trkpt lat="59.4544285" lon="17.8430784">
        <ele>28.6</ele>
        <time>2013-03-17T11:05:09Z</time>
      </trkpt>
      <trkpt lat="59.4545821" lon="17.8432743">
        <ele>29.2</ele>
        <time>2013-03-17T11:05:13Z</time>
      </trkpt>
      <trkpt lat="59.4547307" lon="17.8434809">
        <ele>30.4</ele>
        <time>2013-03-17T11:05:17Z</time>
      </trkpt>
      <trkpt lat="59.4548928" lon="17.8437314">
        <ele>32.4</ele>
        <time>2013-03-17T11:05:21Z</time>
      </trkpt>
      <trkpt lat="59.4549906" lon="17.8439531">
        <ele>34</ele>
        <time>2013-03-17T11:05:24Z</time>
      </trkpt>
      <trkpt lat="59.4550171" lon="17.8440338">
        <ele>35.2</ele>
        <time>2013-03-17T11:05:25Z</time>
      </trkpt>
      <trkpt lat="59.455059" lon="17.8441998">
        <ele>37.4</ele>
        <time>2013-03-17T11:05:27Z</time>
      </trkpt>
      <trkpt lat="59.4550669" lon="17.8443892">
        <ele>37.6</ele>
        <time>2013-03-17T11:05:29Z</time>
      </trkpt>
      <trkpt lat="59.4550654" lon="17.8446549">
        <ele>38</ele>
        <time>2013-03-17T11:05:32Z</time>
      </trkpt>
      <trkpt lat="59.4550534" lon="17.8447424">
        <ele>37.8</ele>
        <time>2013-03-17T11:05:33Z</time>
      </trkpt>
      <trkpt lat="59.4549436" lon="17.8451058">
        <ele>36.4</ele>
        <time>2013-03-17T11:05:38Z</time>
      </trkpt>
      <trkpt lat="59.4548833" lon="17.8452318">
        <ele>36.2</ele>
        <time>2013-03-17T11:05:40Z</time>
      </trkpt>
      <trkpt lat="59.4548035" lon="17.845333">
        <ele>34.8</ele>
        <time>2013-03-17T11:05:42Z</time>
      </trkpt>
      <trkpt lat="59.4547628" lon="17.8453748">
        <ele>34</ele>
        <time>2013-03-17T11:05:43Z</time>
      </trkpt>
      <trkpt lat="59.4546207" lon="17.8455467">
        <ele>32.6</ele>
        <time>2013-03-17T11:05:47Z</time>
      </trkpt>
      <trkpt lat="59.4544406" lon="17.8457606">
        <ele>30.4</ele>
        <time>2013-03-17T11:05:52Z</time>
      </trkpt>
      <trkpt lat="59.4543029" lon="17.845925">
        <ele>29.4</ele>
        <time>2013-03-17T11:05:56Z</time>
      </trkpt>
      <trkpt lat="59.4542636" lon="17.8459637">
        <ele>29</ele>
        <time>2013-03-17T11:05:57Z</time>
      </trkpt>
      <trkpt lat="59.4542252" lon="17.8460079">
        <ele>28.6</ele>
        <time>2013-03-17T11:05:58Z</time>
      </trkpt>
      <trkpt lat="59.4541194" lon="17.8461368">
        <ele>27</ele>
        <time>2013-03-17T11:06:01Z</time>
      </trkpt>
      <trkpt lat="59.4540815" lon="17.8461772">
        <ele>26.8</ele>
        <time>2013-03-17T11:06:02Z</time>
      </trkpt>
      <trkpt lat="59.454002" lon="17.8462627">
        <ele>26.2</ele>
        <time>2013-03-17T11:06:04Z</time>
      </trkpt>
      <trkpt lat="59.4538982" lon="17.8464109">
        <ele>25.2</ele>
        <time>2013-03-17T11:06:07Z</time>
      </trkpt>
      <trkpt lat="59.4538611" lon="17.8464612">
        <ele>24.8</ele>
        <time>2013-03-17T11:06:08Z</time>
      </trkpt>
      <trkpt lat="59.4537614" lon="17.8466135">
        <ele>23.6</ele>
        <time>2013-03-17T11:06:11Z</time>
      </trkpt>
      <trkpt lat="59.4537256" lon="17.8466555">
        <ele>23.6</ele>
        <time>2013-03-17T11:06:12Z</time>
      </trkpt>
      <trkpt lat="59.4536864" lon="17.8466963">
        <ele>23.8</ele>
        <time>2013-03-17T11:06:13Z</time>
      </trkpt>
      <trkpt lat="59.453549" lon="17.8468657">
        <ele>23.2</ele>
        <time>2013-03-17T11:06:17Z</time>
      </trkpt>
      <trkpt lat="59.4534793" lon="17.8469477">
        <ele>23</ele>
        <time>2013-03-17T11:06:19Z</time>
      </trkpt>
      <trkpt lat="59.4533817" lon="17.847074">
        <ele>22.6</ele>
        <time>2013-03-17T11:06:22Z</time>
      </trkpt>
      <trkpt lat="59.4532156" lon="17.8472787">
        <ele>22.2</ele>
        <time>2013-03-17T11:06:27Z</time>
      </trkpt>
      <trkpt lat="59.4530544" lon="17.8474934">
        <ele>21.4</ele>
        <time>2013-03-17T11:06:32Z</time>
      </trkpt>
      <trkpt lat="59.4529394" lon="17.8476224">
        <ele>21.6</ele>
        <time>2013-03-17T11:06:35Z</time>
      </trkpt>
      <trkpt lat="59.4528703" lon="17.8477109">
        <ele>22</ele>
        <time>2013-03-17T11:06:37Z</time>
      </trkpt>
      <trkpt lat="59.4528399" lon="17.8477603">
        <ele>22</ele>
        <time>2013-03-17T11:06:38Z</time>
      </trkpt>
      <trkpt lat="59.4527227" lon="17.8479467">
        <ele>23.6</ele>
        <time>2013-03-17T11:06:42Z</time>
      </trkpt>
      <trkpt lat="59.4525748" lon="17.848151">
        <ele>24.2</ele>
        <time>2013-03-17T11:06:47Z</time>
      </trkpt>
      <trkpt lat="59.4524212" lon="17.8483441">
        <ele>24.4</ele>
        <time>2013-03-17T11:06:52Z</time>
      </trkpt>
      <trkpt lat="59.4522539" lon="17.8485959">
        <ele>23.6</ele>
        <time>2013-03-17T11:06:58Z</time>
      </trkpt>
      <trkpt lat="59.4520674" lon="17.848799">
        <ele>24</ele>
        <time>2013-03-17T11:07:04Z</time>
      </trkpt>
      <trkpt lat="59.4518728" lon="17.8489537">
        <ele>23.2</ele>
        <time>2013-03-17T11:07:10Z</time>
      </trkpt>
      <trkpt lat="59.4516599" lon="17.8489949">
        <ele>21</ele>
        <time>2013-03-17T11:07:16Z</time>
      </trkpt>
      <trkpt lat="59.451462" lon="17.8490681">
        <ele>19.8</ele>
        <time>2013-03-17T11:07:22Z</time>
      </trkpt>
      <trkpt lat="59.4512854" lon="17.8491429">
        <ele>20</ele>
        <time>2013-03-17T11:07:27Z</time>
      </trkpt>
      <trkpt lat="59.451088" lon="17.8492371">
        <ele>19.2</ele>
        <time>2013-03-17T11:07:33Z</time>
      </trkpt>
      <trkpt lat="59.4509027" lon="17.8493314">
        <ele>19</ele>
        <time>2013-03-17T11:07:38Z</time>
      </trkpt>
      <trkpt lat="59.4507181" lon="17.8494345">
        <ele>18.6</ele>
        <time>2013-03-17T11:07:43Z</time>
      </trkpt>
      <trkpt lat="59.4505403" lon="17.849533">
        <ele>17.8</ele>
        <time>2013-03-17T11:07:48Z</time>
      </trkpt>
      <trkpt lat="59.4503535" lon="17.8495854">
        <ele>18.4</ele>
        <time>2013-03-17T11:07:53Z</time>
      </trkpt>
      <trkpt lat="59.4501598" lon="17.8496516">
        <ele>18.4</ele>
        <time>2013-03-17T11:07:58Z</time>
      </trkpt>
      <trkpt lat="59.4500192" lon="17.8496837">
        <ele>19</ele>
        <time>2013-03-17T11:08:01Z</time>
      </trkpt>
      <trkpt lat="59.4499806" lon="17.8497059">
        <ele>19</ele>
        <time>2013-03-17T11:08:02Z</time>
      </trkpt>
      <trkpt lat="59.4498037" lon="17.8498">
        <ele>20</ele>
        <time>2013-03-17T11:08:07Z</time>
      </trkpt>
      <trkpt lat="59.4497698" lon="17.8498219">
        <ele>20.2</ele>
        <time>2013-03-17T11:08:08Z</time>
      </trkpt>
      <trkpt lat="59.4496211" lon="17.8499292">
        <ele>23</ele>
        <time>2013-03-17T11:08:13Z</time>
      </trkpt>
      <trkpt lat="59.4495625" lon="17.8499821">
        <ele>24.4</ele>
        <time>2013-03-17T11:08:16Z</time>
      </trkpt>
      <trkpt lat="59.4495919" lon="17.8498754">
        <ele>25.2</ele>
        <time>2013-03-17T11:08:22Z</time>
      </trkpt>
      <trkpt lat="59.4496153" lon="17.849867">
        <ele>25.2</ele>
        <time>2013-03-17T11:08:23Z</time>
      </trkpt>
      <trkpt lat="59.4497846" lon="17.8496905">
        <ele>23.6</ele>
        <time>2013-03-17T11:08:29Z</time>
      </trkpt>
      <trkpt lat="59.4499883" lon="17.8495794">
        <ele>22.4</ele>
        <time>2013-03-17T11:08:35Z</time>
      </trkpt>
      <trkpt lat="59.4501902" lon="17.849506">
        <ele>21.6</ele>
        <time>2013-03-17T11:08:40Z</time>
      </trkpt>
      <trkpt lat="59.4503903" lon="17.8494473">
        <ele>24</ele>
        <time>2013-03-17T11:08:45Z</time>
      </trkpt>
      <trkpt lat="59.4505705" lon="17.8493689">
        <ele>22.6</ele>
        <time>2013-03-17T11:08:50Z</time>
      </trkpt>
      <trkpt lat="59.4507665" lon="17.8492622">
        <ele>22.6</ele>
        <time>2013-03-17T11:08:55Z</time>
      </trkpt>
      <trkpt lat="59.450957" lon="17.8491347">
        <ele>21.4</ele>
        <time>2013-03-17T11:09:00Z</time>
      </trkpt>
      <trkpt lat="59.4510387" lon="17.8490793">
        <ele>21.6</ele>
        <time>2013-03-17T11:09:02Z</time>
      </trkpt>
      <trkpt lat="59.4511629" lon="17.8490046">
        <ele>22.4</ele>
        <time>2013-03-17T11:09:05Z</time>
      </trkpt>
      <trkpt lat="59.4513201" lon="17.8488856">
        <ele>22.2</ele>
        <time>2013-03-17T11:09:09Z</time>
      </trkpt>
      <trkpt lat="59.4513565" lon="17.8488708">
        <ele>22.6</ele>
        <time>2013-03-17T11:09:10Z</time>
      </trkpt>
      <trkpt lat="59.4515018" lon="17.8487978">
        <ele>24</ele>
        <time>2013-03-17T11:09:14Z</time>
      </trkpt>
      <trkpt lat="59.4515417" lon="17.8487787">
        <ele>24.6</ele>
        <time>2013-03-17T11:09:15Z</time>
      </trkpt>
      <trkpt lat="59.4515817" lon="17.8487627">
        <ele>24.6</ele>
        <time>2013-03-17T11:09:16Z</time>
      </trkpt>
      <trkpt lat="59.4517385" lon="17.8487447">
        <ele>24.4</ele>
        <time>2013-03-17T11:09:20Z</time>
      </trkpt>
      <trkpt lat="59.4519422" lon="17.8486767">
        <ele>26</ele>
        <time>2013-03-17T11:09:26Z</time>
      </trkpt>
      <trkpt lat="59.4521102" lon="17.8485266">
        <ele>28.8</ele>
        <time>2013-03-17T11:09:32Z</time>
      </trkpt>
      <trkpt lat="59.4522905" lon="17.8482981">
        <ele>31</ele>
        <time>2013-03-17T11:09:38Z</time>
      </trkpt>
      <trkpt lat="59.4524509" lon="17.8481082">
        <ele>30.8</ele>
        <time>2013-03-17T11:09:44Z</time>
      </trkpt>
      <trkpt lat="59.4523451" lon="17.8481286">
        <ele>30.2</ele>
        <time>2013-03-17T11:09:51Z</time>
      </trkpt>
      <trkpt lat="59.4523279" lon="17.8481714">
        <ele>30.2</ele>
        <time>2013-03-17T11:09:52Z</time>
      </trkpt>
      <trkpt lat="59.4521888" lon="17.8484685">
        <ele>30.6</ele>
        <time>2013-03-17T11:09:59Z</time>
      </trkpt>
      <trkpt lat="59.4521127" lon="17.8486353">
        <ele>30.6</ele>
        <time>2013-03-17T11:10:03Z</time>
      </trkpt>
      <trkpt lat="59.45205" lon="17.8486871">
        <ele>30.4</ele>
        <time>2013-03-17T11:10:06Z</time>
      </trkpt>
      <trkpt lat="59.4519473" lon="17.8487692">
        <ele>31.6</ele>
        <time>2013-03-17T11:10:10Z</time>
      </trkpt>
      <trkpt lat="59.4518749" lon="17.8488056">
        <ele>31.8</ele>
        <time>2013-03-17T11:10:13Z</time>
      </trkpt>
      <trkpt lat="59.4517817" lon="17.8488548">
        <ele>32.2</ele>
        <time>2013-03-17T11:10:19Z</time>
      </trkpt>
      <trkpt lat="59.4516817" lon="17.848899">
        <ele>32.2</ele>
        <time>2013-03-17T11:10:24Z</time>
      </trkpt>
      <trkpt lat="59.4516559" lon="17.8489049">
        <ele>32</ele>
        <time>2013-03-17T11:10:25Z</time>
      </trkpt>
      <trkpt lat="59.4514777" lon="17.8490254">
        <ele>30.2</ele>
        <time>2013-03-17T11:10:30Z</time>
      </trkpt>
      <trkpt lat="59.4512995" lon="17.8491609">
        <ele>28.6</ele>
        <time>2013-03-17T11:10:34Z</time>
      </trkpt>
      <trkpt lat="59.4512108" lon="17.8492366">
        <ele>27.8</ele>
        <time>2013-03-17T11:10:36Z</time>
      </trkpt>
      <trkpt lat="59.4511154" lon="17.8492951">
        <ele>27.4</ele>
        <time>2013-03-17T11:10:38Z</time>
      </trkpt>
      <trkpt lat="59.4509842" lon="17.8493599">
        <ele>25.4</ele>
        <time>2013-03-17T11:10:41Z</time>
      </trkpt>
      <trkpt lat="59.4508993" lon="17.8494019">
        <ele>24.8</ele>
        <time>2013-03-17T11:10:43Z</time>
      </trkpt>
      <trkpt lat="59.4507952" lon="17.8494497">
        <ele>24.4</ele>
        <time>2013-03-17T11:10:45Z</time>
      </trkpt>
      <trkpt lat="59.4507072" lon="17.8495003">
        <ele>23</ele>
        <time>2013-03-17T11:10:47Z</time>
      </trkpt>
      <trkpt lat="59.4505219" lon="17.8496027">
        <ele>21.8</ele>
        <time>2013-03-17T11:10:51Z</time>
      </trkpt>
      <trkpt lat="59.4503859" lon="17.8496719">
        <ele>20.2</ele>
        <time>2013-03-17T11:10:54Z</time>
      </trkpt>
      <trkpt lat="59.4503359" lon="17.8496945">
        <ele>19.8</ele>
        <time>2013-03-17T11:10:55Z</time>
      </trkpt>
      <trkpt lat="59.4502048" lon="17.8497558">
        <ele>19.8</ele>
        <time>2013-03-17T11:10:58Z</time>
      </trkpt>
      <trkpt lat="59.4501567" lon="17.849763">
        <ele>20</ele>
        <time>2013-03-17T11:10:59Z</time>
      </trkpt>
      <trkpt lat="59.4499702" lon="17.8498133">
        <ele>19.8</ele>
        <time>2013-03-17T11:11:03Z</time>
      </trkpt>
      <trkpt lat="59.4497905" lon="17.8498635">
        <ele>20.2</ele>
        <time>2013-03-17T11:11:07Z</time>
      </trkpt>
      <trkpt lat="59.4497493" lon="17.8498781">
        <ele>20.6</ele>
        <time>2013-03-17T11:11:08Z</time>
      </trkpt>
      <trkpt lat="59.4496038" lon="17.8499732">
        <ele>21.8</ele>
        <time>2013-03-17T11:11:12Z</time>
      </trkpt>
      <trkpt lat="59.4495784" lon="17.8500019">
        <ele>22</ele>
        <time>2013-03-17T11:11:13Z</time>
      </trkpt>
      <trkpt lat="59.4497302" lon="17.8502333">
        <ele>36.4</ele>
        <time>2013-03-17T11:15:57Z</time>
      </trkpt>
      <trkpt lat="59.4499116" lon="17.8503291">
        <ele>34.4</ele>
        <time>2013-03-17T11:16:04Z</time>
      </trkpt>
      <trkpt lat="59.4500941" lon="17.8504161">
        <ele>32.8</ele>
        <time>2013-03-17T11:16:08Z</time>
      </trkpt>
      <trkpt lat="59.4502481" lon="17.8504839">
        <ele>32.6</ele>
        <time>2013-03-17T11:16:11Z</time>
      </trkpt>
      <trkpt lat="59.4502959" lon="17.8504924">
        <ele>32</ele>
        <time>2013-03-17T11:16:12Z</time>
      </trkpt>
      <trkpt lat="59.4504985" lon="17.8505449">
        <ele>32</ele>
        <time>2013-03-17T11:16:16Z</time>
      </trkpt>
      <trkpt lat="59.4507032" lon="17.8505431">
        <ele>30.4</ele>
        <time>2013-03-17T11:16:20Z</time>
      </trkpt>
      <trkpt lat="59.4509249" lon="17.850538">
        <ele>29.2</ele>
        <time>2013-03-17T11:16:24Z</time>
      </trkpt>
      <trkpt lat="59.4511342" lon="17.8505209">
        <ele>27.8</ele>
        <time>2013-03-17T11:16:28Z</time>
      </trkpt>
      <trkpt lat="59.4511839" lon="17.8505167">
        <ele>27.6</ele>
        <time>2013-03-17T11:16:29Z</time>
      </trkpt>
      <trkpt lat="59.4512812" lon="17.8505053">
        <ele>27.2</ele>
        <time>2013-03-17T11:16:31Z</time>
      </trkpt>
      <trkpt lat="59.4513292" lon="17.8504939">
        <ele>26.8</ele>
        <time>2013-03-17T11:16:32Z</time>
      </trkpt>
      <trkpt lat="59.4515254" lon="17.8504637">
        <ele>26</ele>
        <time>2013-03-17T11:16:36Z</time>
      </trkpt>
      <trkpt lat="59.4517271" lon="17.8504405">
        <ele>24.6</ele>
        <time>2013-03-17T11:16:40Z</time>
      </trkpt>
      <trkpt lat="59.4519402" lon="17.8504156">
        <ele>23.6</ele>
        <time>2013-03-17T11:16:44Z</time>
      </trkpt>
      <trkpt lat="59.4520413" lon="17.8504084">
        <ele>23.2</ele>
        <time>2013-03-17T11:16:46Z</time>
      </trkpt>
      <trkpt lat="59.4521395" lon="17.8504513">
        <ele>22.8</ele>
        <time>2013-03-17T11:16:48Z</time>
      </trkpt>
      <trkpt lat="59.452324" lon="17.8506047">
        <ele>24</ele>
        <time>2013-03-17T11:16:52Z</time>
      </trkpt>
      <trkpt lat="59.4525004" lon="17.8508015">
        <ele>25.4</ele>
        <time>2013-03-17T11:16:56Z</time>
      </trkpt>
      <trkpt lat="59.4526705" lon="17.8509682">
        <ele>25.6</ele>
        <time>2013-03-17T11:17:00Z</time>
      </trkpt>
      <trkpt lat="59.4528103" lon="17.8510735">
        <ele>26.2</ele>
        <time>2013-03-17T11:17:03Z</time>
      </trkpt>
      <trkpt lat="59.4528608" lon="17.8510999">
        <ele>26.8</ele>
        <time>2013-03-17T11:17:04Z</time>
      </trkpt>
      <trkpt lat="59.4529078" lon="17.851117">
        <ele>27.2</ele>
        <time>2013-03-17T11:17:05Z</time>
      </trkpt>
      <trkpt lat="59.4530394" lon="17.8510544">
        <ele>27.8</ele>
        <time>2013-03-17T11:17:08Z</time>
      </trkpt>
      <trkpt lat="59.4531818" lon="17.8508188">
        <ele>27</ele>
        <time>2013-03-17T11:17:12Z</time>
      </trkpt>
      <trkpt lat="59.4532937" lon="17.8506409">
        <ele>26.4</ele>
        <time>2013-03-17T11:17:15Z</time>
      </trkpt>
      <trkpt lat="59.4533321" lon="17.8505809">
        <ele>26.4</ele>
        <time>2013-03-17T11:17:16Z</time>
      </trkpt>
      <trkpt lat="59.453372" lon="17.850513">
        <ele>26.2</ele>
        <time>2013-03-17T11:17:17Z</time>
      </trkpt>
      <trkpt lat="59.4534845" lon="17.8503082">
        <ele>26.2</ele>
        <time>2013-03-17T11:17:20Z</time>
      </trkpt>
      <trkpt lat="59.4536466" lon="17.8500612">
        <ele>24.2</ele>
        <time>2013-03-17T11:17:24Z</time>
      </trkpt>
      <trkpt lat="59.4537351" lon="17.8499339">
        <ele>23.8</ele>
        <time>2013-03-17T11:17:26Z</time>
      </trkpt>
      <trkpt lat="59.4538112" lon="17.8498106">
        <ele>22.8</ele>
        <time>2013-03-17T11:17:28Z</time>
      </trkpt>
      <trkpt lat="59.4539681" lon="17.8495963">
        <ele>21.4</ele>
        <time>2013-03-17T11:17:32Z</time>
      </trkpt>
      <trkpt lat="59.4540862" lon="17.8494133">
        <ele>20.4</ele>
        <time>2013-03-17T11:17:35Z</time>
      </trkpt>
      <trkpt lat="59.4541235" lon="17.8493377">
        <ele>20.2</ele>
        <time>2013-03-17T11:17:36Z</time>
      </trkpt>
      <trkpt lat="59.4541624" lon="17.8492694">
        <ele>19.4</ele>
        <time>2013-03-17T11:17:37Z</time>
      </trkpt>
      <trkpt lat="59.4542873" lon="17.8490963">
        <ele>19</ele>
        <time>2013-03-17T11:17:40Z</time>
      </trkpt>
      <trkpt lat="59.4544666" lon="17.8489061">
        <ele>18.2</ele>
        <time>2013-03-17T11:17:44Z</time>
      </trkpt>
      <trkpt lat="59.4546509" lon="17.8487347">
        <ele>16.6</ele>
        <time>2013-03-17T11:17:48Z</time>
      </trkpt>
      <trkpt lat="59.4547922" lon="17.8486118">
        <ele>16</ele>
        <time>2013-03-17T11:17:51Z</time>
      </trkpt>
      <trkpt lat="59.4548421" lon="17.8485858">
        <ele>15.8</ele>
        <time>2013-03-17T11:17:52Z</time>
      </trkpt>
      <trkpt lat="59.4549871" lon="17.8485193">
        <ele>16</ele>
        <time>2013-03-17T11:17:55Z</time>
      </trkpt>
      <trkpt lat="59.4550389" lon="17.8485287">
        <ele>16.2</ele>
        <time>2013-03-17T11:17:56Z</time>
      </trkpt>
      <trkpt lat="59.4551871" lon="17.8485752">
        <ele>16</ele>
        <time>2013-03-17T11:17:59Z</time>
      </trkpt>
      <trkpt lat="59.4552343" lon="17.8486">
        <ele>16.2</ele>
        <time>2013-03-17T11:18:00Z</time>
      </trkpt>
      <trkpt lat="59.4553207" lon="17.8486528">
        <ele>17</ele>
        <time>2013-03-17T11:18:02Z</time>
      </trkpt>
      <trkpt lat="59.4554039" lon="17.8487041">
        <ele>18</ele>
        <time>2013-03-17T11:18:04Z</time>
      </trkpt>
      <trkpt lat="59.4554467" lon="17.8487369">
        <ele>18.8</ele>
        <time>2013-03-17T11:18:05Z</time>
      </trkpt>
      <trkpt lat="59.455599" lon="17.8488139">
        <ele>22.8</ele>
        <time>2013-03-17T11:18:09Z</time>
      </trkpt>
      <trkpt lat="59.4556387" lon="17.8488363">
        <ele>23.4</ele>
        <time>2013-03-17T11:18:10Z</time>
      </trkpt>
      <trkpt lat="59.455847" lon="17.8489689">
        <ele>26.4</ele>
        <time>2013-03-17T11:18:15Z</time>
      </trkpt>
      <trkpt lat="59.4560526" lon="17.8490746">
        <ele>27</ele>
        <time>2013-03-17T11:18:20Z</time>
      </trkpt>
      <trkpt lat="59.4561396" lon="17.8491128">
        <ele>27.4</ele>
        <time>2013-03-17T11:18:22Z</time>
      </trkpt>
      <trkpt lat="59.4562261" lon="17.8491261">
        <ele>26.4</ele>
        <time>2013-03-17T11:18:24Z</time>
      </trkpt>
      <trkpt lat="59.456266" lon="17.8491186">
        <ele>26.4</ele>
        <time>2013-03-17T11:18:25Z</time>
      </trkpt>
      <trkpt lat="59.4564604" lon="17.8490184">
        <ele>25.2</ele>
        <time>2013-03-17T11:18:30Z</time>
      </trkpt>
      <trkpt lat="59.4566344" lon="17.8489123">
        <ele>24.8</ele>
        <time>2013-03-17T11:18:34Z</time>
      </trkpt>
      <trkpt lat="59.4568209" lon="17.8488052">
        <ele>24.6</ele>
        <time>2013-03-17T11:18:38Z</time>
      </trkpt>
      <trkpt lat="59.4569934" lon="17.8487048">
        <ele>24.8</ele>
        <time>2013-03-17T11:18:42Z</time>
      </trkpt>
      <trkpt lat="59.4570822" lon="17.8486653">
        <ele>24.8</ele>
        <time>2013-03-17T11:18:44Z</time>
      </trkpt>
      <trkpt lat="59.457172" lon="17.8486171">
        <ele>24.8</ele>
        <time>2013-03-17T11:18:46Z</time>
      </trkpt>
      <trkpt lat="59.4572174" lon="17.8485919">
        <ele>25</ele>
        <time>2013-03-17T11:18:47Z</time>
      </trkpt>
      <trkpt lat="59.4573532" lon="17.8485012">
        <ele>24.8</ele>
        <time>2013-03-17T11:18:50Z</time>
      </trkpt>
      <trkpt lat="59.4574057" lon="17.8484864">
        <ele>25</ele>
        <time>2013-03-17T11:18:51Z</time>
      </trkpt>
      <trkpt lat="59.4574554" lon="17.8484643">
        <ele>25</ele>
        <time>2013-03-17T11:18:52Z</time>
      </trkpt>
      <trkpt lat="59.4575482" lon="17.8484211">
        <ele>24.4</ele>
        <time>2013-03-17T11:18:54Z</time>
      </trkpt>
      <trkpt lat="59.4576954" lon="17.8483685">
        <ele>23.6</ele>
        <time>2013-03-17T11:18:57Z</time>
      </trkpt>
      <trkpt lat="59.4577459" lon="17.8483546">
        <ele>24</ele>
        <time>2013-03-17T11:18:58Z</time>
      </trkpt>
      <trkpt lat="59.4578884" lon="17.8483027">
        <ele>24.2</ele>
        <time>2013-03-17T11:19:01Z</time>
      </trkpt>
      <trkpt lat="59.4579324" lon="17.8482836">
        <ele>24.4</ele>
        <time>2013-03-17T11:19:02Z</time>
      </trkpt>
      <trkpt lat="59.4581154" lon="17.8482178">
        <ele>24.2</ele>
        <time>2013-03-17T11:19:06Z</time>
      </trkpt>
      <trkpt lat="59.4583084" lon="17.8481499">
        <ele>24.6</ele>
        <time>2013-03-17T11:19:10Z</time>
      </trkpt>
      <trkpt lat="59.4583599" lon="17.8481432">
        <ele>24.4</ele>
        <time>2013-03-17T11:19:11Z</time>
      </trkpt>
      <trkpt lat="59.4585101" lon="17.8480959">
        <ele>24.4</ele>
        <time>2013-03-17T11:19:14Z</time>
      </trkpt>
      <trkpt lat="59.4586017" lon="17.8480481">
        <ele>24.6</ele>
        <time>2013-03-17T11:19:16Z</time>
      </trkpt>
      <trkpt lat="59.4586915" lon="17.8480098">
        <ele>23.8</ele>
        <time>2013-03-17T11:19:18Z</time>
      </trkpt>
      <trkpt lat="59.4587831" lon="17.8479571">
        <ele>23.4</ele>
        <time>2013-03-17T11:19:20Z</time>
      </trkpt>
      <trkpt lat="59.4588726" lon="17.8479256">
        <ele>23.4</ele>
        <time>2013-03-17T11:19:22Z</time>
      </trkpt>
      <trkpt lat="59.4589517" lon="17.847885">
        <ele>24.2</ele>
        <time>2013-03-17T11:19:24Z</time>
      </trkpt>
      <trkpt lat="59.4590664" lon="17.8478487">
        <ele>25.6</ele>
        <time>2013-03-17T11:19:27Z</time>
      </trkpt>
      <trkpt lat="59.4591373" lon="17.8478179">
        <ele>26.4</ele>
        <time>2013-03-17T11:19:29Z</time>
      </trkpt>
      <trkpt lat="59.4592617" lon="17.8477655">
        <ele>27.2</ele>
        <time>2013-03-17T11:19:32Z</time>
      </trkpt>
      <trkpt lat="59.4593021" lon="17.847741">
        <ele>27.2</ele>
        <time>2013-03-17T11:19:33Z</time>
      </trkpt>
      <trkpt lat="59.4593435" lon="17.8477239">
        <ele>27.2</ele>
        <time>2013-03-17T11:19:34Z</time>
      </trkpt>
      <trkpt lat="59.4594741" lon="17.8476736">
        <ele>26.8</ele>
        <time>2013-03-17T11:19:37Z</time>
      </trkpt>
      <trkpt lat="59.4595195" lon="17.8476587">
        <ele>26.8</ele>
        <time>2013-03-17T11:19:38Z</time>
      </trkpt>
      <trkpt lat="59.4596927" lon="17.847584">
        <ele>26.4</ele>
        <time>2013-03-17T11:19:42Z</time>
      </trkpt>
      <trkpt lat="59.4598761" lon="17.8475617">
        <ele>25.8</ele>
        <time>2013-03-17T11:19:46Z</time>
      </trkpt>
      <trkpt lat="59.4599722" lon="17.8475612">
        <ele>25.6</ele>
        <time>2013-03-17T11:19:48Z</time>
      </trkpt>
      <trkpt lat="59.4600631" lon="17.8475478">
        <ele>25.2</ele>
        <time>2013-03-17T11:19:50Z</time>
      </trkpt>
      <trkpt lat="59.4601631" lon="17.8475441">
        <ele>24.8</ele>
        <time>2013-03-17T11:19:52Z</time>
      </trkpt>
      <trkpt lat="59.4602613" lon="17.8475205">
        <ele>23.8</ele>
        <time>2013-03-17T11:19:54Z</time>
      </trkpt>
      <trkpt lat="59.4603117" lon="17.8475122">
        <ele>24.2</ele>
        <time>2013-03-17T11:19:55Z</time>
      </trkpt>
      <trkpt lat="59.4604567" lon="17.8475206">
        <ele>23.6</ele>
        <time>2013-03-17T11:19:58Z</time>
      </trkpt>
      <trkpt lat="59.4605558" lon="17.8475458">
        <ele>23.2</ele>
        <time>2013-03-17T11:20:00Z</time>
      </trkpt>
      <trkpt lat="59.4606477" lon="17.8475584">
        <ele>22</ele>
        <time>2013-03-17T11:20:02Z</time>
      </trkpt>
      <trkpt lat="59.4607523" lon="17.8475481">
        <ele>22</ele>
        <time>2013-03-17T11:20:04Z</time>
      </trkpt>
      <trkpt lat="59.4608532" lon="17.8475069">
        <ele>21.6</ele>
        <time>2013-03-17T11:20:06Z</time>
      </trkpt>
      <trkpt lat="59.4610385" lon="17.8473722">
        <ele>20.8</ele>
        <time>2013-03-17T11:20:10Z</time>
      </trkpt>
      <trkpt lat="59.4611132" lon="17.847243">
        <ele>20.6</ele>
        <time>2013-03-17T11:20:12Z</time>
      </trkpt>
      <trkpt lat="59.4611756" lon="17.8471133">
        <ele>21</ele>
        <time>2013-03-17T11:20:14Z</time>
      </trkpt>
      <trkpt lat="59.4612344" lon="17.8469443">
        <ele>21.2</ele>
        <time>2013-03-17T11:20:16Z</time>
      </trkpt>
      <trkpt lat="59.4612869" lon="17.846776">
        <ele>21.6</ele>
        <time>2013-03-17T11:20:18Z</time>
      </trkpt>
      <trkpt lat="59.4613677" lon="17.8465207">
        <ele>21.6</ele>
        <time>2013-03-17T11:20:21Z</time>
      </trkpt>
      <trkpt lat="59.4613938" lon="17.8464338">
        <ele>21.8</ele>
        <time>2013-03-17T11:20:22Z</time>
      </trkpt>
      <trkpt lat="59.461498" lon="17.8460929">
        <ele>22.6</ele>
        <time>2013-03-17T11:20:26Z</time>
      </trkpt>
      <trkpt lat="59.4615528" lon="17.8459344">
        <ele>22.6</ele>
        <time>2013-03-17T11:20:28Z</time>
      </trkpt>
      <trkpt lat="59.4616114" lon="17.8457768">
        <ele>22.8</ele>
        <time>2013-03-17T11:20:30Z</time>
      </trkpt>
      <trkpt lat="59.4616662" lon="17.8456233">
        <ele>23.4</ele>
        <time>2013-03-17T11:20:32Z</time>
      </trkpt>
      <trkpt lat="59.4616884" lon="17.845542">
        <ele>23.6</ele>
        <time>2013-03-17T11:20:33Z</time>
      </trkpt>
      <trkpt lat="59.4617076" lon="17.8454542">
        <ele>24</ele>
        <time>2013-03-17T11:20:34Z</time>
      </trkpt>
      <trkpt lat="59.4617239" lon="17.8452818">
        <ele>24.2</ele>
        <time>2013-03-17T11:20:36Z</time>
      </trkpt>
      <trkpt lat="59.4617093" lon="17.845101">
        <ele>26</ele>
        <time>2013-03-17T11:20:38Z</time>
      </trkpt>
      <trkpt lat="59.4615849" lon="17.8448987">
        <ele>26.8</ele>
        <time>2013-03-17T11:20:42Z</time>
      </trkpt>
      <trkpt lat="59.4615423" lon="17.8448709">
        <ele>27.4</ele>
        <time>2013-03-17T11:20:43Z</time>
      </trkpt>
      <trkpt lat="59.4614207" lon="17.8447662">
        <ele>28.6</ele>
        <time>2013-03-17T11:20:46Z</time>
      </trkpt>
      <trkpt lat="59.4613398" lon="17.8446756">
        <ele>29.6</ele>
        <time>2013-03-17T11:20:48Z</time>
      </trkpt>
      <trkpt lat="59.4612619" lon="17.8446">
        <ele>29.6</ele>
        <time>2013-03-17T11:20:50Z</time>
      </trkpt>
      <trkpt lat="59.4611311" lon="17.8445493">
        <ele>30.2</ele>
        <time>2013-03-17T11:20:53Z</time>
      </trkpt>
      <trkpt lat="59.4610375" lon="17.8445233">
        <ele>30.6</ele>
        <time>2013-03-17T11:20:55Z</time>
      </trkpt>
      <trkpt lat="59.4609525" lon="17.8444985">
        <ele>30.6</ele>
        <time>2013-03-17T11:20:57Z</time>
      </trkpt>
      <trkpt lat="59.4608243" lon="17.8444824">
        <ele>31.2</ele>
        <time>2013-03-17T11:21:00Z</time>
      </trkpt>
      <trkpt lat="59.4607444" lon="17.8444875">
        <ele>30.6</ele>
        <time>2013-03-17T11:21:02Z</time>
      </trkpt>
      <trkpt lat="59.4605816" lon="17.8444984">
        <ele>29.6</ele>
        <time>2013-03-17T11:21:06Z</time>
      </trkpt>
      <trkpt lat="59.4605439" lon="17.8445087">
        <ele>29.2</ele>
        <time>2013-03-17T11:21:07Z</time>
      </trkpt>
      <trkpt lat="59.460349" lon="17.8445738">
        <ele>28.8</ele>
        <time>2013-03-17T11:21:12Z</time>
      </trkpt>
      <trkpt lat="59.4601655" lon="17.8446616">
        <ele>28.2</ele>
        <time>2013-03-17T11:21:17Z</time>
      </trkpt>
      <trkpt lat="59.4599691" lon="17.8447559">
        <ele>27.2</ele>
        <time>2013-03-17T11:21:22Z</time>
      </trkpt>
      <trkpt lat="59.4597712" lon="17.8448319">
        <ele>26</ele>
        <time>2013-03-17T11:21:27Z</time>
      </trkpt>
      <trkpt lat="59.45973" lon="17.8448411">
        <ele>25.8</ele>
        <time>2013-03-17T11:21:28Z</time>
      </trkpt>
      <trkpt lat="59.4596482" lon="17.8448516">
        <ele>25.6</ele>
        <time>2013-03-17T11:21:30Z</time>
      </trkpt>
      <trkpt lat="59.4595715" lon="17.8448684">
        <ele>25.4</ele>
        <time>2013-03-17T11:21:32Z</time>
      </trkpt>
      <trkpt lat="59.4593607" lon="17.8449289">
        <ele>25.4</ele>
        <time>2013-03-17T11:21:37Z</time>
      </trkpt>
      <trkpt lat="59.4592799" lon="17.844942">
        <ele>25</ele>
        <time>2013-03-17T11:21:39Z</time>
      </trkpt>
      <trkpt lat="59.4591981" lon="17.8449578">
        <ele>24.6</ele>
        <time>2013-03-17T11:21:41Z</time>
      </trkpt>
      <trkpt lat="59.459157" lon="17.8449608">
        <ele>24.6</ele>
        <time>2013-03-17T11:21:42Z</time>
      </trkpt>
      <trkpt lat="59.458995" lon="17.84499">
        <ele>24</ele>
        <time>2013-03-17T11:21:46Z</time>
      </trkpt>
      <trkpt lat="59.4589566" lon="17.8449911">
        <ele>23.6</ele>
        <time>2013-03-17T11:21:47Z</time>
      </trkpt>
      <trkpt lat="59.4587562" lon="17.8450067">
        <ele>22.4</ele>
        <time>2013-03-17T11:21:52Z</time>
      </trkpt>
      <trkpt lat="59.4585579" lon="17.8450246">
        <ele>22.8</ele>
        <time>2013-03-17T11:21:57Z</time>
      </trkpt>
      <trkpt lat="59.4583676" lon="17.8450754">
        <ele>21.6</ele>
        <time>2013-03-17T11:22:02Z</time>
      </trkpt>
      <trkpt lat="59.4581536" lon="17.8451077">
        <ele>21.8</ele>
        <time>2013-03-17T11:22:08Z</time>
      </trkpt>
      <trkpt lat="59.4579452" lon="17.8451439">
        <ele>22</ele>
        <time>2013-03-17T11:22:14Z</time>
      </trkpt>
      <trkpt lat="59.4577609" lon="17.8451887">
        <ele>22.8</ele>
        <time>2013-03-17T11:22:19Z</time>
      </trkpt>
      <trkpt lat="59.4575806" lon="17.8451972">
        <ele>23.2</ele>
        <time>2013-03-17T11:22:24Z</time>
      </trkpt>
      <trkpt lat="59.4573908" lon="17.8451936">
        <ele>24</ele>
        <time>2013-03-17T11:22:29Z</time>
      </trkpt>
      <trkpt lat="59.457175" lon="17.8451511">
        <ele>23.2</ele>
        <time>2013-03-17T11:22:35Z</time>
      </trkpt>
      <trkpt lat="59.4569753" lon="17.8451491">
        <ele>22.2</ele>
        <time>2013-03-17T11:22:40Z</time>
      </trkpt>
      <trkpt lat="59.4567696" lon="17.8451448">
        <ele>22</ele>
        <time>2013-03-17T11:22:45Z</time>
      </trkpt>
      <trkpt lat="59.4566492" lon="17.8451033">
        <ele>22.4</ele>
        <time>2013-03-17T11:22:48Z</time>
      </trkpt>
      <trkpt lat="59.4565772" lon="17.845051">
        <ele>23</ele>
        <time>2013-03-17T11:22:50Z</time>
      </trkpt>
      <trkpt lat="59.4564111" lon="17.8448331">
        <ele>24</ele>
        <time>2013-03-17T11:22:55Z</time>
      </trkpt>
      <trkpt lat="59.4563257" lon="17.8445682">
        <ele>24.2</ele>
        <time>2013-03-17T11:22:59Z</time>
      </trkpt>
      <trkpt lat="59.4563084" lon="17.8444953">
        <ele>24.4</ele>
        <time>2013-03-17T11:23:00Z</time>
      </trkpt>
      <trkpt lat="59.4562978" lon="17.8444151">
        <ele>24.2</ele>
        <time>2013-03-17T11:23:01Z</time>
      </trkpt>
      <trkpt lat="59.4562703" lon="17.8441545">
        <ele>24.8</ele>
        <time>2013-03-17T11:23:04Z</time>
      </trkpt>
      <trkpt lat="59.4562609" lon="17.8440669">
        <ele>25</ele>
        <time>2013-03-17T11:23:05Z</time>
      </trkpt>
      <trkpt lat="59.4562249" lon="17.8436613">
        <ele>26.4</ele>
        <time>2013-03-17T11:23:10Z</time>
      </trkpt>
      <trkpt lat="59.4562006" lon="17.8434099">
        <ele>26.8</ele>
        <time>2013-03-17T11:23:13Z</time>
      </trkpt>
      <trkpt lat="59.4561801" lon="17.8432369">
        <ele>27</ele>
        <time>2013-03-17T11:23:15Z</time>
      </trkpt>
      <trkpt lat="59.4561488" lon="17.8429626">
        <ele>27</ele>
        <time>2013-03-17T11:23:18Z</time>
      </trkpt>
      <trkpt lat="59.4561364" lon="17.8428777">
        <ele>27.2</ele>
        <time>2013-03-17T11:23:19Z</time>
      </trkpt>
      <trkpt lat="59.45612" lon="17.8427903">
        <ele>27.6</ele>
        <time>2013-03-17T11:23:20Z</time>
      </trkpt>
      <trkpt lat="59.456077" lon="17.842529">
        <ele>27.8</ele>
        <time>2013-03-17T11:23:23Z</time>
      </trkpt>
      <trkpt lat="59.4559946" lon="17.8421978">
        <ele>28</ele>
        <time>2013-03-17T11:23:27Z</time>
      </trkpt>
      <trkpt lat="59.4559476" lon="17.8420439">
        <ele>28</ele>
        <time>2013-03-17T11:23:29Z</time>
      </trkpt>
      <trkpt lat="59.4558913" lon="17.8419191">
        <ele>28.2</ele>
        <time>2013-03-17T11:23:31Z</time>
      </trkpt>
      <trkpt lat="59.4558658" lon="17.8418555">
        <ele>28</ele>
        <time>2013-03-17T11:23:32Z</time>
      </trkpt>
      <trkpt lat="59.4557791" lon="17.8416862">
        <ele>28.6</ele>
        <time>2013-03-17T11:23:35Z</time>
      </trkpt>
      <trkpt lat="59.4557512" lon="17.8416292">
        <ele>28.4</ele>
        <time>2013-03-17T11:23:36Z</time>
      </trkpt>
      <trkpt lat="59.4557232" lon="17.841563">
        <ele>28.4</ele>
        <time>2013-03-17T11:23:37Z</time>
      </trkpt>
      <trkpt lat="59.4556937" lon="17.841502">
        <ele>28.6</ele>
        <time>2013-03-17T11:23:38Z</time>
      </trkpt>
      <trkpt lat="59.4555686" lon="17.8412951">
        <ele>27.6</ele>
        <time>2013-03-17T11:23:42Z</time>
      </trkpt>
      <trkpt lat="59.4555357" lon="17.8412468">
        <ele>27</ele>
        <time>2013-03-17T11:23:43Z</time>
      </trkpt>
      <trkpt lat="59.4554424" lon="17.8410871">
        <ele>25.2</ele>
        <time>2013-03-17T11:23:46Z</time>
      </trkpt>
      <trkpt lat="59.4554145" lon="17.8410395">
        <ele>24.8</ele>
        <time>2013-03-17T11:23:47Z</time>
      </trkpt>
      <trkpt lat="59.4553337" lon="17.8408831">
        <ele>23.6</ele>
        <time>2013-03-17T11:23:50Z</time>
      </trkpt>
      <trkpt lat="59.4552786" lon="17.8407795">
        <ele>23.2</ele>
        <time>2013-03-17T11:23:52Z</time>
      </trkpt>
      <trkpt lat="59.4551252" lon="17.8405352">
        <ele>22</ele>
        <time>2013-03-17T11:23:57Z</time>
      </trkpt>
      <trkpt lat="59.4549633" lon="17.8403324">
        <ele>22</ele>
        <time>2013-03-17T11:24:02Z</time>
      </trkpt>
      <trkpt lat="59.4547794" lon="17.8401554">
        <ele>21.6</ele>
        <time>2013-03-17T11:24:07Z</time>
      </trkpt>
      <trkpt lat="59.4546306" lon="17.8400305">
        <ele>22.2</ele>
        <time>2013-03-17T11:24:11Z</time>
      </trkpt>
      <trkpt lat="59.4545937" lon="17.840003">
        <ele>22.2</ele>
        <time>2013-03-17T11:24:12Z</time>
      </trkpt>
      <trkpt lat="59.4545231" lon="17.8399477">
        <ele>22.2</ele>
        <time>2013-03-17T11:24:14Z</time>
      </trkpt>
      <trkpt lat="59.4544076" lon="17.8398855">
        <ele>21.8</ele>
        <time>2013-03-17T11:24:17Z</time>
      </trkpt>
      <trkpt lat="59.4542106" lon="17.8397985">
        <ele>22.8</ele>
        <time>2013-03-17T11:24:22Z</time>
      </trkpt>
      <trkpt lat="59.454049" lon="17.8397846">
        <ele>24</ele>
        <time>2013-03-17T11:24:26Z</time>
      </trkpt>
      <trkpt lat="59.4540086" lon="17.839781">
        <ele>24.4</ele>
        <time>2013-03-17T11:24:27Z</time>
      </trkpt>
      <trkpt lat="59.4538132" lon="17.8397683">
        <ele>26.6</ele>
        <time>2013-03-17T11:24:32Z</time>
      </trkpt>
      <trkpt lat="59.4536201" lon="17.839769">
        <ele>27.4</ele>
        <time>2013-03-17T11:24:37Z</time>
      </trkpt>
      <trkpt lat="59.4534196" lon="17.8398159">
        <ele>28.4</ele>
        <time>2013-03-17T11:24:42Z</time>
      </trkpt>
      <trkpt lat="59.4532326" lon="17.8398928">
        <ele>29</ele>
        <time>2013-03-17T11:24:47Z</time>
      </trkpt>
      <trkpt lat="59.4530503" lon="17.8400662">
        <ele>29.8</ele>
        <time>2013-03-17T11:24:52Z</time>
      </trkpt>
      <trkpt lat="59.4528911" lon="17.8403035">
        <ele>29.2</ele>
        <time>2013-03-17T11:24:57Z</time>
      </trkpt>
      <trkpt lat="59.4528" lon="17.8404837">
        <ele>28.6</ele>
        <time>2013-03-17T11:25:00Z</time>
      </trkpt>
      <trkpt lat="59.4527579" lon="17.8406195">
        <ele>27.4</ele>
        <time>2013-03-17T11:25:02Z</time>
      </trkpt>
      <trkpt lat="59.4527377" lon="17.8407556">
        <ele>26.2</ele>
        <time>2013-03-17T11:25:04Z</time>
      </trkpt>
      <trkpt lat="59.4528182" lon="17.8409113">
        <ele>25.2</ele>
        <time>2013-03-17T11:25:07Z</time>
      </trkpt>
      <trkpt lat="59.4529285" lon="17.8410531">
        <ele>24.8</ele>
        <time>2013-03-17T11:25:10Z</time>
      </trkpt>
      <trkpt lat="59.4529979" lon="17.8411521">
        <ele>24</ele>
        <time>2013-03-17T11:25:12Z</time>
      </trkpt>
      <trkpt lat="59.4531455" lon="17.8413508">
        <ele>23.8</ele>
        <time>2013-03-17T11:25:16Z</time>
      </trkpt>
      <trkpt lat="59.4531798" lon="17.8414105">
        <ele>23.8</ele>
        <time>2013-03-17T11:25:17Z</time>
      </trkpt>
      <trkpt lat="59.4532155" lon="17.8414681">
        <ele>24</ele>
        <time>2013-03-17T11:25:18Z</time>
      </trkpt>
      <trkpt lat="59.4533512" lon="17.8416706">
        <ele>24.4</ele>
        <time>2013-03-17T11:25:22Z</time>
      </trkpt>
      <trkpt lat="59.4535231" lon="17.8419198">
        <ele>23.6</ele>
        <time>2013-03-17T11:25:27Z</time>
      </trkpt>
      <trkpt lat="59.453666" lon="17.8421431">
        <ele>23.8</ele>
        <time>2013-03-17T11:25:31Z</time>
      </trkpt>
      <trkpt lat="59.4538043" lon="17.842377">
        <ele>24.4</ele>
        <time>2013-03-17T11:25:35Z</time>
      </trkpt>
      <trkpt lat="59.4539843" lon="17.8426272">
        <ele>23.4</ele>
        <time>2013-03-17T11:25:40Z</time>
      </trkpt>
      <trkpt lat="59.454164" lon="17.8428549">
        <ele>22.4</ele>
        <time>2013-03-17T11:25:45Z</time>
      </trkpt>
      <trkpt lat="59.4542033" lon="17.8429029">
        <ele>22.4</ele>
        <time>2013-03-17T11:25:46Z</time>
      </trkpt>
      <trkpt lat="59.4543464" lon="17.8430827">
        <ele>22.2</ele>
        <time>2013-03-17T11:25:50Z</time>
      </trkpt>
      <trkpt lat="59.4544987" lon="17.8432686">
        <ele>22.6</ele>
        <time>2013-03-17T11:25:54Z</time>
      </trkpt>
      <trkpt lat="59.4546556" lon="17.8434691">
        <ele>23.6</ele>
        <time>2013-03-17T11:25:58Z</time>
      </trkpt>
      <trkpt lat="59.454696" lon="17.843529">
        <ele>23.8</ele>
        <time>2013-03-17T11:25:59Z</time>
      </trkpt>
      <trkpt lat="59.4548037" lon="17.8436944">
        <ele>24.2</ele>
        <time>2013-03-17T11:26:02Z</time>
      </trkpt>
      <trkpt lat="59.4549265" lon="17.8439777">
        <ele>25.8</ele>
        <time>2013-03-17T11:26:06Z</time>
      </trkpt>
      <trkpt lat="59.4549985" lon="17.84433">
        <ele>27.8</ele>
        <time>2013-03-17T11:26:10Z</time>
      </trkpt>
      <trkpt lat="59.4550073" lon="17.8445114">
        <ele>28.8</ele>
        <time>2013-03-17T11:26:12Z</time>
      </trkpt>
      <trkpt lat="59.4550038" lon="17.8445966">
        <ele>28.6</ele>
        <time>2013-03-17T11:26:13Z</time>
      </trkpt>
      <trkpt lat="59.4549918" lon="17.8446847">
        <ele>28.4</ele>
        <time>2013-03-17T11:26:14Z</time>
      </trkpt>
      <trkpt lat="59.4548994" lon="17.8450034">
        <ele>29</ele>
        <time>2013-03-17T11:26:18Z</time>
      </trkpt>
      <trkpt lat="59.4547499" lon="17.8452422">
        <ele>28.6</ele>
        <time>2013-03-17T11:26:22Z</time>
      </trkpt>
      <trkpt lat="59.4546474" lon="17.8453768">
        <ele>27</ele>
        <time>2013-03-17T11:26:25Z</time>
      </trkpt>
      <trkpt lat="59.4545778" lon="17.8454659">
        <ele>27.2</ele>
        <time>2013-03-17T11:26:27Z</time>
      </trkpt>
      <trkpt lat="59.4544239" lon="17.845665">
        <ele>27</ele>
        <time>2013-03-17T11:26:32Z</time>
      </trkpt>
      <trkpt lat="59.4542707" lon="17.8458503">
        <ele>26.2</ele>
        <time>2013-03-17T11:26:37Z</time>
      </trkpt>
      <trkpt lat="59.4541034" lon="17.8460626">
        <ele>26.6</ele>
        <time>2013-03-17T11:26:43Z</time>
      </trkpt>
      <trkpt lat="59.4539573" lon="17.8462934">
        <ele>27.2</ele>
        <time>2013-03-17T11:26:49Z</time>
      </trkpt>
      <trkpt lat="59.4538002" lon="17.8464895">
        <ele>27</ele>
        <time>2013-03-17T11:26:54Z</time>
      </trkpt>
      <trkpt lat="59.4536328" lon="17.846664">
        <ele>28</ele>
        <time>2013-03-17T11:26:59Z</time>
      </trkpt>
      <trkpt lat="59.4534579" lon="17.8468761">
        <ele>27.8</ele>
        <time>2013-03-17T11:27:04Z</time>
      </trkpt>
      <trkpt lat="59.4533019" lon="17.8470816">
        <ele>26.8</ele>
        <time>2013-03-17T11:27:09Z</time>
      </trkpt>
      <trkpt lat="59.4531371" lon="17.8472801">
        <ele>26.8</ele>
        <time>2013-03-17T11:27:14Z</time>
      </trkpt>
      <trkpt lat="59.4529688" lon="17.8475235">
        <ele>26.8</ele>
        <time>2013-03-17T11:27:19Z</time>
      </trkpt>
      <trkpt lat="59.4528129" lon="17.8477356">
        <ele>27</ele>
        <time>2013-03-17T11:27:24Z</time>
      </trkpt>
      <trkpt lat="59.452659" lon="17.8479343">
        <ele>27.6</ele>
        <time>2013-03-17T11:27:29Z</time>
      </trkpt>
      <trkpt lat="59.4525085" lon="17.8481297">
        <ele>27.2</ele>
        <time>2013-03-17T11:27:34Z</time>
      </trkpt>
      <trkpt lat="59.452353" lon="17.8483132">
        <ele>26.2</ele>
        <time>2013-03-17T11:27:39Z</time>
      </trkpt>
      <trkpt lat="59.4521976" lon="17.8484949">
        <ele>26</ele>
        <time>2013-03-17T11:27:44Z</time>
      </trkpt>
      <trkpt lat="59.4520334" lon="17.848671">
        <ele>25.8</ele>
        <time>2013-03-17T11:27:49Z</time>
      </trkpt>
      <trkpt lat="59.4518604" lon="17.8487956">
        <ele>26.2</ele>
        <time>2013-03-17T11:27:54Z</time>
      </trkpt>
      <trkpt lat="59.4516782" lon="17.848912">
        <ele>27.4</ele>
        <time>2013-03-17T11:27:59Z</time>
      </trkpt>
      <trkpt lat="59.451486" lon="17.8489888">
        <ele>29</ele>
        <time>2013-03-17T11:28:04Z</time>
      </trkpt>
      <trkpt lat="59.451295" lon="17.8491171">
        <ele>30.4</ele>
        <time>2013-03-17T11:28:09Z</time>
      </trkpt>
      <trkpt lat="59.4511108" lon="17.8492507">
        <ele>31.2</ele>
        <time>2013-03-17T11:28:14Z</time>
      </trkpt>
      <trkpt lat="59.4509223" lon="17.8493535">
        <ele>31.6</ele>
        <time>2013-03-17T11:28:19Z</time>
      </trkpt>
      <trkpt lat="59.4507301" lon="17.8494546">
        <ele>31.6</ele>
        <time>2013-03-17T11:28:24Z</time>
      </trkpt>
      <trkpt lat="59.4505419" lon="17.849577">
        <ele>30.8</ele>
        <time>2013-03-17T11:28:29Z</time>
      </trkpt>
      <trkpt lat="59.4503546" lon="17.8496586">
        <ele>30.4</ele>
        <time>2013-03-17T11:28:34Z</time>
      </trkpt>
      <trkpt lat="59.4501546" lon="17.8497344">
        <ele>31</ele>
        <time>2013-03-17T11:28:39Z</time>
      </trkpt>
      <trkpt lat="59.449947" lon="17.8497986">
        <ele>31.4</ele>
        <time>2013-03-17T11:28:44Z</time>
      </trkpt>
      <trkpt lat="59.4497421" lon="17.8498837">
        <ele>31.8</ele>
        <time>2013-03-17T11:28:49Z</time>
      </trkpt>
      <trkpt lat="59.4496713" lon="17.8499474">
        <ele>31.4</ele>
        <time>2013-03-17T11:28:51Z</time>
      </trkpt>
      <trkpt lat="59.449568" lon="17.8500302">
        <ele>31.4</ele>
        <time>2013-03-17T11:28:54Z</time>
      </trkpt>
      <trkpt lat="59.449509" lon="17.8501323">
        <ele>33.2</ele>
        <time>2013-03-17T11:30:15Z</time>
      </trkpt>
      <trkpt lat="59.4496502" lon="17.8501565">
        <ele>32.4</ele>
        <time>2013-03-17T11:30:20Z</time>
      </trkpt>
      <trkpt lat="59.4497692" lon="17.8502101">
        <ele>31.4</ele>
        <time>2013-03-17T11:30:23Z</time>
      </trkpt>
      <trkpt lat="59.4498547" lon="17.8502658">
        <ele>30</ele>
        <time>2013-03-17T11:30:25Z</time>
      </trkpt>
      <trkpt lat="59.4500685" lon="17.8504012">
        <ele>28.4</ele>
        <time>2013-03-17T11:30:30Z</time>
      </trkpt>
      <trkpt lat="59.4502566" lon="17.8505233">
        <ele>27.8</ele>
        <time>2013-03-17T11:30:34Z</time>
      </trkpt>
      <trkpt lat="59.4504426" lon="17.8506195">
        <ele>27.2</ele>
        <time>2013-03-17T11:30:38Z</time>
      </trkpt>
      <trkpt lat="59.4505779" lon="17.8506415">
        <ele>26</ele>
        <time>2013-03-17T11:30:41Z</time>
      </trkpt>
      <trkpt lat="59.4506253" lon="17.8506312">
        <ele>25.4</ele>
        <time>2013-03-17T11:30:42Z</time>
      </trkpt>
      <trkpt lat="59.4507166" lon="17.8506105">
        <ele>24.6</ele>
        <time>2013-03-17T11:30:44Z</time>
      </trkpt>
      <trkpt lat="59.4508086" lon="17.8506088">
        <ele>23.8</ele>
        <time>2013-03-17T11:30:46Z</time>
      </trkpt>
      <trkpt lat="59.4510021" lon="17.8506069">
        <ele>22.8</ele>
        <time>2013-03-17T11:30:50Z</time>
      </trkpt>
      <trkpt lat="59.4511469" lon="17.8506041">
        <ele>22.4</ele>
        <time>2013-03-17T11:30:53Z</time>
      </trkpt>
      <trkpt lat="59.4511973" lon="17.850602">
        <ele>22</ele>
        <time>2013-03-17T11:30:54Z</time>
      </trkpt>
      <trkpt lat="59.4513025" lon="17.8506002">
        <ele>21.8</ele>
        <time>2013-03-17T11:30:56Z</time>
      </trkpt>
      <trkpt lat="59.4514024" lon="17.8505843">
        <ele>22.2</ele>
        <time>2013-03-17T11:30:58Z</time>
      </trkpt>
      <trkpt lat="59.4515939" lon="17.8505243">
        <ele>22</ele>
        <time>2013-03-17T11:31:02Z</time>
      </trkpt>
      <trkpt lat="59.4517416" lon="17.8504781">
        <ele>21</ele>
        <time>2013-03-17T11:31:05Z</time>
      </trkpt>
      <trkpt lat="59.4517913" lon="17.8504652">
        <ele>21.2</ele>
        <time>2013-03-17T11:31:06Z</time>
      </trkpt>
      <trkpt lat="59.45194" lon="17.8504399">
        <ele>20.8</ele>
        <time>2013-03-17T11:31:09Z</time>
      </trkpt>
      <trkpt lat="59.4519943" lon="17.8504467">
        <ele>21</ele>
        <time>2013-03-17T11:31:10Z</time>
      </trkpt>
      <trkpt lat="59.4521503" lon="17.8505027">
        <ele>21</ele>
        <time>2013-03-17T11:31:13Z</time>
      </trkpt>
      <trkpt lat="59.4521991" lon="17.8505457">
        <ele>21</ele>
        <time>2013-03-17T11:31:14Z</time>
      </trkpt>
      <trkpt lat="59.4523873" lon="17.8507191">
        <ele>22.2</ele>
        <time>2013-03-17T11:31:18Z</time>
      </trkpt>
      <trkpt lat="59.4524334" lon="17.8507625">
        <ele>22.6</ele>
        <time>2013-03-17T11:31:19Z</time>
      </trkpt>
      <trkpt lat="59.4525719" lon="17.8508879">
        <ele>22.8</ele>
        <time>2013-03-17T11:31:22Z</time>
      </trkpt>
      <trkpt lat="59.4527638" lon="17.8510378">
        <ele>21.8</ele>
        <time>2013-03-17T11:31:26Z</time>
      </trkpt>
      <trkpt lat="59.4529648" lon="17.8510931">
        <ele>21</ele>
        <time>2013-03-17T11:31:30Z</time>
      </trkpt>
      <trkpt lat="59.4530115" lon="17.8510847">
        <ele>20.6</ele>
        <time>2013-03-17T11:31:31Z</time>
      </trkpt>
      <trkpt lat="59.45313" lon="17.8509549">
        <ele>19.8</ele>
        <time>2013-03-17T11:31:34Z</time>
      </trkpt>
      <trkpt lat="59.4532498" lon="17.8507772">
        <ele>18</ele>
        <time>2013-03-17T11:31:37Z</time>
      </trkpt>
      <trkpt lat="59.453286" lon="17.8507145">
        <ele>17.6</ele>
        <time>2013-03-17T11:31:38Z</time>
      </trkpt>
      <trkpt lat="59.4533607" lon="17.8505866">
        <ele>16.2</ele>
        <time>2013-03-17T11:31:40Z</time>
      </trkpt>
      <trkpt lat="59.4534326" lon="17.850454">
        <ele>14.6</ele>
        <time>2013-03-17T11:31:42Z</time>
      </trkpt>
      <trkpt lat="59.4535525" lon="17.8502483">
        <ele>12.4</ele>
        <time>2013-03-17T11:31:45Z</time>
      </trkpt>
      <trkpt lat="59.4535945" lon="17.8501867">
        <ele>11.8</ele>
        <time>2013-03-17T11:31:46Z</time>
      </trkpt>
      <trkpt lat="59.4536719" lon="17.8500694">
        <ele>11.2</ele>
        <time>2013-03-17T11:31:48Z</time>
      </trkpt>
      <trkpt lat="59.4537579" lon="17.8499482">
        <ele>10.4</ele>
        <time>2013-03-17T11:31:50Z</time>
      </trkpt>
      <trkpt lat="59.453932" lon="17.8496718">
        <ele>8.8</ele>
        <time>2013-03-17T11:31:54Z</time>
      </trkpt>
      <trkpt lat="59.4541091" lon="17.8494088">
        <ele>9.6</ele>
        <time>2013-03-17T11:31:58Z</time>
      </trkpt>
      <trkpt lat="59.4542765" lon="17.8491651">
        <ele>9.8</ele>
        <time>2013-03-17T11:32:02Z</time>
      </trkpt>
      <trkpt lat="59.4544668" lon="17.8489512">
        <ele>9.4</ele>
        <time>2013-03-17T11:32:06Z</time>
      </trkpt>
      <trkpt lat="59.4546531" lon="17.8487844">
        <ele>9.4</ele>
        <time>2013-03-17T11:32:10Z</time>
      </trkpt>
      <trkpt lat="59.4547012" lon="17.8487388">
        <ele>10</ele>
        <time>2013-03-17T11:32:11Z</time>
      </trkpt>
      <trkpt lat="59.4548315" lon="17.848618">
        <ele>11.6</ele>
        <time>2013-03-17T11:32:14Z</time>
      </trkpt>
      <trkpt lat="59.4550109" lon="17.8485555">
        <ele>12.4</ele>
        <time>2013-03-17T11:32:18Z</time>
      </trkpt>
      <trkpt lat="59.4551397" lon="17.8485866">
        <ele>13</ele>
        <time>2013-03-17T11:32:21Z</time>
      </trkpt>
      <trkpt lat="59.4552155" lon="17.8486239">
        <ele>13.6</ele>
        <time>2013-03-17T11:32:23Z</time>
      </trkpt>
      <trkpt lat="59.455373" lon="17.8487462">
        <ele>14.6</ele>
        <time>2013-03-17T11:32:27Z</time>
      </trkpt>
      <trkpt lat="59.455414" lon="17.848771">
        <ele>14.8</ele>
        <time>2013-03-17T11:32:28Z</time>
      </trkpt>
      <trkpt lat="59.4554948" lon="17.8488081">
        <ele>16.6</ele>
        <time>2013-03-17T11:32:30Z</time>
      </trkpt>
      <trkpt lat="59.455609" lon="17.848843">
        <ele>18.8</ele>
        <time>2013-03-17T11:32:33Z</time>
      </trkpt>
      <trkpt lat="59.4557505" lon="17.8489144">
        <ele>20</ele>
        <time>2013-03-17T11:32:36Z</time>
      </trkpt>
      <trkpt lat="59.4558055" lon="17.8489337">
        <ele>20.8</ele>
        <time>2013-03-17T11:32:37Z</time>
      </trkpt>
      <trkpt lat="59.4559986" lon="17.8490185">
        <ele>21.4</ele>
        <time>2013-03-17T11:32:41Z</time>
      </trkpt>
      <trkpt lat="59.45612" lon="17.8490517">
        <ele>21.6</ele>
        <time>2013-03-17T11:32:44Z</time>
      </trkpt>
      <trkpt lat="59.4562049" lon="17.8490383">
        <ele>22.6</ele>
        <time>2013-03-17T11:32:46Z</time>
      </trkpt>
      <trkpt lat="59.4562496" lon="17.8490344">
        <ele>22.8</ele>
        <time>2013-03-17T11:32:47Z</time>
      </trkpt>
      <trkpt lat="59.4564018" lon="17.8489978">
        <ele>22.8</ele>
        <time>2013-03-17T11:32:50Z</time>
      </trkpt>
      <trkpt lat="59.4564524" lon="17.8489751">
        <ele>22.2</ele>
        <time>2013-03-17T11:32:51Z</time>
      </trkpt>
      <trkpt lat="59.4566032" lon="17.8488993">
        <ele>20.8</ele>
        <time>2013-03-17T11:32:54Z</time>
      </trkpt>
      <trkpt lat="59.4566515" lon="17.8488791">
        <ele>20.4</ele>
        <time>2013-03-17T11:32:55Z</time>
      </trkpt>
      <trkpt lat="59.4568057" lon="17.8488026">
        <ele>19.2</ele>
        <time>2013-03-17T11:32:58Z</time>
      </trkpt>
      <trkpt lat="59.4570146" lon="17.8487232">
        <ele>16.6</ele>
        <time>2013-03-17T11:33:02Z</time>
      </trkpt>
      <trkpt lat="59.4572364" lon="17.8486208">
        <ele>15.6</ele>
        <time>2013-03-17T11:33:06Z</time>
      </trkpt>
      <trkpt lat="59.4574445" lon="17.8485316">
        <ele>15.6</ele>
        <time>2013-03-17T11:33:10Z</time>
      </trkpt>
      <trkpt lat="59.4576534" lon="17.8484585">
        <ele>15.2</ele>
        <time>2013-03-17T11:33:14Z</time>
      </trkpt>
      <trkpt lat="59.4577573" lon="17.8484301">
        <ele>14.8</ele>
        <time>2013-03-17T11:33:16Z</time>
      </trkpt>
      <trkpt lat="59.4578652" lon="17.8484128">
        <ele>14.8</ele>
        <time>2013-03-17T11:33:18Z</time>
      </trkpt>
      <trkpt lat="59.4579791" lon="17.8483808">
        <ele>14.6</ele>
        <time>2013-03-17T11:33:20Z</time>
      </trkpt>
      <trkpt lat="59.4580766" lon="17.8483519">
        <ele>14</ele>
        <time>2013-03-17T11:33:22Z</time>
      </trkpt>
      <trkpt lat="59.4582702" lon="17.8482659">
        <ele>14</ele>
        <time>2013-03-17T11:33:26Z</time>
      </trkpt>
      <trkpt lat="59.4584697" lon="17.8481788">
        <ele>13.4</ele>
        <time>2013-03-17T11:33:30Z</time>
      </trkpt>
      <trkpt lat="59.4586672" lon="17.8480585">
        <ele>14</ele>
        <time>2013-03-17T11:33:34Z</time>
      </trkpt>
      <trkpt lat="59.4588825" lon="17.847981">
        <ele>13.4</ele>
        <time>2013-03-17T11:33:38Z</time>
      </trkpt>
      <trkpt lat="59.4591061" lon="17.8478723">
        <ele>15.2</ele>
        <time>2013-03-17T11:33:42Z</time>
      </trkpt>
      <trkpt lat="59.4593119" lon="17.8478003">
        <ele>15.8</ele>
        <time>2013-03-17T11:33:46Z</time>
      </trkpt>
      <trkpt lat="59.4593581" lon="17.8477835">
        <ele>15.8</ele>
        <time>2013-03-17T11:33:47Z</time>
      </trkpt>
      <trkpt lat="59.4595" lon="17.8477141">
        <ele>15.4</ele>
        <time>2013-03-17T11:33:50Z</time>
      </trkpt>
      <trkpt lat="59.4595533" lon="17.847694">
        <ele>15.2</ele>
        <time>2013-03-17T11:33:51Z</time>
      </trkpt>
      <trkpt lat="59.4597092" lon="17.8476748">
        <ele>15.6</ele>
        <time>2013-03-17T11:33:54Z</time>
      </trkpt>
      <trkpt lat="59.459924" lon="17.8476717">
        <ele>16.6</ele>
        <time>2013-03-17T11:33:58Z</time>
      </trkpt>
      <trkpt lat="59.4600385" lon="17.8476661">
        <ele>16.4</ele>
        <time>2013-03-17T11:34:00Z</time>
      </trkpt>
      <trkpt lat="59.4601447" lon="17.8476417">
        <ele>16.4</ele>
        <time>2013-03-17T11:34:02Z</time>
      </trkpt>
      <trkpt lat="59.4603509" lon="17.8475847">
        <ele>17.4</ele>
        <time>2013-03-17T11:34:06Z</time>
      </trkpt>
      <trkpt lat="59.4605659" lon="17.8476045">
        <ele>16.8</ele>
        <time>2013-03-17T11:34:10Z</time>
      </trkpt>
      <trkpt lat="59.4607715" lon="17.8475846">
        <ele>15.4</ele>
        <time>2013-03-17T11:34:14Z</time>
      </trkpt>
      <trkpt lat="59.4609851" lon="17.8475156">
        <ele>15</ele>
        <time>2013-03-17T11:34:18Z</time>
      </trkpt>
      <trkpt lat="59.4611551" lon="17.8473196">
        <ele>15.8</ele>
        <time>2013-03-17T11:34:22Z</time>
      </trkpt>
      <trkpt lat="59.461209" lon="17.847158">
        <ele>16</ele>
        <time>2013-03-17T11:34:24Z</time>
      </trkpt>
      <trkpt lat="59.4612571" lon="17.8469994">
        <ele>15</ele>
        <time>2013-03-17T11:34:26Z</time>
      </trkpt>
      <trkpt lat="59.4613014" lon="17.8468502">
        <ele>14.8</ele>
        <time>2013-03-17T11:34:28Z</time>
      </trkpt>
      <trkpt lat="59.4613442" lon="17.846687">
        <ele>14.2</ele>
        <time>2013-03-17T11:34:30Z</time>
      </trkpt>
      <trkpt lat="59.4614416" lon="17.8463742">
        <ele>13</ele>
        <time>2013-03-17T11:34:34Z</time>
      </trkpt>
      <trkpt lat="59.4615436" lon="17.8460602">
        <ele>11.6</ele>
        <time>2013-03-17T11:34:38Z</time>
      </trkpt>
      <trkpt lat="59.461644" lon="17.8457509">
        <ele>10.6</ele>
        <time>2013-03-17T11:34:42Z</time>
      </trkpt>
      <trkpt lat="59.4617192" lon="17.8455308">
        <ele>9</ele>
        <time>2013-03-17T11:34:45Z</time>
      </trkpt>
      <trkpt lat="59.4617342" lon="17.8454444">
        <ele>9.4</ele>
        <time>2013-03-17T11:34:46Z</time>
      </trkpt>
      <trkpt lat="59.4616865" lon="17.8451118">
        <ele>12.4</ele>
        <time>2013-03-17T11:34:50Z</time>
      </trkpt>
      <trkpt lat="59.4615214" lon="17.8448253">
        <ele>19</ele>
        <time>2013-03-17T11:34:55Z</time>
      </trkpt>
      <trkpt lat="59.4614867" lon="17.8447718">
        <ele>20.2</ele>
        <time>2013-03-17T11:34:56Z</time>
      </trkpt>
      <trkpt lat="59.4614171" lon="17.8446714">
        <ele>21.6</ele>
        <time>2013-03-17T11:34:58Z</time>
      </trkpt>
      <trkpt lat="59.4613488" lon="17.8445891">
        <ele>22.6</ele>
        <time>2013-03-17T11:35:00Z</time>
      </trkpt>
      <trkpt lat="59.461313" lon="17.8445536">
        <ele>23.2</ele>
        <time>2013-03-17T11:35:01Z</time>
      </trkpt>
      <trkpt lat="59.4611579" lon="17.8444918">
        <ele>25</ele>
        <time>2013-03-17T11:35:05Z</time>
      </trkpt>
      <trkpt lat="59.4609566" lon="17.8444402">
        <ele>26.8</ele>
        <time>2013-03-17T11:35:10Z</time>
      </trkpt>
      <trkpt lat="59.4607702" lon="17.8444229">
        <ele>27.6</ele>
        <time>2013-03-17T11:35:15Z</time>
      </trkpt>
      <trkpt lat="59.4605714" lon="17.8444548">
        <ele>27.8</ele>
        <time>2013-03-17T11:35:20Z</time>
      </trkpt>
      <trkpt lat="59.4603744" lon="17.8445316">
        <ele>28.8</ele>
        <time>2013-03-17T11:35:25Z</time>
      </trkpt>
      <trkpt lat="59.4601728" lon="17.8446324">
        <ele>29.4</ele>
        <time>2013-03-17T11:35:30Z</time>
      </trkpt>
      <trkpt lat="59.4600535" lon="17.8446873">
        <ele>30</ele>
        <time>2013-03-17T11:35:33Z</time>
      </trkpt>
      <trkpt lat="59.4599781" lon="17.8447168">
        <ele>30.2</ele>
        <time>2013-03-17T11:35:35Z</time>
      </trkpt>
      <trkpt lat="59.4599375" lon="17.844732">
        <ele>30.2</ele>
        <time>2013-03-17T11:35:36Z</time>
      </trkpt>
      <trkpt lat="59.4597863" lon="17.8448321">
        <ele>30.4</ele>
        <time>2013-03-17T11:35:40Z</time>
      </trkpt>
      <trkpt lat="59.4596574" lon="17.8448709">
        <ele>31.2</ele>
        <time>2013-03-17T11:35:43Z</time>
      </trkpt>
      <trkpt lat="59.4596108" lon="17.8448869">
        <ele>31.4</ele>
        <time>2013-03-17T11:35:44Z</time>
      </trkpt>
      <trkpt lat="59.4595583" lon="17.8449004">
        <ele>31.2</ele>
        <time>2013-03-17T11:35:45Z</time>
      </trkpt>
      <trkpt lat="59.459413" lon="17.8449367">
        <ele>30.8</ele>
        <time>2013-03-17T11:35:48Z</time>
      </trkpt>
      <trkpt lat="59.4591934" lon="17.8449999">
        <ele>28.8</ele>
        <time>2013-03-17T11:35:53Z</time>
      </trkpt>
      <trkpt lat="59.4589824" lon="17.8450372">
        <ele>28.4</ele>
        <time>2013-03-17T11:35:58Z</time>
      </trkpt>
      <trkpt lat="59.4587684" lon="17.8450641">
        <ele>28.8</ele>
        <time>2013-03-17T11:36:03Z</time>
      </trkpt>
      <trkpt lat="59.4586882" lon="17.8450807">
        <ele>28.8</ele>
        <time>2013-03-17T11:36:05Z</time>
      </trkpt>
      <trkpt lat="59.4585723" lon="17.8451023">
        <ele>28.8</ele>
        <time>2013-03-17T11:36:08Z</time>
      </trkpt>
      <trkpt lat="59.4583561" lon="17.8451545">
        <ele>30</ele>
        <time>2013-03-17T11:36:13Z</time>
      </trkpt>
      <trkpt lat="59.4581413" lon="17.8452106">
        <ele>31.4</ele>
        <time>2013-03-17T11:36:18Z</time>
      </trkpt>
      <trkpt lat="59.4580618" lon="17.8452283">
        <ele>32</ele>
        <time>2013-03-17T11:36:20Z</time>
      </trkpt>
      <trkpt lat="59.4579414" lon="17.8452458">
        <ele>32.6</ele>
        <time>2013-03-17T11:36:23Z</time>
      </trkpt>
      <trkpt lat="59.4577446" lon="17.8452735">
        <ele>33.2</ele>
        <time>2013-03-17T11:36:28Z</time>
      </trkpt>
      <trkpt lat="59.4575554" lon="17.8452899">
        <ele>33.2</ele>
        <time>2013-03-17T11:36:33Z</time>
      </trkpt>
      <trkpt lat="59.4573384" lon="17.8452903">
        <ele>33</ele>
        <time>2013-03-17T11:36:39Z</time>
      </trkpt>
      <trkpt lat="59.4571488" lon="17.8452992">
        <ele>32.6</ele>
        <time>2013-03-17T11:36:44Z</time>
      </trkpt>
      <trkpt lat="59.4569498" lon="17.8452931">
        <ele>32.4</ele>
        <time>2013-03-17T11:36:49Z</time>
      </trkpt>
      <trkpt lat="59.4567482" lon="17.8452682">
        <ele>31.6</ele>
        <time>2013-03-17T11:36:54Z</time>
      </trkpt>
      <trkpt lat="59.4567069" lon="17.8452515">
        <ele>31.8</ele>
        <time>2013-03-17T11:36:55Z</time>
      </trkpt>
      <trkpt lat="59.4565655" lon="17.845144">
        <ele>32.4</ele>
        <time>2013-03-17T11:36:59Z</time>
      </trkpt>
      <trkpt lat="59.4563829" lon="17.844943">
        <ele>32.6</ele>
        <time>2013-03-17T11:37:04Z</time>
      </trkpt>
      <trkpt lat="59.4562942" lon="17.8445922">
        <ele>30.4</ele>
        <time>2013-03-17T11:37:09Z</time>
      </trkpt>
      <trkpt lat="59.4562806" lon="17.8444179">
        <ele>29</ele>
        <time>2013-03-17T11:37:11Z</time>
      </trkpt>
      <trkpt lat="59.4562669" lon="17.8441685">
        <ele>27</ele>
        <time>2013-03-17T11:37:14Z</time>
      </trkpt>
      <trkpt lat="59.4562422" lon="17.8438113">
        <ele>24.2</ele>
        <time>2013-03-17T11:37:18Z</time>
      </trkpt>
      <trkpt lat="59.4562298" lon="17.8436266">
        <ele>23.8</ele>
        <time>2013-03-17T11:37:20Z</time>
      </trkpt>
      <trkpt lat="59.4562113" lon="17.8434522">
        <ele>23.2</ele>
        <time>2013-03-17T11:37:22Z</time>
      </trkpt>
      <trkpt lat="59.4561925" lon="17.8432713">
        <ele>23.2</ele>
        <time>2013-03-17T11:37:24Z</time>
      </trkpt>
      <trkpt lat="59.4561733" lon="17.8430993">
        <ele>23.6</ele>
        <time>2013-03-17T11:37:26Z</time>
      </trkpt>
      <trkpt lat="59.4561604" lon="17.8429148">
        <ele>23.2</ele>
        <time>2013-03-17T11:37:28Z</time>
      </trkpt>
      <trkpt lat="59.456137" lon="17.8427304">
        <ele>23.2</ele>
        <time>2013-03-17T11:37:30Z</time>
      </trkpt>
      <trkpt lat="59.4561142" lon="17.8425412">
        <ele>23.2</ele>
        <time>2013-03-17T11:37:32Z</time>
      </trkpt>
      <trkpt lat="59.4560814" lon="17.8423637">
        <ele>23.2</ele>
        <time>2013-03-17T11:37:34Z</time>
      </trkpt>
      <trkpt lat="59.4560175" lon="17.842105">
        <ele>23.4</ele>
        <time>2013-03-17T11:37:37Z</time>
      </trkpt>
      <trkpt lat="59.4559925" lon="17.8420275">
        <ele>23.8</ele>
        <time>2013-03-17T11:37:38Z</time>
      </trkpt>
      <trkpt lat="59.4559396" lon="17.8418855">
        <ele>23.2</ele>
        <time>2013-03-17T11:37:40Z</time>
      </trkpt>
      <trkpt lat="59.4558561" lon="17.8416866">
        <ele>23</ele>
        <time>2013-03-17T11:37:43Z</time>
      </trkpt>
      <trkpt lat="59.455702" lon="17.8414257">
        <ele>23</ele>
        <time>2013-03-17T11:37:48Z</time>
      </trkpt>
      <trkpt lat="59.4556425" lon="17.8413254">
        <ele>22.6</ele>
        <time>2013-03-17T11:37:50Z</time>
      </trkpt>
      <trkpt lat="59.4555848" lon="17.8412209">
        <ele>22</ele>
        <time>2013-03-17T11:37:52Z</time>
      </trkpt>
      <trkpt lat="59.4555554" lon="17.8411785">
        <ele>21.4</ele>
        <time>2013-03-17T11:37:53Z</time>
      </trkpt>
      <trkpt lat="59.4554046" lon="17.8409501">
        <ele>22.4</ele>
        <time>2013-03-17T11:37:58Z</time>
      </trkpt>
      <trkpt lat="59.4552586" lon="17.8407086">
        <ele>24</ele>
        <time>2013-03-17T11:38:03Z</time>
      </trkpt>
      <trkpt lat="59.4550994" lon="17.8404735">
        <ele>25.4</ele>
        <time>2013-03-17T11:38:08Z</time>
      </trkpt>
      <trkpt lat="59.4549335" lon="17.8402311">
        <ele>25.8</ele>
        <time>2013-03-17T11:38:13Z</time>
      </trkpt>
      <trkpt lat="59.4547701" lon="17.8400782">
        <ele>25.8</ele>
        <time>2013-03-17T11:38:17Z</time>
      </trkpt>
      <trkpt lat="59.4546348" lon="17.8400066">
        <ele>26.2</ele>
        <time>2013-03-17T11:38:20Z</time>
      </trkpt>
      <trkpt lat="59.4545865" lon="17.8399933">
        <ele>26.6</ele>
        <time>2013-03-17T11:38:21Z</time>
      </trkpt>
      <trkpt lat="59.4545395" lon="17.8399752">
        <ele>27</ele>
        <time>2013-03-17T11:38:22Z</time>
      </trkpt>
      <trkpt lat="59.4543995" lon="17.8399126">
        <ele>28.6</ele>
        <time>2013-03-17T11:38:25Z</time>
      </trkpt>
      <trkpt lat="59.4543556" lon="17.8398974">
        <ele>28.8</ele>
        <time>2013-03-17T11:38:26Z</time>
      </trkpt>
      <trkpt lat="59.4541768" lon="17.8398467">
        <ele>29</ele>
        <time>2013-03-17T11:38:30Z</time>
      </trkpt>
      <trkpt lat="59.4539882" lon="17.8398172">
        <ele>30.4</ele>
        <time>2013-03-17T11:38:34Z</time>
      </trkpt>
      <trkpt lat="59.4539438" lon="17.8398131">
        <ele>30.4</ele>
        <time>2013-03-17T11:38:35Z</time>
      </trkpt>
      <trkpt lat="59.4538038" lon="17.8398203">
        <ele>30.6</ele>
        <time>2013-03-17T11:38:38Z</time>
      </trkpt>
      <trkpt lat="59.4537592" lon="17.8398265">
        <ele>30.8</ele>
        <time>2013-03-17T11:38:39Z</time>
      </trkpt>
      <trkpt lat="59.4536219" lon="17.839842">
        <ele>30.6</ele>
        <time>2013-03-17T11:38:42Z</time>
      </trkpt>
      <trkpt lat="59.4534388" lon="17.839855">
        <ele>30.6</ele>
        <time>2013-03-17T11:38:46Z</time>
      </trkpt>
      <trkpt lat="59.4532574" lon="17.8399124">
        <ele>30.6</ele>
        <time>2013-03-17T11:38:50Z</time>
      </trkpt>
      <trkpt lat="59.4531679" lon="17.8399716">
        <ele>31.2</ele>
        <time>2013-03-17T11:38:52Z</time>
      </trkpt>
      <trkpt lat="59.4530875" lon="17.8400478">
        <ele>30.8</ele>
        <time>2013-03-17T11:38:54Z</time>
      </trkpt>
      <trkpt lat="59.453049" lon="17.8400955">
        <ele>30.8</ele>
        <time>2013-03-17T11:38:55Z</time>
      </trkpt>
      <trkpt lat="59.4529362" lon="17.8402512">
        <ele>31.2</ele>
        <time>2013-03-17T11:38:58Z</time>
      </trkpt>
      <trkpt lat="59.4528338" lon="17.8404072">
        <ele>30.4</ele>
        <time>2013-03-17T11:39:01Z</time>
      </trkpt>
      <trkpt lat="59.4527817" lon="17.8405373">
        <ele>31</ele>
        <time>2013-03-17T11:39:03Z</time>
      </trkpt>
      <trkpt lat="59.4527496" lon="17.8406662">
        <ele>31.2</ele>
        <time>2013-03-17T11:39:05Z</time>
      </trkpt>
      <trkpt lat="59.4527455" lon="17.8407227">
        <ele>30.4</ele>
        <time>2013-03-17T11:39:06Z</time>
      </trkpt>
      <trkpt lat="59.4527861" lon="17.8409144">
        <ele>28</ele>
        <time>2013-03-17T11:39:09Z</time>
      </trkpt>
      <trkpt lat="59.4528445" lon="17.8410144">
        <ele>26.8</ele>
        <time>2013-03-17T11:39:11Z</time>
      </trkpt>
      <trkpt lat="59.4529529" lon="17.8411654">
        <ele>24.8</ele>
        <time>2013-03-17T11:39:14Z</time>
      </trkpt>
      <trkpt lat="59.4531404" lon="17.8413878">
        <ele>22.8</ele>
        <time>2013-03-17T11:39:19Z</time>
      </trkpt>
      <trkpt lat="59.4532185" lon="17.8414819">
        <ele>22.4</ele>
        <time>2013-03-17T11:39:21Z</time>
      </trkpt>
      <trkpt lat="59.4532999" lon="17.8415679">
        <ele>22.2</ele>
        <time>2013-03-17T11:39:23Z</time>
      </trkpt>
      <trkpt lat="59.4533398" lon="17.8416182">
        <ele>22</ele>
        <time>2013-03-17T11:39:24Z</time>
      </trkpt>
      <trkpt lat="59.45346" lon="17.8417963">
        <ele>22</ele>
        <time>2013-03-17T11:39:27Z</time>
      </trkpt>
      <trkpt lat="59.4536076" lon="17.8420134">
        <ele>21.6</ele>
        <time>2013-03-17T11:39:31Z</time>
      </trkpt>
      <trkpt lat="59.4537641" lon="17.8422482">
        <ele>21</ele>
        <time>2013-03-17T11:39:35Z</time>
      </trkpt>
      <trkpt lat="59.4538439" lon="17.842359">
        <ele>21.4</ele>
        <time>2013-03-17T11:39:37Z</time>
      </trkpt>
      <trkpt lat="59.4539208" lon="17.8424854">
        <ele>22.6</ele>
        <time>2013-03-17T11:39:39Z</time>
      </trkpt>
      <trkpt lat="59.4539625" lon="17.8425433">
        <ele>23.4</ele>
        <time>2013-03-17T11:39:40Z</time>
      </trkpt>
      <trkpt lat="59.4540811" lon="17.842704">
        <ele>24</ele>
        <time>2013-03-17T11:39:43Z</time>
      </trkpt>
      <trkpt lat="59.4542442" lon="17.8429278">
        <ele>25</ele>
        <time>2013-03-17T11:39:47Z</time>
      </trkpt>
      <trkpt lat="59.4543996" lon="17.8431287">
        <ele>25</ele>
        <time>2013-03-17T11:39:51Z</time>
      </trkpt>
      <trkpt lat="59.454554" lon="17.8433319">
        <ele>24.8</ele>
        <time>2013-03-17T11:39:55Z</time>
      </trkpt>
      <trkpt lat="59.4547115" lon="17.8435241">
        <ele>24</ele>
        <time>2013-03-17T11:39:59Z</time>
      </trkpt>
      <trkpt lat="59.4547876" lon="17.8436337">
        <ele>24</ele>
        <time>2013-03-17T11:40:01Z</time>
      </trkpt>
      <trkpt lat="59.4548545" lon="17.8437606">
        <ele>24</ele>
        <time>2013-03-17T11:40:03Z</time>
      </trkpt>
      <trkpt lat="59.4549164" lon="17.843886">
        <ele>24.6</ele>
        <time>2013-03-17T11:40:05Z</time>
      </trkpt>
      <trkpt lat="59.4549672" lon="17.8440426">
        <ele>25.6</ele>
        <time>2013-03-17T11:40:07Z</time>
      </trkpt>
      <trkpt lat="59.4549985" lon="17.8442078">
        <ele>25.8</ele>
        <time>2013-03-17T11:40:09Z</time>
      </trkpt>
      <trkpt lat="59.455019" lon="17.8443621">
        <ele>26.2</ele>
        <time>2013-03-17T11:40:11Z</time>
      </trkpt>
      <trkpt lat="59.4550217" lon="17.8444461">
        <ele>26.4</ele>
        <time>2013-03-17T11:40:12Z</time>
      </trkpt>
      <trkpt lat="59.4550217" lon="17.8445289">
        <ele>26.4</ele>
        <time>2013-03-17T11:40:13Z</time>
      </trkpt>
      <trkpt lat="59.4549507" lon="17.8448251">
        <ele>24</ele>
        <time>2013-03-17T11:40:17Z</time>
      </trkpt>
      <trkpt lat="59.4548129" lon="17.8451347">
        <ele>24</ele>
        <time>2013-03-17T11:40:22Z</time>
      </trkpt>
      <trkpt lat="59.4547467" lon="17.8452124">
        <ele>24.2</ele>
        <time>2013-03-17T11:40:24Z</time>
      </trkpt>
      <trkpt lat="59.4546414" lon="17.8453407">
        <ele>24</ele>
        <time>2013-03-17T11:40:27Z</time>
      </trkpt>
      <trkpt lat="59.4545037" lon="17.8455144">
        <ele>24.8</ele>
        <time>2013-03-17T11:40:31Z</time>
      </trkpt>
      <trkpt lat="59.4544655" lon="17.8455572">
        <ele>24.8</ele>
        <time>2013-03-17T11:40:32Z</time>
      </trkpt>
      <trkpt lat="59.4543173" lon="17.8457256">
        <ele>25.4</ele>
        <time>2013-03-17T11:40:36Z</time>
      </trkpt>
      <trkpt lat="59.4542873" lon="17.8457676">
        <ele>25.6</ele>
        <time>2013-03-17T11:40:37Z</time>
      </trkpt>
      <trkpt lat="59.4542236" lon="17.8458562">
        <ele>26</ele>
        <time>2013-03-17T11:40:39Z</time>
      </trkpt>
      <trkpt lat="59.4541208" lon="17.8459949">
        <ele>26.4</ele>
        <time>2013-03-17T11:40:42Z</time>
      </trkpt>
      <trkpt lat="59.4539589" lon="17.8461934">
        <ele>26.4</ele>
        <time>2013-03-17T11:40:47Z</time>
      </trkpt>
      <trkpt lat="59.4537869" lon="17.8463809">
        <ele>26.6</ele>
        <time>2013-03-17T11:40:52Z</time>
      </trkpt>
      <trkpt lat="59.4536199" lon="17.846586">
        <ele>27.8</ele>
        <time>2013-03-17T11:40:57Z</time>
      </trkpt>
      <trkpt lat="59.4534598" lon="17.846794">
        <ele>28.6</ele>
        <time>2013-03-17T11:41:02Z</time>
      </trkpt>
      <trkpt lat="59.4533045" lon="17.8470144">
        <ele>29.4</ele>
        <time>2013-03-17T11:41:07Z</time>
      </trkpt>
      <trkpt lat="59.4531338" lon="17.8472557">
        <ele>29.4</ele>
        <time>2013-03-17T11:41:12Z</time>
      </trkpt>
      <trkpt lat="59.4529615" lon="17.8475252">
        <ele>28.4</ele>
        <time>2013-03-17T11:41:17Z</time>
      </trkpt>
      <trkpt lat="59.4527862" lon="17.847778">
        <ele>27.6</ele>
        <time>2013-03-17T11:41:22Z</time>
      </trkpt>
      <trkpt lat="59.452655" lon="17.8479534">
        <ele>27.4</ele>
        <time>2013-03-17T11:41:26Z</time>
      </trkpt>
      <trkpt lat="59.4526204" lon="17.8479967">
        <ele>27.2</ele>
        <time>2013-03-17T11:41:27Z</time>
      </trkpt>
      <trkpt lat="59.4524779" lon="17.848154">
        <ele>26.8</ele>
        <time>2013-03-17T11:41:31Z</time>
      </trkpt>
      <trkpt lat="59.4524463" lon="17.8481986">
        <ele>26.8</ele>
        <time>2013-03-17T11:41:32Z</time>
      </trkpt>
      <trkpt lat="59.4523333" lon="17.8484846">
        <ele>28.6</ele>
        <time>2013-03-17T11:41:37Z</time>
      </trkpt>
      <trkpt lat="59.4521696" lon="17.848728">
        <ele>30.2</ele>
        <time>2013-03-17T11:41:42Z</time>
      </trkpt>
      <trkpt lat="59.4520164" lon="17.848926">
        <ele>32</ele>
        <time>2013-03-17T11:41:47Z</time>
      </trkpt>
      <trkpt lat="59.4518273" lon="17.8490755">
        <ele>32.8</ele>
        <time>2013-03-17T11:41:52Z</time>
      </trkpt>
      <trkpt lat="59.4516374" lon="17.8491548">
        <ele>32.2</ele>
        <time>2013-03-17T11:41:57Z</time>
      </trkpt>
      <trkpt lat="59.4514449" lon="17.8492636">
        <ele>32.8</ele>
        <time>2013-03-17T11:42:01Z</time>
      </trkpt>
      <trkpt lat="59.4513978" lon="17.8492926">
        <ele>33.2</ele>
        <time>2013-03-17T11:42:02Z</time>
      </trkpt>
      <trkpt lat="59.4512512" lon="17.8493722">
        <ele>34.4</ele>
        <time>2013-03-17T11:42:05Z</time>
      </trkpt>
      <trkpt lat="59.4510778" lon="17.8494909">
        <ele>35.8</ele>
        <time>2013-03-17T11:42:09Z</time>
      </trkpt>
      <trkpt lat="59.4508998" lon="17.849636">
        <ele>37.8</ele>
        <time>2013-03-17T11:42:13Z</time>
      </trkpt>
      <trkpt lat="59.4507249" lon="17.8497477">
        <ele>38.8</ele>
        <time>2013-03-17T11:42:17Z</time>
      </trkpt>
      <trkpt lat="59.4505266" lon="17.8498836">
        <ele>37.4</ele>
        <time>2013-03-17T11:42:22Z</time>
      </trkpt>
      <trkpt lat="59.4503177" lon="17.8499641">
        <ele>36.6</ele>
        <time>2013-03-17T11:42:27Z</time>
      </trkpt>
      <trkpt lat="59.4501059" lon="17.8500394">
        <ele>36</ele>
        <time>2013-03-17T11:42:32Z</time>
      </trkpt>
      <trkpt lat="59.4499101" lon="17.8501416">
        <ele>37.2</ele>
        <time>2013-03-17T11:42:36Z</time>
      </trkpt>
      <trkpt lat="59.4497464" lon="17.8501867">
        <ele>38.2</ele>
        <time>2013-03-17T11:42:39Z</time>
      </trkpt>
      <trkpt lat="59.4496966" lon="17.8502049">
        <ele>38.6</ele>
        <time>2013-03-17T11:42:40Z</time>
      </trkpt>
      <trkpt lat="59.4494929" lon="17.8502082">
        <ele>37.6</ele>
        <time>2013-03-17T11:42:45Z</time>
      </trkpt>
    </trkseg>
  </trk>
</gpx>